<?xml version="1.0" encoding="UTF-8" standalone="no" ?>
<gpx xmlns="http://www.topografix.com/GPX/1/1" xmlns:xsi="http://www.w3.org/2001/XMLSchema-instance" xsi:schemaLocation="http://www.topografix.com/GPX/1/1 http://www.topografix.com/GPX/1/1/gpx.xsd" version="1.1" creator="VisuGPX - https://www.visugpx.com">
  <metadata>
    <name>2013-03-31-BelleEtoile2013</name>
    <desc><![CDATA[Belle Etoile 20913, repli du repli...
]]></desc>
  </metadata>
  <trk>
    <name><![CDATA[Untitled]]></name>
    <trkseg>
      <trkpt lat="45.25604" lon="5.99459">
        <ele>1340.400024</ele>
        <time>2013-03-31T08:01:47Z</time>
      </trkpt>
      <trkpt lat="45.25597" lon="5.99434">
        <ele>1342.599976</ele>
        <time>2013-03-31T08:01:56Z</time>
      </trkpt>
      <trkpt lat="45.25597" lon="5.99429">
        <ele>1342.599976</ele>
        <time>2013-03-31T08:01:58Z</time>
      </trkpt>
      <trkpt lat="45.25595" lon="5.99426">
        <ele>1343.199951</ele>
        <time>2013-03-31T08:02:00Z</time>
      </trkpt>
      <trkpt lat="45.25594" lon="5.9942">
        <ele>1343.400024</ele>
        <time>2013-03-31T08:02:02Z</time>
      </trkpt>
      <trkpt lat="45.25593" lon="5.99416">
        <ele>1343.800049</ele>
        <time>2013-03-31T08:02:04Z</time>
      </trkpt>
      <trkpt lat="45.25593" lon="5.99413">
        <ele>1343.400024</ele>
        <time>2013-03-31T08:02:06Z</time>
      </trkpt>
      <trkpt lat="45.2559" lon="5.99401">
        <ele>1343.199951</ele>
        <time>2013-03-31T08:02:11Z</time>
      </trkpt>
      <trkpt lat="45.25586" lon="5.99392">
        <ele>1343.400024</ele>
        <time>2013-03-31T08:02:15Z</time>
      </trkpt>
      <trkpt lat="45.25584" lon="5.99386">
        <ele>1343</ele>
        <time>2013-03-31T08:02:17Z</time>
      </trkpt>
      <trkpt lat="45.25583" lon="5.99383">
        <ele>1343.199951</ele>
        <time>2013-03-31T08:02:18Z</time>
      </trkpt>
      <trkpt lat="45.25581" lon="5.99373">
        <ele>1342.800049</ele>
        <time>2013-03-31T08:02:21Z</time>
      </trkpt>
      <trkpt lat="45.25574" lon="5.99361">
        <ele>1342.800049</ele>
        <time>2013-03-31T08:02:26Z</time>
      </trkpt>
      <trkpt lat="45.25561" lon="5.99347">
        <ele>1344</ele>
        <time>2013-03-31T08:02:36Z</time>
      </trkpt>
      <trkpt lat="45.2555" lon="5.99338">
        <ele>1345.400024</ele>
        <time>2013-03-31T08:02:44Z</time>
      </trkpt>
      <trkpt lat="45.25543" lon="5.99335">
        <ele>1346.199951</ele>
        <time>2013-03-31T08:02:48Z</time>
      </trkpt>
      <trkpt lat="45.25539" lon="5.99334">
        <ele>1346.800049</ele>
        <time>2013-03-31T08:02:50Z</time>
      </trkpt>
      <trkpt lat="45.25539" lon="5.99333">
        <ele>1346.800049</ele>
        <time>2013-03-31T08:02:51Z</time>
      </trkpt>
      <trkpt lat="45.25534" lon="5.99332">
        <ele>1347.599976</ele>
        <time>2013-03-31T08:02:54Z</time>
      </trkpt>
      <trkpt lat="45.25532" lon="5.99333">
        <ele>1348</ele>
        <time>2013-03-31T08:02:55Z</time>
      </trkpt>
      <trkpt lat="45.25532" lon="5.99332">
        <ele>1348</ele>
        <time>2013-03-31T08:02:56Z</time>
      </trkpt>
      <trkpt lat="45.2553" lon="5.99331">
        <ele>1348.199951</ele>
        <time>2013-03-31T08:02:57Z</time>
      </trkpt>
      <trkpt lat="45.25523" lon="5.99334">
        <ele>1349.800049</ele>
        <time>2013-03-31T08:03:01Z</time>
      </trkpt>
      <trkpt lat="45.25522" lon="5.99333">
        <ele>1350</ele>
        <time>2013-03-31T08:03:02Z</time>
      </trkpt>
      <trkpt lat="45.25514" lon="5.99334">
        <ele>1351.400024</ele>
        <time>2013-03-31T08:03:07Z</time>
      </trkpt>
      <trkpt lat="45.25508" lon="5.99336">
        <ele>1352.599976</ele>
        <time>2013-03-31T08:03:10Z</time>
      </trkpt>
      <trkpt lat="45.25504" lon="5.99339">
        <ele>1353.400024</ele>
        <time>2013-03-31T08:03:12Z</time>
      </trkpt>
      <trkpt lat="45.25493" lon="5.99344">
        <ele>1355</ele>
        <time>2013-03-31T08:03:18Z</time>
      </trkpt>
      <trkpt lat="45.25485" lon="5.99346">
        <ele>1355.400024</ele>
        <time>2013-03-31T08:03:22Z</time>
      </trkpt>
      <trkpt lat="45.25475" lon="5.99349">
        <ele>1356.199951</ele>
        <time>2013-03-31T08:03:27Z</time>
      </trkpt>
      <trkpt lat="45.25459" lon="5.99351">
        <ele>1357.199951</ele>
        <time>2013-03-31T08:03:35Z</time>
      </trkpt>
      <trkpt lat="45.25453" lon="5.99354">
        <ele>1357.800049</ele>
        <time>2013-03-31T08:03:38Z</time>
      </trkpt>
      <trkpt lat="45.25428" lon="5.99361">
        <ele>1360.199951</ele>
        <time>2013-03-31T08:03:50Z</time>
      </trkpt>
      <trkpt lat="45.2542" lon="5.99361">
        <ele>1360.599976</ele>
        <time>2013-03-31T08:03:54Z</time>
      </trkpt>
      <trkpt lat="45.25407" lon="5.99364">
        <ele>1363.599976</ele>
        <time>2013-03-31T08:04:00Z</time>
      </trkpt>
      <trkpt lat="45.25395" lon="5.99366">
        <ele>1366.599976</ele>
        <time>2013-03-31T08:04:07Z</time>
      </trkpt>
      <trkpt lat="45.25389" lon="5.99369">
        <ele>1368.800049</ele>
        <time>2013-03-31T08:04:11Z</time>
      </trkpt>
      <trkpt lat="45.25381" lon="5.99369">
        <ele>1370.599976</ele>
        <time>2013-03-31T08:04:16Z</time>
      </trkpt>
      <trkpt lat="45.25377" lon="5.99371">
        <ele>1371.800049</ele>
        <time>2013-03-31T08:04:18Z</time>
      </trkpt>
      <trkpt lat="45.25375" lon="5.99369">
        <ele>1372</ele>
        <time>2013-03-31T08:04:20Z</time>
      </trkpt>
      <trkpt lat="45.25365" lon="5.99371">
        <ele>1374.599976</ele>
        <time>2013-03-31T08:04:25Z</time>
      </trkpt>
      <trkpt lat="45.2536" lon="5.99374">
        <ele>1376.599976</ele>
        <time>2013-03-31T08:04:28Z</time>
      </trkpt>
      <trkpt lat="45.25354" lon="5.99374">
        <ele>1378</ele>
        <time>2013-03-31T08:04:32Z</time>
      </trkpt>
      <trkpt lat="45.25347" lon="5.99377">
        <ele>1380</ele>
        <time>2013-03-31T08:04:36Z</time>
      </trkpt>
      <trkpt lat="45.25331" lon="5.9938">
        <ele>1384.199951</ele>
        <time>2013-03-31T08:04:48Z</time>
      </trkpt>
      <trkpt lat="45.25326" lon="5.99379">
        <ele>1384.199951</ele>
        <time>2013-03-31T08:04:53Z</time>
      </trkpt>
      <trkpt lat="45.25323" lon="5.9938">
        <ele>1384.800049</ele>
        <time>2013-03-31T08:04:55Z</time>
      </trkpt>
      <trkpt lat="45.25318" lon="5.9938">
        <ele>1385</ele>
        <time>2013-03-31T08:04:59Z</time>
      </trkpt>
      <trkpt lat="45.25317" lon="5.9938">
        <ele>1384.800049</ele>
        <time>2013-03-31T08:05:00Z</time>
      </trkpt>
      <trkpt lat="45.25308" lon="5.99382">
        <ele>1386</ele>
        <time>2013-03-31T08:05:07Z</time>
      </trkpt>
      <trkpt lat="45.25295" lon="5.9939">
        <ele>1388.599976</ele>
        <time>2013-03-31T08:05:19Z</time>
      </trkpt>
      <trkpt lat="45.25285" lon="5.99395">
        <ele>1390.199951</ele>
        <time>2013-03-31T08:05:28Z</time>
      </trkpt>
      <trkpt lat="45.25282" lon="5.99395">
        <ele>1390.400024</ele>
        <time>2013-03-31T08:05:30Z</time>
      </trkpt>
      <trkpt lat="45.25279" lon="5.99398">
        <ele>1391.199951</ele>
        <time>2013-03-31T08:05:33Z</time>
      </trkpt>
      <trkpt lat="45.25274" lon="5.99405">
        <ele>1393.199951</ele>
        <time>2013-03-31T08:05:40Z</time>
      </trkpt>
      <trkpt lat="45.2527" lon="5.99407">
        <ele>1393.800049</ele>
        <time>2013-03-31T08:05:44Z</time>
      </trkpt>
      <trkpt lat="45.25268" lon="5.9941">
        <ele>1394.599976</ele>
        <time>2013-03-31T08:05:47Z</time>
      </trkpt>
      <trkpt lat="45.25262" lon="5.99413">
        <ele>1395.599976</ele>
        <time>2013-03-31T08:05:51Z</time>
      </trkpt>
      <trkpt lat="45.25258" lon="5.9942">
        <ele>1397.400024</ele>
        <time>2013-03-31T08:05:56Z</time>
      </trkpt>
      <trkpt lat="45.25255" lon="5.99427">
        <ele>1399.199951</ele>
        <time>2013-03-31T08:06:02Z</time>
      </trkpt>
      <trkpt lat="45.25251" lon="5.99434">
        <ele>1401.400024</ele>
        <time>2013-03-31T08:06:08Z</time>
      </trkpt>
      <trkpt lat="45.2525" lon="5.99439">
        <ele>1402.400024</ele>
        <time>2013-03-31T08:06:12Z</time>
      </trkpt>
      <trkpt lat="45.25249" lon="5.99439">
        <ele>1402.599976</ele>
        <time>2013-03-31T08:06:13Z</time>
      </trkpt>
      <trkpt lat="45.25249" lon="5.99445">
        <ele>1404</ele>
        <time>2013-03-31T08:06:18Z</time>
      </trkpt>
      <trkpt lat="45.25242" lon="5.99457">
        <ele>1407.400024</ele>
        <time>2013-03-31T08:06:28Z</time>
      </trkpt>
      <trkpt lat="45.25242" lon="5.99457">
        <ele>1407.400024</ele>
        <time>2013-03-31T08:06:29Z</time>
      </trkpt>
      <trkpt lat="45.25241" lon="5.9946">
        <ele>1408.199951</ele>
        <time>2013-03-31T08:06:31Z</time>
      </trkpt>
      <trkpt lat="45.25237" lon="5.99465">
        <ele>1410</ele>
        <time>2013-03-31T08:06:37Z</time>
      </trkpt>
      <trkpt lat="45.25233" lon="5.99474">
        <ele>1412.400024</ele>
        <time>2013-03-31T08:06:44Z</time>
      </trkpt>
      <trkpt lat="45.25233" lon="5.99476">
        <ele>1413</ele>
        <time>2013-03-31T08:06:46Z</time>
      </trkpt>
      <trkpt lat="45.25234" lon="5.99479">
        <ele>1413.599976</ele>
        <time>2013-03-31T08:06:48Z</time>
      </trkpt>
      <trkpt lat="45.25232" lon="5.99481">
        <ele>1414.400024</ele>
        <time>2013-03-31T08:06:50Z</time>
      </trkpt>
      <trkpt lat="45.25231" lon="5.99486">
        <ele>1415.599976</ele>
        <time>2013-03-31T08:06:54Z</time>
      </trkpt>
      <trkpt lat="45.25228" lon="5.99488">
        <ele>1416.400024</ele>
        <time>2013-03-31T08:06:57Z</time>
      </trkpt>
      <trkpt lat="45.25228" lon="5.99492">
        <ele>1417.599976</ele>
        <time>2013-03-31T08:07:00Z</time>
      </trkpt>
      <trkpt lat="45.25229" lon="5.99493">
        <ele>1418</ele>
        <time>2013-03-31T08:07:01Z</time>
      </trkpt>
      <trkpt lat="45.25223" lon="5.99505">
        <ele>1421.400024</ele>
        <time>2013-03-31T08:07:12Z</time>
      </trkpt>
      <trkpt lat="45.25224" lon="5.99508">
        <ele>1422</ele>
        <time>2013-03-31T08:07:14Z</time>
      </trkpt>
      <trkpt lat="45.25212" lon="5.99533">
        <ele>1428.599976</ele>
        <time>2013-03-31T08:07:39Z</time>
      </trkpt>
      <trkpt lat="45.25211" lon="5.99537">
        <ele>1429.599976</ele>
        <time>2013-03-31T08:07:43Z</time>
      </trkpt>
      <trkpt lat="45.25207" lon="5.99542">
        <ele>1431.199951</ele>
        <time>2013-03-31T08:07:48Z</time>
      </trkpt>
      <trkpt lat="45.25207" lon="5.99544">
        <ele>1431.599976</ele>
        <time>2013-03-31T08:07:50Z</time>
      </trkpt>
      <trkpt lat="45.25205" lon="5.99546">
        <ele>1432.199951</ele>
        <time>2013-03-31T08:07:52Z</time>
      </trkpt>
      <trkpt lat="45.25204" lon="5.99551">
        <ele>1433.400024</ele>
        <time>2013-03-31T08:07:56Z</time>
      </trkpt>
      <trkpt lat="45.25204" lon="5.99552">
        <ele>1433.599976</ele>
        <time>2013-03-31T08:07:57Z</time>
      </trkpt>
      <trkpt lat="45.25202" lon="5.99557">
        <ele>1434.800049</ele>
        <time>2013-03-31T08:08:01Z</time>
      </trkpt>
      <trkpt lat="45.25198" lon="5.99559">
        <ele>1435.599976</ele>
        <time>2013-03-31T08:08:03Z</time>
      </trkpt>
      <trkpt lat="45.25198" lon="5.9956">
        <ele>1436</ele>
        <time>2013-03-31T08:08:04Z</time>
      </trkpt>
      <trkpt lat="45.25197" lon="5.99561">
        <ele>1436.199951</ele>
        <time>2013-03-31T08:08:05Z</time>
      </trkpt>
      <trkpt lat="45.25196" lon="5.99564">
        <ele>1437</ele>
        <time>2013-03-31T08:08:07Z</time>
      </trkpt>
      <trkpt lat="45.25193" lon="5.99579">
        <ele>1440.800049</ele>
        <time>2013-03-31T08:08:19Z</time>
      </trkpt>
      <trkpt lat="45.2519" lon="5.99583">
        <ele>1441.800049</ele>
        <time>2013-03-31T08:08:23Z</time>
      </trkpt>
      <trkpt lat="45.2519" lon="5.99586">
        <ele>1442.599976</ele>
        <time>2013-03-31T08:08:25Z</time>
      </trkpt>
      <trkpt lat="45.25189" lon="5.99587">
        <ele>1442.800049</ele>
        <time>2013-03-31T08:08:26Z</time>
      </trkpt>
      <trkpt lat="45.25189" lon="5.99591">
        <ele>1443.599976</ele>
        <time>2013-03-31T08:08:29Z</time>
      </trkpt>
      <trkpt lat="45.25187" lon="5.99595">
        <ele>1444.800049</ele>
        <time>2013-03-31T08:08:33Z</time>
      </trkpt>
      <trkpt lat="45.25186" lon="5.99598">
        <ele>1445.400024</ele>
        <time>2013-03-31T08:08:35Z</time>
      </trkpt>
      <trkpt lat="45.25184" lon="5.99599">
        <ele>1446</ele>
        <time>2013-03-31T08:08:37Z</time>
      </trkpt>
      <trkpt lat="45.25185" lon="5.996">
        <ele>1446.199951</ele>
        <time>2013-03-31T08:08:38Z</time>
      </trkpt>
      <trkpt lat="45.25183" lon="5.99603">
        <ele>1447</ele>
        <time>2013-03-31T08:08:40Z</time>
      </trkpt>
      <trkpt lat="45.25185" lon="5.99609">
        <ele>1448.199951</ele>
        <time>2013-03-31T08:08:44Z</time>
      </trkpt>
      <trkpt lat="45.25183" lon="5.99612">
        <ele>1449.199951</ele>
        <time>2013-03-31T08:08:47Z</time>
      </trkpt>
      <trkpt lat="45.25181" lon="5.99612">
        <ele>1449.400024</ele>
        <time>2013-03-31T08:08:48Z</time>
      </trkpt>
      <trkpt lat="45.25181" lon="5.99617">
        <ele>1450.199951</ele>
        <time>2013-03-31T08:08:50Z</time>
      </trkpt>
      <trkpt lat="45.25179" lon="5.99618">
        <ele>1450.800049</ele>
        <time>2013-03-31T08:08:53Z</time>
      </trkpt>
      <trkpt lat="45.2518" lon="5.9962">
        <ele>1451.199951</ele>
        <time>2013-03-31T08:08:55Z</time>
      </trkpt>
      <trkpt lat="45.25178" lon="5.99624">
        <ele>1452</ele>
        <time>2013-03-31T08:08:58Z</time>
      </trkpt>
      <trkpt lat="45.25178" lon="5.99627">
        <ele>1452.800049</ele>
        <time>2013-03-31T08:09:01Z</time>
      </trkpt>
      <trkpt lat="45.25174" lon="5.99634">
        <ele>1454.800049</ele>
        <time>2013-03-31T08:09:10Z</time>
      </trkpt>
      <trkpt lat="45.25172" lon="5.99635">
        <ele>1455.199951</ele>
        <time>2013-03-31T08:09:12Z</time>
      </trkpt>
      <trkpt lat="45.25166" lon="5.99645">
        <ele>1457.800049</ele>
        <time>2013-03-31T08:09:20Z</time>
      </trkpt>
      <trkpt lat="45.25156" lon="5.99653">
        <ele>1459.800049</ele>
        <time>2013-03-31T08:09:31Z</time>
      </trkpt>
      <trkpt lat="45.25154" lon="5.99653">
        <ele>1459.800049</ele>
        <time>2013-03-31T08:09:33Z</time>
      </trkpt>
      <trkpt lat="45.25137" lon="5.99665">
        <ele>1462.400024</ele>
        <time>2013-03-31T08:09:48Z</time>
      </trkpt>
      <trkpt lat="45.25124" lon="5.99669">
        <ele>1463.599976</ele>
        <time>2013-03-31T08:09:58Z</time>
      </trkpt>
      <trkpt lat="45.25119" lon="5.99672">
        <ele>1464.599976</ele>
        <time>2013-03-31T08:10:03Z</time>
      </trkpt>
      <trkpt lat="45.25115" lon="5.99673">
        <ele>1464.800049</ele>
        <time>2013-03-31T08:10:06Z</time>
      </trkpt>
      <trkpt lat="45.25113" lon="5.99675">
        <ele>1465.199951</ele>
        <time>2013-03-31T08:10:08Z</time>
      </trkpt>
      <trkpt lat="45.25096" lon="5.99678">
        <ele>1466.400024</ele>
        <time>2013-03-31T08:10:22Z</time>
      </trkpt>
      <trkpt lat="45.25095" lon="5.99679">
        <ele>1466.599976</ele>
        <time>2013-03-31T08:10:23Z</time>
      </trkpt>
      <trkpt lat="45.25079" lon="5.99682">
        <ele>1467.599976</ele>
        <time>2013-03-31T08:10:37Z</time>
      </trkpt>
      <trkpt lat="45.25077" lon="5.99683">
        <ele>1468</ele>
        <time>2013-03-31T08:10:39Z</time>
      </trkpt>
      <trkpt lat="45.25076" lon="5.99683">
        <ele>1467.800049</ele>
        <time>2013-03-31T08:10:40Z</time>
      </trkpt>
      <trkpt lat="45.25064" lon="5.99689">
        <ele>1469.800049</ele>
        <time>2013-03-31T08:10:50Z</time>
      </trkpt>
      <trkpt lat="45.25052" lon="5.99699">
        <ele>1472.400024</ele>
        <time>2013-03-31T08:10:59Z</time>
      </trkpt>
      <trkpt lat="45.25049" lon="5.99703">
        <ele>1473.599976</ele>
        <time>2013-03-31T08:11:02Z</time>
      </trkpt>
      <trkpt lat="45.25043" lon="5.99707">
        <ele>1474.599976</ele>
        <time>2013-03-31T08:11:05Z</time>
      </trkpt>
      <trkpt lat="45.25022" lon="5.9973">
        <ele>1480</ele>
        <time>2013-03-31T08:11:23Z</time>
      </trkpt>
      <trkpt lat="45.25021" lon="5.99733">
        <ele>1480.800049</ele>
        <time>2013-03-31T08:11:25Z</time>
      </trkpt>
      <trkpt lat="45.25018" lon="5.99737">
        <ele>1481.599976</ele>
        <time>2013-03-31T08:11:28Z</time>
      </trkpt>
      <trkpt lat="45.25018" lon="5.99737">
        <ele>1481.599976</ele>
        <time>2013-03-31T08:11:29Z</time>
      </trkpt>
      <trkpt lat="45.25017" lon="5.99738">
        <ele>1482</ele>
        <time>2013-03-31T08:11:30Z</time>
      </trkpt>
      <trkpt lat="45.25014" lon="5.99747">
        <ele>1483.800049</ele>
        <time>2013-03-31T08:11:37Z</time>
      </trkpt>
      <trkpt lat="45.25013" lon="5.99751">
        <ele>1484.800049</ele>
        <time>2013-03-31T08:11:40Z</time>
      </trkpt>
      <trkpt lat="45.25007" lon="5.99763">
        <ele>1487.199951</ele>
        <time>2013-03-31T08:11:48Z</time>
      </trkpt>
      <trkpt lat="45.25007" lon="5.99764">
        <ele>1487.599976</ele>
        <time>2013-03-31T08:11:49Z</time>
      </trkpt>
      <trkpt lat="45.25004" lon="5.99768">
        <ele>1488.199951</ele>
        <time>2013-03-31T08:11:52Z</time>
      </trkpt>
      <trkpt lat="45.25005" lon="5.99771">
        <ele>1489</ele>
        <time>2013-03-31T08:11:54Z</time>
      </trkpt>
      <trkpt lat="45.25004" lon="5.99777">
        <ele>1490.400024</ele>
        <time>2013-03-31T08:11:57Z</time>
      </trkpt>
      <trkpt lat="45.25001" lon="5.99787">
        <ele>1492.199951</ele>
        <time>2013-03-31T08:12:03Z</time>
      </trkpt>
      <trkpt lat="45.24999" lon="5.9979">
        <ele>1492.800049</ele>
        <time>2013-03-31T08:12:05Z</time>
      </trkpt>
      <trkpt lat="45.24996" lon="5.99796">
        <ele>1493.800049</ele>
        <time>2013-03-31T08:12:10Z</time>
      </trkpt>
      <trkpt lat="45.24985" lon="5.99803">
        <ele>1493.800049</ele>
        <time>2013-03-31T08:12:21Z</time>
      </trkpt>
      <trkpt lat="45.24984" lon="5.99805">
        <ele>1494</ele>
        <time>2013-03-31T08:12:22Z</time>
      </trkpt>
      <trkpt lat="45.24981" lon="5.99806">
        <ele>1494</ele>
        <time>2013-03-31T08:12:24Z</time>
      </trkpt>
      <trkpt lat="45.24976" lon="5.99813">
        <ele>1494.800049</ele>
        <time>2013-03-31T08:12:29Z</time>
      </trkpt>
      <trkpt lat="45.24972" lon="5.99815">
        <ele>1494.599976</ele>
        <time>2013-03-31T08:12:33Z</time>
      </trkpt>
      <trkpt lat="45.24967" lon="5.99819">
        <ele>1494.800049</ele>
        <time>2013-03-31T08:12:36Z</time>
      </trkpt>
      <trkpt lat="45.24965" lon="5.99819">
        <ele>1494.599976</ele>
        <time>2013-03-31T08:12:38Z</time>
      </trkpt>
      <trkpt lat="45.24965" lon="5.9982">
        <ele>1494.800049</ele>
        <time>2013-03-31T08:12:39Z</time>
      </trkpt>
      <trkpt lat="45.24962" lon="5.99821">
        <ele>1494.599976</ele>
        <time>2013-03-31T08:12:41Z</time>
      </trkpt>
      <trkpt lat="45.24956" lon="5.99831">
        <ele>1496</ele>
        <time>2013-03-31T08:12:51Z</time>
      </trkpt>
      <trkpt lat="45.24956" lon="5.99833">
        <ele>1496.599976</ele>
        <time>2013-03-31T08:12:53Z</time>
      </trkpt>
      <trkpt lat="45.24953" lon="5.99837">
        <ele>1497</ele>
        <time>2013-03-31T08:12:56Z</time>
      </trkpt>
      <trkpt lat="45.24954" lon="5.99845">
        <ele>1499</ele>
        <time>2013-03-31T08:13:01Z</time>
      </trkpt>
      <trkpt lat="45.24953" lon="5.99846">
        <ele>1499.199951</ele>
        <time>2013-03-31T08:13:02Z</time>
      </trkpt>
      <trkpt lat="45.24953" lon="5.99851">
        <ele>1500.199951</ele>
        <time>2013-03-31T08:13:04Z</time>
      </trkpt>
      <trkpt lat="45.2495" lon="5.99853">
        <ele>1500.400024</ele>
        <time>2013-03-31T08:13:07Z</time>
      </trkpt>
      <trkpt lat="45.24946" lon="5.99855">
        <ele>1500.400024</ele>
        <time>2013-03-31T08:13:11Z</time>
      </trkpt>
      <trkpt lat="45.24944" lon="5.99854">
        <ele>1499.800049</ele>
        <time>2013-03-31T08:13:13Z</time>
      </trkpt>
      <trkpt lat="45.24943" lon="5.99853">
        <ele>1499.400024</ele>
        <time>2013-03-31T08:13:14Z</time>
      </trkpt>
      <trkpt lat="45.24941" lon="5.99854">
        <ele>1499.400024</ele>
        <time>2013-03-31T08:13:16Z</time>
      </trkpt>
      <trkpt lat="45.2494" lon="5.99858">
        <ele>1500.199951</ele>
        <time>2013-03-31T08:13:19Z</time>
      </trkpt>
      <trkpt lat="45.24936" lon="5.99866">
        <ele>1501.599976</ele>
        <time>2013-03-31T08:13:24Z</time>
      </trkpt>
      <trkpt lat="45.2493" lon="5.99869">
        <ele>1501.599976</ele>
        <time>2013-03-31T08:13:28Z</time>
      </trkpt>
      <trkpt lat="45.24925" lon="5.99874">
        <ele>1502</ele>
        <time>2013-03-31T08:13:33Z</time>
      </trkpt>
      <trkpt lat="45.24922" lon="5.99883">
        <ele>1503.599976</ele>
        <time>2013-03-31T08:13:42Z</time>
      </trkpt>
      <trkpt lat="45.24922" lon="5.99886">
        <ele>1504.400024</ele>
        <time>2013-03-31T08:13:44Z</time>
      </trkpt>
      <trkpt lat="45.24917" lon="5.99896">
        <ele>1506</ele>
        <time>2013-03-31T08:13:49Z</time>
      </trkpt>
      <trkpt lat="45.24917" lon="5.99898">
        <ele>1506.599976</ele>
        <time>2013-03-31T08:13:50Z</time>
      </trkpt>
      <trkpt lat="45.24912" lon="5.99909">
        <ele>1508.400024</ele>
        <time>2013-03-31T08:13:56Z</time>
      </trkpt>
      <trkpt lat="45.24909" lon="5.99912">
        <ele>1508.800049</ele>
        <time>2013-03-31T08:13:58Z</time>
      </trkpt>
      <trkpt lat="45.24905" lon="5.99919">
        <ele>1510</ele>
        <time>2013-03-31T08:14:02Z</time>
      </trkpt>
      <trkpt lat="45.24904" lon="5.99923">
        <ele>1511</ele>
        <time>2013-03-31T08:14:05Z</time>
      </trkpt>
      <trkpt lat="45.24903" lon="5.99925">
        <ele>1511.400024</ele>
        <time>2013-03-31T08:14:06Z</time>
      </trkpt>
      <trkpt lat="45.24901" lon="5.99926">
        <ele>1511.199951</ele>
        <time>2013-03-31T08:14:07Z</time>
      </trkpt>
      <trkpt lat="45.249" lon="5.99929">
        <ele>1511.800049</ele>
        <time>2013-03-31T08:14:09Z</time>
      </trkpt>
      <trkpt lat="45.24899" lon="5.99928">
        <ele>1511.599976</ele>
        <time>2013-03-31T08:14:10Z</time>
      </trkpt>
      <trkpt lat="45.24895" lon="5.99931">
        <ele>1511.800049</ele>
        <time>2013-03-31T08:14:13Z</time>
      </trkpt>
      <trkpt lat="45.24892" lon="5.99936">
        <ele>1512.800049</ele>
        <time>2013-03-31T08:14:16Z</time>
      </trkpt>
      <trkpt lat="45.2489" lon="5.99936">
        <ele>1512.599976</ele>
        <time>2013-03-31T08:14:18Z</time>
      </trkpt>
      <trkpt lat="45.24883" lon="5.99952">
        <ele>1516</ele>
        <time>2013-03-31T08:14:28Z</time>
      </trkpt>
      <trkpt lat="45.24882" lon="5.99954">
        <ele>1516.599976</ele>
        <time>2013-03-31T08:14:29Z</time>
      </trkpt>
      <trkpt lat="45.24877" lon="5.99966">
        <ele>1519.400024</ele>
        <time>2013-03-31T08:14:38Z</time>
      </trkpt>
      <trkpt lat="45.24869" lon="5.99975">
        <ele>1521</ele>
        <time>2013-03-31T08:14:46Z</time>
      </trkpt>
      <trkpt lat="45.24865" lon="5.99981">
        <ele>1522.199951</ele>
        <time>2013-03-31T08:14:49Z</time>
      </trkpt>
      <trkpt lat="45.24863" lon="5.99981">
        <ele>1522</ele>
        <time>2013-03-31T08:14:50Z</time>
      </trkpt>
      <trkpt lat="45.2486" lon="5.99985">
        <ele>1522.800049</ele>
        <time>2013-03-31T08:14:53Z</time>
      </trkpt>
      <trkpt lat="45.24861" lon="5.99987">
        <ele>1523.599976</ele>
        <time>2013-03-31T08:14:54Z</time>
      </trkpt>
      <trkpt lat="45.24859" lon="5.99993">
        <ele>1525</ele>
        <time>2013-03-31T08:14:57Z</time>
      </trkpt>
      <trkpt lat="45.24856" lon="5.99995">
        <ele>1525.400024</ele>
        <time>2013-03-31T08:14:59Z</time>
      </trkpt>
      <trkpt lat="45.24856" lon="5.99999">
        <ele>1526.599976</ele>
        <time>2013-03-31T08:15:02Z</time>
      </trkpt>
      <trkpt lat="45.24851" lon="6.00004">
        <ele>1526.400024</ele>
        <time>2013-03-31T08:15:07Z</time>
      </trkpt>
      <trkpt lat="45.24844" lon="6.00007">
        <ele>1525.800049</ele>
        <time>2013-03-31T08:15:12Z</time>
      </trkpt>
      <trkpt lat="45.24845" lon="6.00008">
        <ele>1526</ele>
        <time>2013-03-31T08:15:13Z</time>
      </trkpt>
      <trkpt lat="45.24844" lon="6.00009">
        <ele>1525.800049</ele>
        <time>2013-03-31T08:15:14Z</time>
      </trkpt>
      <trkpt lat="45.24843" lon="6.00011">
        <ele>1525.599976</ele>
        <time>2013-03-31T08:15:16Z</time>
      </trkpt>
      <trkpt lat="45.24835" lon="6.00013">
        <ele>1525</ele>
        <time>2013-03-31T08:15:21Z</time>
      </trkpt>
      <trkpt lat="45.24832" lon="6.00018">
        <ele>1524.800049</ele>
        <time>2013-03-31T08:15:26Z</time>
      </trkpt>
      <trkpt lat="45.2483" lon="6.0002">
        <ele>1524.800049</ele>
        <time>2013-03-31T08:15:28Z</time>
      </trkpt>
      <trkpt lat="45.2483" lon="6.00021">
        <ele>1524.800049</ele>
        <time>2013-03-31T08:15:29Z</time>
      </trkpt>
      <trkpt lat="45.24829" lon="6.00024">
        <ele>1524.800049</ele>
        <time>2013-03-31T08:15:31Z</time>
      </trkpt>
      <trkpt lat="45.24829" lon="6.00028">
        <ele>1524.800049</ele>
        <time>2013-03-31T08:15:33Z</time>
      </trkpt>
      <trkpt lat="45.24827" lon="6.00028">
        <ele>1524.599976</ele>
        <time>2013-03-31T08:15:35Z</time>
      </trkpt>
      <trkpt lat="45.24826" lon="6.00031">
        <ele>1524.599976</ele>
        <time>2013-03-31T08:15:37Z</time>
      </trkpt>
      <trkpt lat="45.24823" lon="6.00034">
        <ele>1524.599976</ele>
        <time>2013-03-31T08:15:41Z</time>
      </trkpt>
      <trkpt lat="45.24819" lon="6.0004">
        <ele>1524.400024</ele>
        <time>2013-03-31T08:15:47Z</time>
      </trkpt>
      <trkpt lat="45.24815" lon="6.00042">
        <ele>1524.199951</ele>
        <time>2013-03-31T08:15:50Z</time>
      </trkpt>
      <trkpt lat="45.24811" lon="6.00047">
        <ele>1538.800049</ele>
        <time>2013-03-31T08:15:55Z</time>
      </trkpt>
      <trkpt lat="45.24811" lon="6.00049">
        <ele>1539.599976</ele>
        <time>2013-03-31T08:15:56Z</time>
      </trkpt>
      <trkpt lat="45.24807" lon="6.00051">
        <ele>1540.199951</ele>
        <time>2013-03-31T08:15:58Z</time>
      </trkpt>
      <trkpt lat="45.24806" lon="6.00053">
        <ele>1540.800049</ele>
        <time>2013-03-31T08:15:59Z</time>
      </trkpt>
      <trkpt lat="45.24805" lon="6.00056">
        <ele>1541.800049</ele>
        <time>2013-03-31T08:16:01Z</time>
      </trkpt>
      <trkpt lat="45.24799" lon="6.00061">
        <ele>1543.400024</ele>
        <time>2013-03-31T08:16:07Z</time>
      </trkpt>
      <trkpt lat="45.24791" lon="6.00064">
        <ele>1544.400024</ele>
        <time>2013-03-31T08:16:14Z</time>
      </trkpt>
      <trkpt lat="45.24794" lon="6.00066">
        <ele>1545.199951</ele>
        <time>2013-03-31T08:16:19Z</time>
      </trkpt>
      <trkpt lat="45.24786" lon="6.00071">
        <ele>1546.800049</ele>
        <time>2013-03-31T08:16:28Z</time>
      </trkpt>
      <trkpt lat="45.24786" lon="6.00072">
        <ele>1547.199951</ele>
        <time>2013-03-31T08:16:29Z</time>
      </trkpt>
      <trkpt lat="45.24783" lon="6.00074">
        <ele>1548</ele>
        <time>2013-03-31T08:16:31Z</time>
      </trkpt>
      <trkpt lat="45.24776" lon="6.00076">
        <ele>1548.599976</ele>
        <time>2013-03-31T08:16:35Z</time>
      </trkpt>
      <trkpt lat="45.24776" lon="6.00077">
        <ele>1549</ele>
        <time>2013-03-31T08:16:36Z</time>
      </trkpt>
      <trkpt lat="45.24772" lon="6.00077">
        <ele>1549.199951</ele>
        <time>2013-03-31T08:16:40Z</time>
      </trkpt>
      <trkpt lat="45.24769" lon="6.0008">
        <ele>1550.199951</ele>
        <time>2013-03-31T08:16:43Z</time>
      </trkpt>
      <trkpt lat="45.24768" lon="6.00082">
        <ele>1551</ele>
        <time>2013-03-31T08:16:45Z</time>
      </trkpt>
      <trkpt lat="45.24762" lon="6.00087">
        <ele>1552.599976</ele>
        <time>2013-03-31T08:16:52Z</time>
      </trkpt>
      <trkpt lat="45.24761" lon="6.00089">
        <ele>1553.400024</ele>
        <time>2013-03-31T08:16:54Z</time>
      </trkpt>
      <trkpt lat="45.24757" lon="6.00088">
        <ele>1553.199951</ele>
        <time>2013-03-31T08:16:56Z</time>
      </trkpt>
      <trkpt lat="45.24753" lon="6.0009">
        <ele>1553.800049</ele>
        <time>2013-03-31T08:16:58Z</time>
      </trkpt>
      <trkpt lat="45.24752" lon="6.00091">
        <ele>1554.400024</ele>
        <time>2013-03-31T08:16:59Z</time>
      </trkpt>
      <trkpt lat="45.2475" lon="6.00092">
        <ele>1554.599976</ele>
        <time>2013-03-31T08:17:01Z</time>
      </trkpt>
      <trkpt lat="45.24746" lon="6.00096">
        <ele>1556</ele>
        <time>2013-03-31T08:17:05Z</time>
      </trkpt>
      <trkpt lat="45.24743" lon="6.00096">
        <ele>1556.400024</ele>
        <time>2013-03-31T08:17:08Z</time>
      </trkpt>
      <trkpt lat="45.24742" lon="6.00099">
        <ele>1557.199951</ele>
        <time>2013-03-31T08:17:10Z</time>
      </trkpt>
      <trkpt lat="45.24741" lon="6.00099">
        <ele>1557.400024</ele>
        <time>2013-03-31T08:17:11Z</time>
      </trkpt>
      <trkpt lat="45.24742" lon="6.00102">
        <ele>1558</ele>
        <time>2013-03-31T08:17:12Z</time>
      </trkpt>
      <trkpt lat="45.2474" lon="6.00104">
        <ele>1559</ele>
        <time>2013-03-31T08:17:14Z</time>
      </trkpt>
      <trkpt lat="45.24737" lon="6.00105">
        <ele>1559.400024</ele>
        <time>2013-03-31T08:17:16Z</time>
      </trkpt>
      <trkpt lat="45.24737" lon="6.00104">
        <ele>1559.199951</ele>
        <time>2013-03-31T08:17:17Z</time>
      </trkpt>
      <trkpt lat="45.24735" lon="6.00104">
        <ele>1559.199951</ele>
        <time>2013-03-31T08:17:18Z</time>
      </trkpt>
      <trkpt lat="45.24734" lon="6.00105">
        <ele>1559.599976</ele>
        <time>2013-03-31T08:17:19Z</time>
      </trkpt>
      <trkpt lat="45.24734" lon="6.00106">
        <ele>1559.800049</ele>
        <time>2013-03-31T08:17:21Z</time>
      </trkpt>
      <trkpt lat="45.24732" lon="6.00108">
        <ele>1560.599976</ele>
        <time>2013-03-31T08:17:23Z</time>
      </trkpt>
      <trkpt lat="45.2473" lon="6.00112">
        <ele>1562</ele>
        <time>2013-03-31T08:17:26Z</time>
      </trkpt>
      <trkpt lat="45.2473" lon="6.00114">
        <ele>1562.400024</ele>
        <time>2013-03-31T08:17:27Z</time>
      </trkpt>
      <trkpt lat="45.24726" lon="6.00114">
        <ele>1562.800049</ele>
        <time>2013-03-31T08:17:30Z</time>
      </trkpt>
      <trkpt lat="45.24723" lon="6.00116">
        <ele>1563.400024</ele>
        <time>2013-03-31T08:17:32Z</time>
      </trkpt>
      <trkpt lat="45.2472" lon="6.00121">
        <ele>1565.199951</ele>
        <time>2013-03-31T08:17:37Z</time>
      </trkpt>
      <trkpt lat="45.24719" lon="6.0012">
        <ele>1565</ele>
        <time>2013-03-31T08:17:38Z</time>
      </trkpt>
      <trkpt lat="45.24718" lon="6.00121">
        <ele>1565.400024</ele>
        <time>2013-03-31T08:17:40Z</time>
      </trkpt>
      <trkpt lat="45.24714" lon="6.00122">
        <ele>1566</ele>
        <time>2013-03-31T08:17:44Z</time>
      </trkpt>
      <trkpt lat="45.24713" lon="6.00124">
        <ele>1566.800049</ele>
        <time>2013-03-31T08:17:46Z</time>
      </trkpt>
      <trkpt lat="45.24711" lon="6.00124">
        <ele>1566.800049</ele>
        <time>2013-03-31T08:17:47Z</time>
      </trkpt>
      <trkpt lat="45.2471" lon="6.00123">
        <ele>1566.400024</ele>
        <time>2013-03-31T08:17:48Z</time>
      </trkpt>
      <trkpt lat="45.24704" lon="6.00123">
        <ele>1566.800049</ele>
        <time>2013-03-31T08:17:53Z</time>
      </trkpt>
      <trkpt lat="45.24699" lon="6.00121">
        <ele>1566.400024</ele>
        <time>2013-03-31T08:17:55Z</time>
      </trkpt>
      <trkpt lat="45.2469" lon="6.00125">
        <ele>1568.199951</ele>
        <time>2013-03-31T08:18:05Z</time>
      </trkpt>
      <trkpt lat="45.24687" lon="6.00124">
        <ele>1568</ele>
        <time>2013-03-31T08:18:08Z</time>
      </trkpt>
      <trkpt lat="45.2468" lon="6.00125">
        <ele>1568.800049</ele>
        <time>2013-03-31T08:18:15Z</time>
      </trkpt>
      <trkpt lat="45.24678" lon="6.00124">
        <ele>1568.599976</ele>
        <time>2013-03-31T08:18:17Z</time>
      </trkpt>
      <trkpt lat="45.24671" lon="6.00125">
        <ele>1569</ele>
        <time>2013-03-31T08:18:23Z</time>
      </trkpt>
      <trkpt lat="45.24668" lon="6.00126">
        <ele>1569.800049</ele>
        <time>2013-03-31T08:18:25Z</time>
      </trkpt>
      <trkpt lat="45.24665" lon="6.0013">
        <ele>1571</ele>
        <time>2013-03-31T08:18:29Z</time>
      </trkpt>
      <trkpt lat="45.24659" lon="6.00131">
        <ele>1571</ele>
        <time>2013-03-31T08:18:35Z</time>
      </trkpt>
      <trkpt lat="45.24653" lon="6.00134">
        <ele>1571.800049</ele>
        <time>2013-03-31T08:18:40Z</time>
      </trkpt>
      <trkpt lat="45.24646" lon="6.00134">
        <ele>1571.599976</ele>
        <time>2013-03-31T08:18:44Z</time>
      </trkpt>
      <trkpt lat="45.24644" lon="6.00134">
        <ele>1571.599976</ele>
        <time>2013-03-31T08:18:46Z</time>
      </trkpt>
      <trkpt lat="45.24641" lon="6.00137">
        <ele>1572.400024</ele>
        <time>2013-03-31T08:18:48Z</time>
      </trkpt>
      <trkpt lat="45.24638" lon="6.00137">
        <ele>1572.400024</ele>
        <time>2013-03-31T08:18:50Z</time>
      </trkpt>
      <trkpt lat="45.2463" lon="6.00142">
        <ele>1573.599976</ele>
        <time>2013-03-31T08:18:56Z</time>
      </trkpt>
      <trkpt lat="45.24629" lon="6.00151">
        <ele>1576.199951</ele>
        <time>2013-03-31T08:19:01Z</time>
      </trkpt>
      <trkpt lat="45.24625" lon="6.00151">
        <ele>1576</ele>
        <time>2013-03-31T08:19:03Z</time>
      </trkpt>
      <trkpt lat="45.24625" lon="6.00152">
        <ele>1576.400024</ele>
        <time>2013-03-31T08:19:04Z</time>
      </trkpt>
      <trkpt lat="45.24626" lon="6.00153">
        <ele>1576.800049</ele>
        <time>2013-03-31T08:19:05Z</time>
      </trkpt>
      <trkpt lat="45.24618" lon="6.00156">
        <ele>1577.599976</ele>
        <time>2013-03-31T08:19:11Z</time>
      </trkpt>
      <trkpt lat="45.24603" lon="6.0016">
        <ele>1578.400024</ele>
        <time>2013-03-31T08:19:20Z</time>
      </trkpt>
      <trkpt lat="45.24603" lon="6.00161">
        <ele>1578.800049</ele>
        <time>2013-03-31T08:19:21Z</time>
      </trkpt>
      <trkpt lat="45.24595" lon="6.00162">
        <ele>1578.800049</ele>
        <time>2013-03-31T08:19:28Z</time>
      </trkpt>
      <trkpt lat="45.24586" lon="6.00169">
        <ele>1580.599976</ele>
        <time>2013-03-31T08:19:35Z</time>
      </trkpt>
      <trkpt lat="45.24582" lon="6.0017">
        <ele>1580.400024</ele>
        <time>2013-03-31T08:19:38Z</time>
      </trkpt>
      <trkpt lat="45.24582" lon="6.00171">
        <ele>1580.599976</ele>
        <time>2013-03-31T08:19:39Z</time>
      </trkpt>
      <trkpt lat="45.24565" lon="6.00179">
        <ele>1579.599976</ele>
        <time>2013-03-31T08:19:52Z</time>
      </trkpt>
      <trkpt lat="45.24551" lon="6.00191">
        <ele>1579.800049</ele>
        <time>2013-03-31T08:20:04Z</time>
      </trkpt>
      <trkpt lat="45.24548" lon="6.00195">
        <ele>1580.599976</ele>
        <time>2013-03-31T08:20:07Z</time>
      </trkpt>
      <trkpt lat="45.24547" lon="6.00195">
        <ele>1580.599976</ele>
        <time>2013-03-31T08:20:08Z</time>
      </trkpt>
      <trkpt lat="45.24537" lon="6.00207">
        <ele>1582</ele>
        <time>2013-03-31T08:20:18Z</time>
      </trkpt>
      <trkpt lat="45.24534" lon="6.00212">
        <ele>1583</ele>
        <time>2013-03-31T08:20:22Z</time>
      </trkpt>
      <trkpt lat="45.24527" lon="6.00219">
        <ele>1584</ele>
        <time>2013-03-31T08:20:29Z</time>
      </trkpt>
      <trkpt lat="45.24516" lon="6.00235">
        <ele>1587</ele>
        <time>2013-03-31T08:20:41Z</time>
      </trkpt>
      <trkpt lat="45.24514" lon="6.00239">
        <ele>1588</ele>
        <time>2013-03-31T08:20:44Z</time>
      </trkpt>
      <trkpt lat="45.24502" lon="6.00255">
        <ele>1590.400024</ele>
        <time>2013-03-31T08:20:55Z</time>
      </trkpt>
      <trkpt lat="45.24501" lon="6.00258">
        <ele>1591.199951</ele>
        <time>2013-03-31T08:20:57Z</time>
      </trkpt>
      <trkpt lat="45.24498" lon="6.00261">
        <ele>1591.400024</ele>
        <time>2013-03-31T08:20:59Z</time>
      </trkpt>
      <trkpt lat="45.24498" lon="6.00263">
        <ele>1591.599976</ele>
        <time>2013-03-31T08:21:00Z</time>
      </trkpt>
      <trkpt lat="45.24496" lon="6.00264">
        <ele>1591.400024</ele>
        <time>2013-03-31T08:21:01Z</time>
      </trkpt>
      <trkpt lat="45.24496" lon="6.00266">
        <ele>1591.800049</ele>
        <time>2013-03-31T08:21:02Z</time>
      </trkpt>
      <trkpt lat="45.24495" lon="6.00267">
        <ele>1591.599976</ele>
        <time>2013-03-31T08:21:03Z</time>
      </trkpt>
      <trkpt lat="45.24494" lon="6.00271">
        <ele>1592.199951</ele>
        <time>2013-03-31T08:21:05Z</time>
      </trkpt>
      <trkpt lat="45.24491" lon="6.00276">
        <ele>1592.400024</ele>
        <time>2013-03-31T08:21:08Z</time>
      </trkpt>
      <trkpt lat="45.24491" lon="6.00278">
        <ele>1592.800049</ele>
        <time>2013-03-31T08:21:09Z</time>
      </trkpt>
      <trkpt lat="45.24486" lon="6.00287">
        <ele>1593.400024</ele>
        <time>2013-03-31T08:21:14Z</time>
      </trkpt>
      <trkpt lat="45.24486" lon="6.00291">
        <ele>1594.199951</ele>
        <time>2013-03-31T08:21:16Z</time>
      </trkpt>
      <trkpt lat="45.24478" lon="6.00304">
        <ele>1595</ele>
        <time>2013-03-31T08:21:24Z</time>
      </trkpt>
      <trkpt lat="45.24477" lon="6.00315">
        <ele>1597.400024</ele>
        <time>2013-03-31T08:21:30Z</time>
      </trkpt>
      <trkpt lat="45.24473" lon="6.00323">
        <ele>1598.400024</ele>
        <time>2013-03-31T08:21:35Z</time>
      </trkpt>
      <trkpt lat="45.24472" lon="6.00333">
        <ele>1600.400024</ele>
        <time>2013-03-31T08:21:40Z</time>
      </trkpt>
      <trkpt lat="45.24469" lon="6.00344">
        <ele>1602.800049</ele>
        <time>2013-03-31T08:21:47Z</time>
      </trkpt>
      <trkpt lat="45.2447" lon="6.00346">
        <ele>1603.400024</ele>
        <time>2013-03-31T08:21:48Z</time>
      </trkpt>
      <trkpt lat="45.24468" lon="6.00348">
        <ele>1603.400024</ele>
        <time>2013-03-31T08:21:49Z</time>
      </trkpt>
      <trkpt lat="45.24469" lon="6.0035">
        <ele>1604.199951</ele>
        <time>2013-03-31T08:21:50Z</time>
      </trkpt>
      <trkpt lat="45.24464" lon="6.0036">
        <ele>1605.599976</ele>
        <time>2013-03-31T08:21:56Z</time>
      </trkpt>
      <trkpt lat="45.24462" lon="6.00363">
        <ele>1605.400024</ele>
        <time>2013-03-31T08:21:58Z</time>
      </trkpt>
      <trkpt lat="45.24461" lon="6.00365">
        <ele>1606.199951</ele>
        <time>2013-03-31T08:21:59Z</time>
      </trkpt>
      <trkpt lat="45.24459" lon="6.0037">
        <ele>1606.599976</ele>
        <time>2013-03-31T08:22:01Z</time>
      </trkpt>
      <trkpt lat="45.24456" lon="6.00379">
        <ele>1608.400024</ele>
        <time>2013-03-31T08:22:06Z</time>
      </trkpt>
      <trkpt lat="45.24456" lon="6.00382">
        <ele>1609.199951</ele>
        <time>2013-03-31T08:22:08Z</time>
      </trkpt>
      <trkpt lat="45.24449" lon="6.00397">
        <ele>1611.199951</ele>
        <time>2013-03-31T08:22:19Z</time>
      </trkpt>
      <trkpt lat="45.24442" lon="6.00406">
        <ele>1611.199951</ele>
        <time>2013-03-31T08:22:25Z</time>
      </trkpt>
      <trkpt lat="45.24438" lon="6.00412">
        <ele>1611.800049</ele>
        <time>2013-03-31T08:22:30Z</time>
      </trkpt>
      <trkpt lat="45.24438" lon="6.00413">
        <ele>1612.199951</ele>
        <time>2013-03-31T08:22:31Z</time>
      </trkpt>
      <trkpt lat="45.24437" lon="6.00417">
        <ele>1612.800049</ele>
        <time>2013-03-31T08:22:33Z</time>
      </trkpt>
      <trkpt lat="45.24431" lon="6.00424">
        <ele>1613.599976</ele>
        <time>2013-03-31T08:22:38Z</time>
      </trkpt>
      <trkpt lat="45.24428" lon="6.00431">
        <ele>1614.400024</ele>
        <time>2013-03-31T08:22:42Z</time>
      </trkpt>
      <trkpt lat="45.24423" lon="6.00437">
        <ele>1614.599976</ele>
        <time>2013-03-31T08:22:46Z</time>
      </trkpt>
      <trkpt lat="45.2442" lon="6.00444">
        <ele>1615.800049</ele>
        <time>2013-03-31T08:22:50Z</time>
      </trkpt>
      <trkpt lat="45.24416" lon="6.00448">
        <ele>1616</ele>
        <time>2013-03-31T08:22:52Z</time>
      </trkpt>
      <trkpt lat="45.24415" lon="6.00453">
        <ele>1617.199951</ele>
        <time>2013-03-31T08:22:55Z</time>
      </trkpt>
      <trkpt lat="45.2441" lon="6.00457">
        <ele>1617.599976</ele>
        <time>2013-03-31T08:22:57Z</time>
      </trkpt>
      <trkpt lat="45.24398" lon="6.00476">
        <ele>1621.400024</ele>
        <time>2013-03-31T08:23:08Z</time>
      </trkpt>
      <trkpt lat="45.24395" lon="6.00478">
        <ele>1621.400024</ele>
        <time>2013-03-31T08:23:10Z</time>
      </trkpt>
      <trkpt lat="45.24385" lon="6.0049">
        <ele>1623.199951</ele>
        <time>2013-03-31T08:23:19Z</time>
      </trkpt>
      <trkpt lat="45.24383" lon="6.00493">
        <ele>1623.800049</ele>
        <time>2013-03-31T08:23:20Z</time>
      </trkpt>
      <trkpt lat="45.24365" lon="6.00511">
        <ele>1626</ele>
        <time>2013-03-31T08:23:36Z</time>
      </trkpt>
      <trkpt lat="45.24354" lon="6.0052">
        <ele>1626</ele>
        <time>2013-03-31T08:23:44Z</time>
      </trkpt>
      <trkpt lat="45.24353" lon="6.00522">
        <ele>1626.400024</ele>
        <time>2013-03-31T08:23:46Z</time>
      </trkpt>
      <trkpt lat="45.24338" lon="6.00537">
        <ele>1626.400024</ele>
        <time>2013-03-31T08:23:59Z</time>
      </trkpt>
      <trkpt lat="45.24331" lon="6.00545">
        <ele>1627</ele>
        <time>2013-03-31T08:24:04Z</time>
      </trkpt>
      <trkpt lat="45.24328" lon="6.00547">
        <ele>1627.599976</ele>
        <time>2013-03-31T08:24:07Z</time>
      </trkpt>
      <trkpt lat="45.24327" lon="6.00549">
        <ele>1628</ele>
        <time>2013-03-31T08:24:08Z</time>
      </trkpt>
      <trkpt lat="45.24311" lon="6.0056">
        <ele>1630</ele>
        <time>2013-03-31T08:24:21Z</time>
      </trkpt>
      <trkpt lat="45.24306" lon="6.00565">
        <ele>1630.599976</ele>
        <time>2013-03-31T08:24:26Z</time>
      </trkpt>
      <trkpt lat="45.24285" lon="6.00576">
        <ele>1631.400024</ele>
        <time>2013-03-31T08:24:40Z</time>
      </trkpt>
      <trkpt lat="45.24277" lon="6.00579">
        <ele>1631.400024</ele>
        <time>2013-03-31T08:24:45Z</time>
      </trkpt>
      <trkpt lat="45.24272" lon="6.00577">
        <ele>1630.599976</ele>
        <time>2013-03-31T08:24:49Z</time>
      </trkpt>
      <trkpt lat="45.24263" lon="6.00576">
        <ele>1629.800049</ele>
        <time>2013-03-31T08:24:56Z</time>
      </trkpt>
      <trkpt lat="45.2426" lon="6.00578">
        <ele>1630</ele>
        <time>2013-03-31T08:24:59Z</time>
      </trkpt>
      <trkpt lat="45.24255" lon="6.0058">
        <ele>1629.800049</ele>
        <time>2013-03-31T08:25:03Z</time>
      </trkpt>
      <trkpt lat="45.2425" lon="6.0058">
        <ele>1629.400024</ele>
        <time>2013-03-31T08:25:06Z</time>
      </trkpt>
      <trkpt lat="45.24242" lon="6.00577">
        <ele>1630.199951</ele>
        <time>2013-03-31T08:25:09Z</time>
      </trkpt>
      <trkpt lat="45.24241" lon="6.00575">
        <ele>1630.199951</ele>
        <time>2013-03-31T08:25:10Z</time>
      </trkpt>
      <trkpt lat="45.24234" lon="6.00572">
        <ele>1631</ele>
        <time>2013-03-31T08:25:12Z</time>
      </trkpt>
      <trkpt lat="45.24232" lon="6.00572">
        <ele>1631.400024</ele>
        <time>2013-03-31T08:25:13Z</time>
      </trkpt>
      <trkpt lat="45.24228" lon="6.00567">
        <ele>1631.199951</ele>
        <time>2013-03-31T08:25:19Z</time>
      </trkpt>
      <trkpt lat="45.24218" lon="6.00569">
        <ele>1633</ele>
        <time>2013-03-31T08:25:28Z</time>
      </trkpt>
      <trkpt lat="45.2421" lon="6.00568">
        <ele>1634.400024</ele>
        <time>2013-03-31T08:25:37Z</time>
      </trkpt>
      <trkpt lat="45.24205" lon="6.00566">
        <ele>1635</ele>
        <time>2013-03-31T08:25:42Z</time>
      </trkpt>
      <trkpt lat="45.24204" lon="6.00566">
        <ele>1635.199951</ele>
        <time>2013-03-31T08:25:43Z</time>
      </trkpt>
      <trkpt lat="45.242" lon="6.00564">
        <ele>1635.599976</ele>
        <time>2013-03-31T08:25:48Z</time>
      </trkpt>
      <trkpt lat="45.24197" lon="6.00565">
        <ele>1636.199951</ele>
        <time>2013-03-31T08:25:51Z</time>
      </trkpt>
      <trkpt lat="45.24192" lon="6.00571">
        <ele>1637.800049</ele>
        <time>2013-03-31T08:25:56Z</time>
      </trkpt>
      <trkpt lat="45.24191" lon="6.00576">
        <ele>1638.800049</ele>
        <time>2013-03-31T08:25:59Z</time>
      </trkpt>
      <trkpt lat="45.24188" lon="6.00578">
        <ele>1639.599976</ele>
        <time>2013-03-31T08:26:01Z</time>
      </trkpt>
      <trkpt lat="45.24186" lon="6.00581">
        <ele>1640.400024</ele>
        <time>2013-03-31T08:26:03Z</time>
      </trkpt>
      <trkpt lat="45.24176" lon="6.00591">
        <ele>1643</ele>
        <time>2013-03-31T08:26:10Z</time>
      </trkpt>
      <trkpt lat="45.24173" lon="6.00591">
        <ele>1643.599976</ele>
        <time>2013-03-31T08:26:12Z</time>
      </trkpt>
      <trkpt lat="45.24168" lon="6.0059">
        <ele>1644</ele>
        <time>2013-03-31T08:26:15Z</time>
      </trkpt>
      <trkpt lat="45.24163" lon="6.00586">
        <ele>1644.199951</ele>
        <time>2013-03-31T08:26:20Z</time>
      </trkpt>
      <trkpt lat="45.24159" lon="6.00585">
        <ele>1644.400024</ele>
        <time>2013-03-31T08:26:24Z</time>
      </trkpt>
      <trkpt lat="45.2415" lon="6.00578">
        <ele>1644</ele>
        <time>2013-03-31T08:26:27Z</time>
      </trkpt>
      <trkpt lat="45.24144" lon="6.00579">
        <ele>1644.400024</ele>
        <time>2013-03-31T08:26:32Z</time>
      </trkpt>
      <trkpt lat="45.24138" lon="6.00577">
        <ele>1644.400024</ele>
        <time>2013-03-31T08:26:36Z</time>
      </trkpt>
      <trkpt lat="45.24135" lon="6.00575">
        <ele>1644.199951</ele>
        <time>2013-03-31T08:26:37Z</time>
      </trkpt>
      <trkpt lat="45.2413" lon="6.00574">
        <ele>1644.400024</ele>
        <time>2013-03-31T08:26:38Z</time>
      </trkpt>
      <trkpt lat="45.24129" lon="6.00573">
        <ele>1644.199951</ele>
        <time>2013-03-31T08:26:39Z</time>
      </trkpt>
      <trkpt lat="45.24128" lon="6.00573">
        <ele>1644.400024</ele>
        <time>2013-03-31T08:26:40Z</time>
      </trkpt>
      <trkpt lat="45.24127" lon="6.00572">
        <ele>1644.199951</ele>
        <time>2013-03-31T08:26:41Z</time>
      </trkpt>
      <trkpt lat="45.24121" lon="6.00567">
        <ele>1643.800049</ele>
        <time>2013-03-31T08:26:44Z</time>
      </trkpt>
      <trkpt lat="45.24117" lon="6.00563">
        <ele>1643.400024</ele>
        <time>2013-03-31T08:26:45Z</time>
      </trkpt>
      <trkpt lat="45.24112" lon="6.0056">
        <ele>1643.400024</ele>
        <time>2013-03-31T08:26:47Z</time>
      </trkpt>
      <trkpt lat="45.24112" lon="6.0056">
        <ele>1643.400024</ele>
        <time>2013-03-31T08:26:48Z</time>
      </trkpt>
      <trkpt lat="45.24111" lon="6.00558">
        <ele>1643.199951</ele>
        <time>2013-03-31T08:26:49Z</time>
      </trkpt>
      <trkpt lat="45.24109" lon="6.00558">
        <ele>1643.199951</ele>
        <time>2013-03-31T08:26:50Z</time>
      </trkpt>
      <trkpt lat="45.24106" lon="6.00554">
        <ele>1642.800049</ele>
        <time>2013-03-31T08:26:53Z</time>
      </trkpt>
      <trkpt lat="45.24099" lon="6.00553">
        <ele>1643</ele>
        <time>2013-03-31T08:26:58Z</time>
      </trkpt>
      <trkpt lat="45.24093" lon="6.00558">
        <ele>1644.199951</ele>
        <time>2013-03-31T08:27:03Z</time>
      </trkpt>
      <trkpt lat="45.24087" lon="6.00566">
        <ele>1645.400024</ele>
        <time>2013-03-31T08:27:08Z</time>
      </trkpt>
      <trkpt lat="45.24085" lon="6.00567">
        <ele>1645.599976</ele>
        <time>2013-03-31T08:27:09Z</time>
      </trkpt>
      <trkpt lat="45.24084" lon="6.0057">
        <ele>1646.199951</ele>
        <time>2013-03-31T08:27:11Z</time>
      </trkpt>
      <trkpt lat="45.2408" lon="6.00573">
        <ele>1647.199951</ele>
        <time>2013-03-31T08:27:13Z</time>
      </trkpt>
      <trkpt lat="45.2408" lon="6.00574">
        <ele>1647.400024</ele>
        <time>2013-03-31T08:27:14Z</time>
      </trkpt>
      <trkpt lat="45.24076" lon="6.00577">
        <ele>1648.599976</ele>
        <time>2013-03-31T08:27:17Z</time>
      </trkpt>
      <trkpt lat="45.24072" lon="6.00583">
        <ele>1650.199951</ele>
        <time>2013-03-31T08:27:21Z</time>
      </trkpt>
      <trkpt lat="45.24071" lon="6.00586">
        <ele>1650.800049</ele>
        <time>2013-03-31T08:27:23Z</time>
      </trkpt>
      <trkpt lat="45.24062" lon="6.00597">
        <ele>1654.599976</ele>
        <time>2013-03-31T08:27:31Z</time>
      </trkpt>
      <trkpt lat="45.24061" lon="6.00598">
        <ele>1654.800049</ele>
        <time>2013-03-31T08:27:32Z</time>
      </trkpt>
      <trkpt lat="45.24055" lon="6.00604">
        <ele>1657.400024</ele>
        <time>2013-03-31T08:27:38Z</time>
      </trkpt>
      <trkpt lat="45.24048" lon="6.00605">
        <ele>1659.199951</ele>
        <time>2013-03-31T08:27:42Z</time>
      </trkpt>
      <trkpt lat="45.24041" lon="6.00604">
        <ele>1660.400024</ele>
        <time>2013-03-31T08:27:47Z</time>
      </trkpt>
      <trkpt lat="45.24041" lon="6.00603">
        <ele>1660.400024</ele>
        <time>2013-03-31T08:27:48Z</time>
      </trkpt>
      <trkpt lat="45.24036" lon="6.00604">
        <ele>1661.800049</ele>
        <time>2013-03-31T08:27:52Z</time>
      </trkpt>
      <trkpt lat="45.2403" lon="6.00603">
        <ele>1662.599976</ele>
        <time>2013-03-31T08:27:56Z</time>
      </trkpt>
      <trkpt lat="45.24029" lon="6.00603">
        <ele>1663.199951</ele>
        <time>2013-03-31T08:27:57Z</time>
      </trkpt>
      <trkpt lat="45.24009" lon="6.00598">
        <ele>1666.599976</ele>
        <time>2013-03-31T08:28:12Z</time>
      </trkpt>
      <trkpt lat="45.24008" lon="6.00597">
        <ele>1666.400024</ele>
        <time>2013-03-31T08:28:13Z</time>
      </trkpt>
      <trkpt lat="45.24003" lon="6.00596">
        <ele>1667.199951</ele>
        <time>2013-03-31T08:28:16Z</time>
      </trkpt>
      <trkpt lat="45.23998" lon="6.00591">
        <ele>1667.400024</ele>
        <time>2013-03-31T08:28:22Z</time>
      </trkpt>
      <trkpt lat="45.23997" lon="6.00587">
        <ele>1667</ele>
        <time>2013-03-31T08:28:24Z</time>
      </trkpt>
      <trkpt lat="45.23994" lon="6.00584">
        <ele>1667.400024</ele>
        <time>2013-03-31T08:28:26Z</time>
      </trkpt>
      <trkpt lat="45.2399" lon="6.00573">
        <ele>1667.800049</ele>
        <time>2013-03-31T08:28:33Z</time>
      </trkpt>
      <trkpt lat="45.23984" lon="6.00565">
        <ele>1669.199951</ele>
        <time>2013-03-31T08:28:39Z</time>
      </trkpt>
      <trkpt lat="45.23981" lon="6.00562">
        <ele>1670.400024</ele>
        <time>2013-03-31T08:28:42Z</time>
      </trkpt>
      <trkpt lat="45.23971" lon="6.00544">
        <ele>1672.400024</ele>
        <time>2013-03-31T08:28:57Z</time>
      </trkpt>
      <trkpt lat="45.2397" lon="6.00543">
        <ele>1672.800049</ele>
        <time>2013-03-31T08:28:58Z</time>
      </trkpt>
      <trkpt lat="45.2397" lon="6.00539">
        <ele>1672.199951</ele>
        <time>2013-03-31T08:29:01Z</time>
      </trkpt>
      <trkpt lat="45.23969" lon="6.00534">
        <ele>1672.400024</ele>
        <time>2013-03-31T08:29:05Z</time>
      </trkpt>
      <trkpt lat="45.2397" lon="6.00526">
        <ele>1671.199951</ele>
        <time>2013-03-31T08:29:13Z</time>
      </trkpt>
      <trkpt lat="45.23969" lon="6.00525">
        <ele>1671.199951</ele>
        <time>2013-03-31T08:29:15Z</time>
      </trkpt>
      <trkpt lat="45.2397" lon="6.00522">
        <ele>1670.599976</ele>
        <time>2013-03-31T08:29:17Z</time>
      </trkpt>
      <trkpt lat="45.23969" lon="6.0052">
        <ele>1670.800049</ele>
        <time>2013-03-31T08:29:18Z</time>
      </trkpt>
      <trkpt lat="45.2397" lon="6.0052">
        <ele>1670.400024</ele>
        <time>2013-03-31T08:29:19Z</time>
      </trkpt>
      <trkpt lat="45.23971" lon="6.00517">
        <ele>1669.800049</ele>
        <time>2013-03-31T08:29:23Z</time>
      </trkpt>
      <trkpt lat="45.23969" lon="6.00507">
        <ele>1669.400024</ele>
        <time>2013-03-31T08:29:33Z</time>
      </trkpt>
      <trkpt lat="45.23969" lon="6.00503">
        <ele>1669</ele>
        <time>2013-03-31T08:29:36Z</time>
      </trkpt>
      <trkpt lat="45.23969" lon="6.00504">
        <ele>1668.800049</ele>
        <time>2013-03-31T08:29:39Z</time>
      </trkpt>
      <trkpt lat="45.2397" lon="6.005">
        <ele>1668.400024</ele>
        <time>2013-03-31T08:29:45Z</time>
      </trkpt>
      <trkpt lat="45.23969" lon="6.00503">
        <ele>1669</ele>
        <time>2013-03-31T08:29:50Z</time>
      </trkpt>
      <trkpt lat="45.23967" lon="6.00505">
        <ele>1670</ele>
        <time>2013-03-31T08:29:53Z</time>
      </trkpt>
      <trkpt lat="45.23968" lon="6.00505">
        <ele>1669.800049</ele>
        <time>2013-03-31T08:29:54Z</time>
      </trkpt>
      <trkpt lat="45.23965" lon="6.00508">
        <ele>1671.199951</ele>
        <time>2013-03-31T08:29:58Z</time>
      </trkpt>
      <trkpt lat="45.23961" lon="6.00509">
        <ele>1673.199951</ele>
        <time>2013-03-31T08:30:00Z</time>
      </trkpt>
      <trkpt lat="45.23955" lon="6.00512">
        <ele>1676.199951</ele>
        <time>2013-03-31T08:30:11Z</time>
      </trkpt>
      <trkpt lat="45.23954" lon="6.00514">
        <ele>1676.800049</ele>
        <time>2013-03-31T08:30:13Z</time>
      </trkpt>
      <trkpt lat="45.23952" lon="6.0051">
        <ele>1677.199951</ele>
        <time>2013-03-31T08:30:17Z</time>
      </trkpt>
      <trkpt lat="45.23952" lon="6.00507">
        <ele>1677</ele>
        <time>2013-03-31T08:30:18Z</time>
      </trkpt>
      <trkpt lat="45.2395" lon="6.00504">
        <ele>1677.400024</ele>
        <time>2013-03-31T08:30:21Z</time>
      </trkpt>
      <trkpt lat="45.23941" lon="6.00497">
        <ele>1681</ele>
        <time>2013-03-31T08:30:33Z</time>
      </trkpt>
      <trkpt lat="45.23927" lon="6.00491">
        <ele>1686.800049</ele>
        <time>2013-03-31T08:30:54Z</time>
      </trkpt>
      <trkpt lat="45.23925" lon="6.00495">
        <ele>1688</ele>
        <time>2013-03-31T08:30:57Z</time>
      </trkpt>
      <trkpt lat="45.23924" lon="6.005">
        <ele>1688.599976</ele>
        <time>2013-03-31T08:31:02Z</time>
      </trkpt>
      <trkpt lat="45.23925" lon="6.00504">
        <ele>1688.400024</ele>
        <time>2013-03-31T08:31:05Z</time>
      </trkpt>
      <trkpt lat="45.23925" lon="6.00509">
        <ele>1688.800049</ele>
        <time>2013-03-31T08:31:08Z</time>
      </trkpt>
      <trkpt lat="45.23924" lon="6.00519">
        <ele>1690.199951</ele>
        <time>2013-03-31T08:31:16Z</time>
      </trkpt>
      <trkpt lat="45.23924" lon="6.00522">
        <ele>1690.400024</ele>
        <time>2013-03-31T08:31:19Z</time>
      </trkpt>
      <trkpt lat="45.23923" lon="6.00524">
        <ele>1691</ele>
        <time>2013-03-31T08:31:20Z</time>
      </trkpt>
      <trkpt lat="45.23922" lon="6.00529">
        <ele>1692</ele>
        <time>2013-03-31T08:31:25Z</time>
      </trkpt>
      <trkpt lat="45.23917" lon="6.00542">
        <ele>1695.199951</ele>
        <time>2013-03-31T08:31:36Z</time>
      </trkpt>
      <trkpt lat="45.23908" lon="6.00562">
        <ele>1700.199951</ele>
        <time>2013-03-31T08:31:53Z</time>
      </trkpt>
      <trkpt lat="45.23905" lon="6.00564">
        <ele>1701</ele>
        <time>2013-03-31T08:31:56Z</time>
      </trkpt>
      <trkpt lat="45.23905" lon="6.00566">
        <ele>1701.199951</ele>
        <time>2013-03-31T08:31:58Z</time>
      </trkpt>
      <trkpt lat="45.239" lon="6.00574">
        <ele>1703.199951</ele>
        <time>2013-03-31T08:32:06Z</time>
      </trkpt>
      <trkpt lat="45.23894" lon="6.00577">
        <ele>1705.400024</ele>
        <time>2013-03-31T08:32:12Z</time>
      </trkpt>
      <trkpt lat="45.23893" lon="6.00577">
        <ele>1705.800049</ele>
        <time>2013-03-31T08:32:13Z</time>
      </trkpt>
      <trkpt lat="45.23887" lon="6.00579">
        <ele>1707.599976</ele>
        <time>2013-03-31T08:32:19Z</time>
      </trkpt>
      <trkpt lat="45.23877" lon="6.00582">
        <ele>1710.800049</ele>
        <time>2013-03-31T08:32:31Z</time>
      </trkpt>
      <trkpt lat="45.23872" lon="6.00587">
        <ele>1712.599976</ele>
        <time>2013-03-31T08:32:38Z</time>
      </trkpt>
      <trkpt lat="45.23872" lon="6.00589">
        <ele>1712.800049</ele>
        <time>2013-03-31T08:32:40Z</time>
      </trkpt>
      <trkpt lat="45.23868" lon="6.00596">
        <ele>1714.599976</ele>
        <time>2013-03-31T08:32:47Z</time>
      </trkpt>
      <trkpt lat="45.23868" lon="6.00598">
        <ele>1715</ele>
        <time>2013-03-31T08:32:49Z</time>
      </trkpt>
      <trkpt lat="45.23864" lon="6.00607">
        <ele>1716.800049</ele>
        <time>2013-03-31T08:32:56Z</time>
      </trkpt>
      <trkpt lat="45.23858" lon="6.00615">
        <ele>1719.400024</ele>
        <time>2013-03-31T08:33:04Z</time>
      </trkpt>
      <trkpt lat="45.23853" lon="6.00626">
        <ele>1721.599976</ele>
        <time>2013-03-31T08:33:13Z</time>
      </trkpt>
      <trkpt lat="45.23851" lon="6.0063">
        <ele>1722.400024</ele>
        <time>2013-03-31T08:33:17Z</time>
      </trkpt>
      <trkpt lat="45.23846" lon="6.00634">
        <ele>1724</ele>
        <time>2013-03-31T08:33:23Z</time>
      </trkpt>
      <trkpt lat="45.23842" lon="6.00639">
        <ele>1725</ele>
        <time>2013-03-31T08:33:27Z</time>
      </trkpt>
      <trkpt lat="45.2384" lon="6.0064">
        <ele>1725.599976</ele>
        <time>2013-03-31T08:33:29Z</time>
      </trkpt>
      <trkpt lat="45.23837" lon="6.00648">
        <ele>1727</ele>
        <time>2013-03-31T08:33:35Z</time>
      </trkpt>
      <trkpt lat="45.23837" lon="6.00651">
        <ele>1727.199951</ele>
        <time>2013-03-31T08:33:37Z</time>
      </trkpt>
      <trkpt lat="45.23836" lon="6.00653">
        <ele>1727.599976</ele>
        <time>2013-03-31T08:33:39Z</time>
      </trkpt>
      <trkpt lat="45.23836" lon="6.00654">
        <ele>1727.599976</ele>
        <time>2013-03-31T08:33:40Z</time>
      </trkpt>
      <trkpt lat="45.23833" lon="6.00659">
        <ele>1728.599976</ele>
        <time>2013-03-31T08:33:44Z</time>
      </trkpt>
      <trkpt lat="45.23832" lon="6.00664">
        <ele>1729.199951</ele>
        <time>2013-03-31T08:33:47Z</time>
      </trkpt>
      <trkpt lat="45.23833" lon="6.00674">
        <ele>1730.599976</ele>
        <time>2013-03-31T08:33:52Z</time>
      </trkpt>
      <trkpt lat="45.23831" lon="6.00677">
        <ele>1731.800049</ele>
        <time>2013-03-31T08:33:54Z</time>
      </trkpt>
      <trkpt lat="45.23832" lon="6.0068">
        <ele>1732</ele>
        <time>2013-03-31T08:33:56Z</time>
      </trkpt>
      <trkpt lat="45.23831" lon="6.00686">
        <ele>1733.400024</ele>
        <time>2013-03-31T08:34:00Z</time>
      </trkpt>
      <trkpt lat="45.23833" lon="6.00694">
        <ele>1734</ele>
        <time>2013-03-31T08:34:03Z</time>
      </trkpt>
      <trkpt lat="45.23833" lon="6.00702">
        <ele>1735.400024</ele>
        <time>2013-03-31T08:34:06Z</time>
      </trkpt>
      <trkpt lat="45.23832" lon="6.00711">
        <ele>1737.599976</ele>
        <time>2013-03-31T08:34:11Z</time>
      </trkpt>
      <trkpt lat="45.23832" lon="6.00715">
        <ele>1738.199951</ele>
        <time>2013-03-31T08:34:14Z</time>
      </trkpt>
      <trkpt lat="45.2383" lon="6.00719">
        <ele>1739.800049</ele>
        <time>2013-03-31T08:34:16Z</time>
      </trkpt>
      <trkpt lat="45.2383" lon="6.00723">
        <ele>1740.599976</ele>
        <time>2013-03-31T08:34:19Z</time>
      </trkpt>
      <trkpt lat="45.23831" lon="6.0073">
        <ele>1741.199951</ele>
        <time>2013-03-31T08:34:23Z</time>
      </trkpt>
      <trkpt lat="45.23831" lon="6.00736">
        <ele>1742.400024</ele>
        <time>2013-03-31T08:34:26Z</time>
      </trkpt>
      <trkpt lat="45.23832" lon="6.0074">
        <ele>1742.800049</ele>
        <time>2013-03-31T08:34:29Z</time>
      </trkpt>
      <trkpt lat="45.23831" lon="6.00741">
        <ele>1743.400024</ele>
        <time>2013-03-31T08:34:30Z</time>
      </trkpt>
      <trkpt lat="45.23831" lon="6.00747">
        <ele>1744.199951</ele>
        <time>2013-03-31T08:34:35Z</time>
      </trkpt>
      <trkpt lat="45.23834" lon="6.0075">
        <ele>1743.800049</ele>
        <time>2013-03-31T08:34:39Z</time>
      </trkpt>
      <trkpt lat="45.23845" lon="6.00753">
        <ele>1743.599976</ele>
        <time>2013-03-31T08:34:52Z</time>
      </trkpt>
      <trkpt lat="45.23848" lon="6.00755">
        <ele>1743.800049</ele>
        <time>2013-03-31T08:34:56Z</time>
      </trkpt>
      <trkpt lat="45.23852" lon="6.00755">
        <ele>1743.599976</ele>
        <time>2013-03-31T08:35:01Z</time>
      </trkpt>
      <trkpt lat="45.23857" lon="6.00759">
        <ele>1743.800049</ele>
        <time>2013-03-31T08:35:07Z</time>
      </trkpt>
      <trkpt lat="45.23858" lon="6.00761">
        <ele>1744.400024</ele>
        <time>2013-03-31T08:35:09Z</time>
      </trkpt>
      <trkpt lat="45.23856" lon="6.00763">
        <ele>1745</ele>
        <time>2013-03-31T08:35:12Z</time>
      </trkpt>
      <trkpt lat="45.23855" lon="6.00765">
        <ele>1745.599976</ele>
        <time>2013-03-31T08:35:14Z</time>
      </trkpt>
      <trkpt lat="45.23854" lon="6.00765">
        <ele>1745.800049</ele>
        <time>2013-03-31T08:35:15Z</time>
      </trkpt>
      <trkpt lat="45.23851" lon="6.0077">
        <ele>1747.400024</ele>
        <time>2013-03-31T08:35:20Z</time>
      </trkpt>
      <trkpt lat="45.23845" lon="6.00779">
        <ele>1750.400024</ele>
        <time>2013-03-31T08:35:29Z</time>
      </trkpt>
      <trkpt lat="45.23835" lon="6.00788">
        <ele>1754.199951</ele>
        <time>2013-03-31T08:35:41Z</time>
      </trkpt>
      <trkpt lat="45.23833" lon="6.00791">
        <ele>1755</ele>
        <time>2013-03-31T08:35:44Z</time>
      </trkpt>
      <trkpt lat="45.23837" lon="6.00801">
        <ele>1757.199951</ele>
        <time>2013-03-31T08:35:55Z</time>
      </trkpt>
      <trkpt lat="45.23837" lon="6.00804">
        <ele>1758.199951</ele>
        <time>2013-03-31T08:35:58Z</time>
      </trkpt>
      <trkpt lat="45.23833" lon="6.00809">
        <ele>1760</ele>
        <time>2013-03-31T08:36:04Z</time>
      </trkpt>
      <trkpt lat="45.23827" lon="6.00815">
        <ele>1764.199951</ele>
        <time>2013-03-31T08:36:13Z</time>
      </trkpt>
      <trkpt lat="45.23826" lon="6.00819">
        <ele>1765.599976</ele>
        <time>2013-03-31T08:36:17Z</time>
      </trkpt>
      <trkpt lat="45.23826" lon="6.00821">
        <ele>1766.199951</ele>
        <time>2013-03-31T08:36:20Z</time>
      </trkpt>
      <trkpt lat="45.23821" lon="6.0084">
        <ele>1772.599976</ele>
        <time>2013-03-31T08:36:37Z</time>
      </trkpt>
      <trkpt lat="45.23824" lon="6.0085">
        <ele>1773.800049</ele>
        <time>2013-03-31T08:36:47Z</time>
      </trkpt>
      <trkpt lat="45.23825" lon="6.00851">
        <ele>1773.400024</ele>
        <time>2013-03-31T08:36:48Z</time>
      </trkpt>
      <trkpt lat="45.23825" lon="6.00851">
        <ele>1773.599976</ele>
        <time>2013-03-31T08:36:49Z</time>
      </trkpt>
      <trkpt lat="45.23826" lon="6.00857">
        <ele>1774.400024</ele>
        <time>2013-03-31T08:36:55Z</time>
      </trkpt>
      <trkpt lat="45.23825" lon="6.00859">
        <ele>1775.400024</ele>
        <time>2013-03-31T08:36:57Z</time>
      </trkpt>
      <trkpt lat="45.23825" lon="6.00861">
        <ele>1775.400024</ele>
        <time>2013-03-31T08:36:59Z</time>
      </trkpt>
      <trkpt lat="45.23825" lon="6.00864">
        <ele>1776.400024</ele>
        <time>2013-03-31T08:37:02Z</time>
      </trkpt>
      <trkpt lat="45.23825" lon="6.00864">
        <ele>1776.199951</ele>
        <time>2013-03-31T08:37:03Z</time>
      </trkpt>
      <trkpt lat="45.23824" lon="6.00866">
        <ele>1777.199951</ele>
        <time>2013-03-31T08:37:04Z</time>
      </trkpt>
      <trkpt lat="45.23821" lon="6.0088">
        <ele>1781.199951</ele>
        <time>2013-03-31T08:37:19Z</time>
      </trkpt>
      <trkpt lat="45.2382" lon="6.00881">
        <ele>1781.800049</ele>
        <time>2013-03-31T08:37:20Z</time>
      </trkpt>
      <trkpt lat="45.23819" lon="6.00886">
        <ele>1783.400024</ele>
        <time>2013-03-31T08:37:26Z</time>
      </trkpt>
      <trkpt lat="45.23819" lon="6.0089">
        <ele>1784</ele>
        <time>2013-03-31T08:37:29Z</time>
      </trkpt>
      <trkpt lat="45.23817" lon="6.00894">
        <ele>1785.800049</ele>
        <time>2013-03-31T08:37:34Z</time>
      </trkpt>
      <trkpt lat="45.23812" lon="6.00899">
        <ele>1788.800049</ele>
        <time>2013-03-31T08:37:41Z</time>
      </trkpt>
      <trkpt lat="45.23809" lon="6.00895">
        <ele>1789</ele>
        <time>2013-03-31T08:37:47Z</time>
      </trkpt>
      <trkpt lat="45.238" lon="6.0089">
        <ele>1791.599976</ele>
        <time>2013-03-31T08:37:59Z</time>
      </trkpt>
      <trkpt lat="45.23799" lon="6.00888">
        <ele>1791.599976</ele>
        <time>2013-03-31T08:38:00Z</time>
      </trkpt>
      <trkpt lat="45.23792" lon="6.00886">
        <ele>1793.800049</ele>
        <time>2013-03-31T08:38:10Z</time>
      </trkpt>
      <trkpt lat="45.23792" lon="6.00886">
        <ele>1794</ele>
        <time>2013-03-31T08:38:11Z</time>
      </trkpt>
      <trkpt lat="45.23789" lon="6.00884">
        <ele>1794.400024</ele>
        <time>2013-03-31T08:38:20Z</time>
      </trkpt>
      <trkpt lat="45.2379" lon="6.00886">
        <ele>1794.800049</ele>
        <time>2013-03-31T08:38:23Z</time>
      </trkpt>
      <trkpt lat="45.23789" lon="6.00889">
        <ele>1795.599976</ele>
        <time>2013-03-31T08:38:25Z</time>
      </trkpt>
      <trkpt lat="45.2379" lon="6.00892">
        <ele>1796</ele>
        <time>2013-03-31T08:38:27Z</time>
      </trkpt>
      <trkpt lat="45.23789" lon="6.00896">
        <ele>1797.199951</ele>
        <time>2013-03-31T08:38:30Z</time>
      </trkpt>
      <trkpt lat="45.23789" lon="6.009">
        <ele>1798.199951</ele>
        <time>2013-03-31T08:38:34Z</time>
      </trkpt>
      <trkpt lat="45.23788" lon="6.00901">
        <ele>1798.800049</ele>
        <time>2013-03-31T08:38:35Z</time>
      </trkpt>
      <trkpt lat="45.23788" lon="6.00902">
        <ele>1799</ele>
        <time>2013-03-31T08:38:37Z</time>
      </trkpt>
      <trkpt lat="45.23787" lon="6.00904">
        <ele>1799.599976</ele>
        <time>2013-03-31T08:38:39Z</time>
      </trkpt>
      <trkpt lat="45.23785" lon="6.00913">
        <ele>1802.800049</ele>
        <time>2013-03-31T08:38:48Z</time>
      </trkpt>
      <trkpt lat="45.23785" lon="6.00914">
        <ele>1802.800049</ele>
        <time>2013-03-31T08:38:49Z</time>
      </trkpt>
      <trkpt lat="45.23785" lon="6.00914">
        <ele>1803.199951</ele>
        <time>2013-03-31T08:38:50Z</time>
      </trkpt>
      <trkpt lat="45.23785" lon="6.00916">
        <ele>1803.400024</ele>
        <time>2013-03-31T08:38:53Z</time>
      </trkpt>
      <trkpt lat="45.23784" lon="6.00918">
        <ele>1804.400024</ele>
        <time>2013-03-31T08:38:56Z</time>
      </trkpt>
      <trkpt lat="45.23784" lon="6.00917">
        <ele>1804.199951</ele>
        <time>2013-03-31T08:38:57Z</time>
      </trkpt>
      <trkpt lat="45.23782" lon="6.00916">
        <ele>1804.599976</ele>
        <time>2013-03-31T08:39:00Z</time>
      </trkpt>
      <trkpt lat="45.23775" lon="6.00905">
        <ele>1805</ele>
        <time>2013-03-31T08:39:13Z</time>
      </trkpt>
      <trkpt lat="45.23769" lon="6.009">
        <ele>1806</ele>
        <time>2013-03-31T08:39:22Z</time>
      </trkpt>
      <trkpt lat="45.23769" lon="6.00899">
        <ele>1805.800049</ele>
        <time>2013-03-31T08:39:23Z</time>
      </trkpt>
      <trkpt lat="45.23762" lon="6.00897">
        <ele>1808.199951</ele>
        <time>2013-03-31T08:39:39Z</time>
      </trkpt>
      <trkpt lat="45.23762" lon="6.00896">
        <ele>1808</ele>
        <time>2013-03-31T08:39:40Z</time>
      </trkpt>
      <trkpt lat="45.23763" lon="6.00909">
        <ele>1810.800049</ele>
        <time>2013-03-31T08:39:53Z</time>
      </trkpt>
      <trkpt lat="45.23762" lon="6.0091">
        <ele>1811.199951</ele>
        <time>2013-03-31T08:39:54Z</time>
      </trkpt>
      <trkpt lat="45.23762" lon="6.00911">
        <ele>1811.400024</ele>
        <time>2013-03-31T08:39:56Z</time>
      </trkpt>
      <trkpt lat="45.23762" lon="6.00913">
        <ele>1812.199951</ele>
        <time>2013-03-31T08:39:57Z</time>
      </trkpt>
      <trkpt lat="45.23762" lon="6.00914">
        <ele>1812.400024</ele>
        <time>2013-03-31T08:39:58Z</time>
      </trkpt>
      <trkpt lat="45.23757" lon="6.0092">
        <ele>1815.400024</ele>
        <time>2013-03-31T08:40:04Z</time>
      </trkpt>
      <trkpt lat="45.23755" lon="6.00926">
        <ele>1816.800049</ele>
        <time>2013-03-31T08:40:11Z</time>
      </trkpt>
      <trkpt lat="45.23756" lon="6.00926">
        <ele>1816.599976</ele>
        <time>2013-03-31T08:40:12Z</time>
      </trkpt>
      <trkpt lat="45.23755" lon="6.00928">
        <ele>1817.199951</ele>
        <time>2013-03-31T08:40:14Z</time>
      </trkpt>
      <trkpt lat="45.23754" lon="6.00929">
        <ele>1817.599976</ele>
        <time>2013-03-31T08:40:15Z</time>
      </trkpt>
      <trkpt lat="45.23754" lon="6.00933">
        <ele>1818.199951</ele>
        <time>2013-03-31T08:40:20Z</time>
      </trkpt>
      <trkpt lat="45.23753" lon="6.00934">
        <ele>1818.800049</ele>
        <time>2013-03-31T08:40:21Z</time>
      </trkpt>
      <trkpt lat="45.23748" lon="6.00944">
        <ele>1821.800049</ele>
        <time>2013-03-31T08:40:32Z</time>
      </trkpt>
      <trkpt lat="45.23748" lon="6.00948">
        <ele>1822.599976</ele>
        <time>2013-03-31T08:40:36Z</time>
      </trkpt>
      <trkpt lat="45.23743" lon="6.00958">
        <ele>1825.800049</ele>
        <time>2013-03-31T08:40:44Z</time>
      </trkpt>
      <trkpt lat="45.23744" lon="6.00958">
        <ele>1825.599976</ele>
        <time>2013-03-31T08:40:45Z</time>
      </trkpt>
      <trkpt lat="45.23742" lon="6.00962">
        <ele>1826.800049</ele>
        <time>2013-03-31T08:40:48Z</time>
      </trkpt>
      <trkpt lat="45.23739" lon="6.00964">
        <ele>1828.199951</ele>
        <time>2013-03-31T08:40:51Z</time>
      </trkpt>
      <trkpt lat="45.23733" lon="6.00974">
        <ele>1832</ele>
        <time>2013-03-31T08:40:59Z</time>
      </trkpt>
      <trkpt lat="45.23733" lon="6.00975">
        <ele>1832.199951</ele>
        <time>2013-03-31T08:41:00Z</time>
      </trkpt>
      <trkpt lat="45.23731" lon="6.00977">
        <ele>1833.199951</ele>
        <time>2013-03-31T08:41:02Z</time>
      </trkpt>
      <trkpt lat="45.23725" lon="6.00994">
        <ele>1837.400024</ele>
        <time>2013-03-31T08:41:17Z</time>
      </trkpt>
      <trkpt lat="45.23723" lon="6.00998">
        <ele>1838.800049</ele>
        <time>2013-03-31T08:41:20Z</time>
      </trkpt>
      <trkpt lat="45.23723" lon="6.01007">
        <ele>1839.800049</ele>
        <time>2013-03-31T08:41:26Z</time>
      </trkpt>
      <trkpt lat="45.23724" lon="6.01008">
        <ele>1839.599976</ele>
        <time>2013-03-31T08:41:27Z</time>
      </trkpt>
      <trkpt lat="45.23725" lon="6.01012">
        <ele>1839.800049</ele>
        <time>2013-03-31T08:41:30Z</time>
      </trkpt>
      <trkpt lat="45.23725" lon="6.01019">
        <ele>1840.800049</ele>
        <time>2013-03-31T08:41:35Z</time>
      </trkpt>
      <trkpt lat="45.23728" lon="6.01032">
        <ele>1841.599976</ele>
        <time>2013-03-31T08:41:45Z</time>
      </trkpt>
      <trkpt lat="45.23728" lon="6.01041">
        <ele>1843.199951</ele>
        <time>2013-03-31T08:41:52Z</time>
      </trkpt>
      <trkpt lat="45.23729" lon="6.01045">
        <ele>1843.199951</ele>
        <time>2013-03-31T08:41:54Z</time>
      </trkpt>
      <trkpt lat="45.23725" lon="6.01048">
        <ele>1845</ele>
        <time>2013-03-31T08:41:57Z</time>
      </trkpt>
      <trkpt lat="45.23721" lon="6.01056">
        <ele>1847.800049</ele>
        <time>2013-03-31T08:42:04Z</time>
      </trkpt>
      <trkpt lat="45.23719" lon="6.01069">
        <ele>1850.400024</ele>
        <time>2013-03-31T08:42:15Z</time>
      </trkpt>
      <trkpt lat="45.23722" lon="6.01084">
        <ele>1851.400024</ele>
        <time>2013-03-31T08:42:27Z</time>
      </trkpt>
      <trkpt lat="45.23723" lon="6.01089">
        <ele>1853.199951</ele>
        <time>2013-03-31T08:42:32Z</time>
      </trkpt>
      <trkpt lat="45.23724" lon="6.0109">
        <ele>1853</ele>
        <time>2013-03-31T08:42:33Z</time>
      </trkpt>
      <trkpt lat="45.23725" lon="6.01093">
        <ele>1853.599976</ele>
        <time>2013-03-31T08:42:37Z</time>
      </trkpt>
      <trkpt lat="45.23723" lon="6.01094">
        <ele>1854.599976</ele>
        <time>2013-03-31T08:42:39Z</time>
      </trkpt>
      <trkpt lat="45.23718" lon="6.01093">
        <ele>1856</ele>
        <time>2013-03-31T08:42:45Z</time>
      </trkpt>
      <trkpt lat="45.23714" lon="6.01094">
        <ele>1858</ele>
        <time>2013-03-31T08:42:53Z</time>
      </trkpt>
      <trkpt lat="45.23713" lon="6.01093">
        <ele>1858</ele>
        <time>2013-03-31T08:42:55Z</time>
      </trkpt>
      <trkpt lat="45.23707" lon="6.01093">
        <ele>1860</ele>
        <time>2013-03-31T08:43:02Z</time>
      </trkpt>
      <trkpt lat="45.23705" lon="6.01094">
        <ele>1861.199951</ele>
        <time>2013-03-31T08:43:05Z</time>
      </trkpt>
      <trkpt lat="45.23702" lon="6.01094">
        <ele>1862.400024</ele>
        <time>2013-03-31T08:43:08Z</time>
      </trkpt>
      <trkpt lat="45.23702" lon="6.01096">
        <ele>1863</ele>
        <time>2013-03-31T08:43:10Z</time>
      </trkpt>
      <trkpt lat="45.23696" lon="6.01098">
        <ele>1865.800049</ele>
        <time>2013-03-31T08:43:23Z</time>
      </trkpt>
      <trkpt lat="45.23702" lon="6.01109">
        <ele>1867.800049</ele>
        <time>2013-03-31T08:43:38Z</time>
      </trkpt>
      <trkpt lat="45.23709" lon="6.01121">
        <ele>1869.199951</ele>
        <time>2013-03-31T08:43:55Z</time>
      </trkpt>
      <trkpt lat="45.23708" lon="6.01123">
        <ele>1870</ele>
        <time>2013-03-31T08:43:57Z</time>
      </trkpt>
      <trkpt lat="45.23715" lon="6.01135">
        <ele>1871.800049</ele>
        <time>2013-03-31T08:44:10Z</time>
      </trkpt>
      <trkpt lat="45.23715" lon="6.01137">
        <ele>1872.400024</ele>
        <time>2013-03-31T08:44:12Z</time>
      </trkpt>
      <trkpt lat="45.23717" lon="6.01142">
        <ele>1873.400024</ele>
        <time>2013-03-31T08:44:18Z</time>
      </trkpt>
      <trkpt lat="45.23717" lon="6.01144">
        <ele>1874</ele>
        <time>2013-03-31T08:44:20Z</time>
      </trkpt>
      <trkpt lat="45.23717" lon="6.01145">
        <ele>1874</ele>
        <time>2013-03-31T08:44:21Z</time>
      </trkpt>
      <trkpt lat="45.23717" lon="6.01156">
        <ele>1878</ele>
        <time>2013-03-31T08:44:34Z</time>
      </trkpt>
      <trkpt lat="45.23715" lon="6.01158">
        <ele>1879.400024</ele>
        <time>2013-03-31T08:44:38Z</time>
      </trkpt>
      <trkpt lat="45.23702" lon="6.01155">
        <ele>1883.400024</ele>
        <time>2013-03-31T08:44:51Z</time>
      </trkpt>
      <trkpt lat="45.23689" lon="6.01154">
        <ele>1888.199951</ele>
        <time>2013-03-31T08:45:11Z</time>
      </trkpt>
      <trkpt lat="45.23694" lon="6.01167">
        <ele>1890.599976</ele>
        <time>2013-03-31T08:45:25Z</time>
      </trkpt>
      <trkpt lat="45.23696" lon="6.01176">
        <ele>1892.599976</ele>
        <time>2013-03-31T08:45:35Z</time>
      </trkpt>
      <trkpt lat="45.23697" lon="6.01179">
        <ele>1893</ele>
        <time>2013-03-31T08:45:40Z</time>
      </trkpt>
      <trkpt lat="45.23696" lon="6.0118">
        <ele>1893.599976</ele>
        <time>2013-03-31T08:45:42Z</time>
      </trkpt>
      <trkpt lat="45.23691" lon="6.01178">
        <ele>1895</ele>
        <time>2013-03-31T08:45:46Z</time>
      </trkpt>
      <trkpt lat="45.2368" lon="6.01169">
        <ele>1896.599976</ele>
        <time>2013-03-31T08:45:58Z</time>
      </trkpt>
      <trkpt lat="45.23674" lon="6.01169">
        <ele>1898.800049</ele>
        <time>2013-03-31T08:46:07Z</time>
      </trkpt>
      <trkpt lat="45.23669" lon="6.01173">
        <ele>1902</ele>
        <time>2013-03-31T08:46:21Z</time>
      </trkpt>
      <trkpt lat="45.23677" lon="6.01184">
        <ele>1902</ele>
        <time>2013-03-31T08:46:35Z</time>
      </trkpt>
      <trkpt lat="45.2368" lon="6.01188">
        <ele>1902.400024</ele>
        <time>2013-03-31T08:46:39Z</time>
      </trkpt>
      <trkpt lat="45.23681" lon="6.01195">
        <ele>1904.199951</ele>
        <time>2013-03-31T08:46:48Z</time>
      </trkpt>
      <trkpt lat="45.2368" lon="6.01196">
        <ele>1905</ele>
        <time>2013-03-31T08:46:50Z</time>
      </trkpt>
      <trkpt lat="45.23674" lon="6.01196">
        <ele>1907.199951</ele>
        <time>2013-03-31T08:46:55Z</time>
      </trkpt>
      <trkpt lat="45.23667" lon="6.01199">
        <ele>1910.800049</ele>
        <time>2013-03-31T08:47:04Z</time>
      </trkpt>
      <trkpt lat="45.23664" lon="6.01202">
        <ele>1912.800049</ele>
        <time>2013-03-31T08:47:12Z</time>
      </trkpt>
      <trkpt lat="45.23672" lon="6.01212">
        <ele>1912.800049</ele>
        <time>2013-03-31T08:47:26Z</time>
      </trkpt>
      <trkpt lat="45.23678" lon="6.01227">
        <ele>1915.199951</ele>
        <time>2013-03-31T08:47:41Z</time>
      </trkpt>
      <trkpt lat="45.23679" lon="6.01229">
        <ele>1916</ele>
        <time>2013-03-31T08:47:44Z</time>
      </trkpt>
      <trkpt lat="45.23682" lon="6.01239">
        <ele>1917.400024</ele>
        <time>2013-03-31T08:47:56Z</time>
      </trkpt>
      <trkpt lat="45.23684" lon="6.01241">
        <ele>1917.400024</ele>
        <time>2013-03-31T08:48:00Z</time>
      </trkpt>
      <trkpt lat="45.23684" lon="6.01243">
        <ele>1917.800049</ele>
        <time>2013-03-31T08:48:02Z</time>
      </trkpt>
      <trkpt lat="45.23676" lon="6.01243">
        <ele>1920.800049</ele>
        <time>2013-03-31T08:48:10Z</time>
      </trkpt>
      <trkpt lat="45.23672" lon="6.01244">
        <ele>1923</ele>
        <time>2013-03-31T08:48:15Z</time>
      </trkpt>
      <trkpt lat="45.23668" lon="6.01247">
        <ele>1925.400024</ele>
        <time>2013-03-31T08:48:20Z</time>
      </trkpt>
      <trkpt lat="45.23667" lon="6.01256">
        <ele>1928</ele>
        <time>2013-03-31T08:48:30Z</time>
      </trkpt>
      <trkpt lat="45.23667" lon="6.01258">
        <ele>1928.400024</ele>
        <time>2013-03-31T08:48:33Z</time>
      </trkpt>
      <trkpt lat="45.23666" lon="6.01263">
        <ele>1929.599976</ele>
        <time>2013-03-31T08:48:38Z</time>
      </trkpt>
      <trkpt lat="45.23667" lon="6.01272">
        <ele>1931</ele>
        <time>2013-03-31T08:48:47Z</time>
      </trkpt>
      <trkpt lat="45.23666" lon="6.01273">
        <ele>1931.599976</ele>
        <time>2013-03-31T08:48:49Z</time>
      </trkpt>
      <trkpt lat="45.23667" lon="6.01283">
        <ele>1933.199951</ele>
        <time>2013-03-31T08:48:58Z</time>
      </trkpt>
      <trkpt lat="45.23672" lon="6.01296">
        <ele>1933.599976</ele>
        <time>2013-03-31T08:49:10Z</time>
      </trkpt>
      <trkpt lat="45.23672" lon="6.01296">
        <ele>1933.800049</ele>
        <time>2013-03-31T08:49:12Z</time>
      </trkpt>
      <trkpt lat="45.23674" lon="6.01295">
        <ele>1932.800049</ele>
        <time>2013-03-31T08:49:18Z</time>
      </trkpt>
      <trkpt lat="45.23673" lon="6.01295">
        <ele>1933.199951</ele>
        <time>2013-03-31T08:49:21Z</time>
      </trkpt>
      <trkpt lat="45.23674" lon="6.01295">
        <ele>1932.800049</ele>
        <time>2013-03-31T08:49:26Z</time>
      </trkpt>
      <trkpt lat="45.23673" lon="6.01295">
        <ele>1933</ele>
        <time>2013-03-31T08:49:35Z</time>
      </trkpt>
      <trkpt lat="45.23674" lon="6.01298">
        <ele>1933.199951</ele>
        <time>2013-03-31T08:49:42Z</time>
      </trkpt>
      <trkpt lat="45.23674" lon="6.01296">
        <ele>1933</ele>
        <time>2013-03-31T08:49:44Z</time>
      </trkpt>
      <trkpt lat="45.23672" lon="6.01296">
        <ele>1933.599976</ele>
        <time>2013-03-31T08:49:47Z</time>
      </trkpt>
      <trkpt lat="45.23672" lon="6.01294">
        <ele>1933.400024</ele>
        <time>2013-03-31T08:49:56Z</time>
      </trkpt>
      <trkpt lat="45.23675" lon="6.01295">
        <ele>1932.199951</ele>
        <time>2013-03-31T08:50:04Z</time>
      </trkpt>
      <trkpt lat="45.23683" lon="6.01304">
        <ele>1931</ele>
        <time>2013-03-31T08:50:11Z</time>
      </trkpt>
      <trkpt lat="45.23686" lon="6.0131">
        <ele>1930.800049</ele>
        <time>2013-03-31T08:50:13Z</time>
      </trkpt>
      <trkpt lat="45.23692" lon="6.01315">
        <ele>1929.400024</ele>
        <time>2013-03-31T08:50:15Z</time>
      </trkpt>
      <trkpt lat="45.23696" lon="6.01318">
        <ele>1928.199951</ele>
        <time>2013-03-31T08:50:16Z</time>
      </trkpt>
      <trkpt lat="45.23721" lon="6.01323">
        <ele>1919.599976</ele>
        <time>2013-03-31T08:50:22Z</time>
      </trkpt>
      <trkpt lat="45.23724" lon="6.01325">
        <ele>1918.599976</ele>
        <time>2013-03-31T08:50:23Z</time>
      </trkpt>
      <trkpt lat="45.23727" lon="6.01329">
        <ele>1918</ele>
        <time>2013-03-31T08:50:24Z</time>
      </trkpt>
      <trkpt lat="45.23735" lon="6.01355">
        <ele>1919.199951</ele>
        <time>2013-03-31T08:50:28Z</time>
      </trkpt>
      <trkpt lat="45.23735" lon="6.01361">
        <ele>1919.800049</ele>
        <time>2013-03-31T08:50:29Z</time>
      </trkpt>
      <trkpt lat="45.23735" lon="6.01375">
        <ele>1922.199951</ele>
        <time>2013-03-31T08:50:31Z</time>
      </trkpt>
      <trkpt lat="45.23736" lon="6.01388">
        <ele>1923.599976</ele>
        <time>2013-03-31T08:50:33Z</time>
      </trkpt>
      <trkpt lat="45.23737" lon="6.01392">
        <ele>1923.800049</ele>
        <time>2013-03-31T08:50:34Z</time>
      </trkpt>
      <trkpt lat="45.23738" lon="6.01393">
        <ele>1923.400024</ele>
        <time>2013-03-31T08:50:35Z</time>
      </trkpt>
      <trkpt lat="45.23744" lon="6.01393">
        <ele>1921</ele>
        <time>2013-03-31T08:50:37Z</time>
      </trkpt>
      <trkpt lat="45.23752" lon="6.01387">
        <ele>1917.400024</ele>
        <time>2013-03-31T08:50:39Z</time>
      </trkpt>
      <trkpt lat="45.23757" lon="6.01387">
        <ele>1916.400024</ele>
        <time>2013-03-31T08:50:40Z</time>
      </trkpt>
      <trkpt lat="45.23766" lon="6.01378">
        <ele>1913.800049</ele>
        <time>2013-03-31T08:50:42Z</time>
      </trkpt>
      <trkpt lat="45.23768" lon="6.01371">
        <ele>1912.599976</ele>
        <time>2013-03-31T08:50:43Z</time>
      </trkpt>
      <trkpt lat="45.23772" lon="6.01367">
        <ele>1911.599976</ele>
        <time>2013-03-31T08:50:44Z</time>
      </trkpt>
      <trkpt lat="45.23774" lon="6.01369">
        <ele>1911.199951</ele>
        <time>2013-03-31T08:50:45Z</time>
      </trkpt>
      <trkpt lat="45.23779" lon="6.01367">
        <ele>1910.400024</ele>
        <time>2013-03-31T08:50:46Z</time>
      </trkpt>
      <trkpt lat="45.23783" lon="6.01364">
        <ele>1909.400024</ele>
        <time>2013-03-31T08:50:47Z</time>
      </trkpt>
      <trkpt lat="45.23785" lon="6.01358">
        <ele>1908.199951</ele>
        <time>2013-03-31T08:50:48Z</time>
      </trkpt>
      <trkpt lat="45.23793" lon="6.01338">
        <ele>1904.800049</ele>
        <time>2013-03-31T08:50:51Z</time>
      </trkpt>
      <trkpt lat="45.23794" lon="6.01323">
        <ele>1902</ele>
        <time>2013-03-31T08:50:53Z</time>
      </trkpt>
      <trkpt lat="45.23798" lon="6.0131">
        <ele>1899.400024</ele>
        <time>2013-03-31T08:50:55Z</time>
      </trkpt>
      <trkpt lat="45.238" lon="6.01292">
        <ele>1895.400024</ele>
        <time>2013-03-31T08:50:58Z</time>
      </trkpt>
      <trkpt lat="45.23801" lon="6.01278">
        <ele>1893</ele>
        <time>2013-03-31T08:51:00Z</time>
      </trkpt>
      <trkpt lat="45.23806" lon="6.01249">
        <ele>1886.400024</ele>
        <time>2013-03-31T08:51:04Z</time>
      </trkpt>
      <trkpt lat="45.23808" lon="6.01244">
        <ele>1884</ele>
        <time>2013-03-31T08:51:05Z</time>
      </trkpt>
      <trkpt lat="45.23813" lon="6.01236">
        <ele>1880</ele>
        <time>2013-03-31T08:51:07Z</time>
      </trkpt>
      <trkpt lat="45.23816" lon="6.01235">
        <ele>1879.199951</ele>
        <time>2013-03-31T08:51:09Z</time>
      </trkpt>
      <trkpt lat="45.23816" lon="6.01237">
        <ele>1880</ele>
        <time>2013-03-31T08:51:10Z</time>
      </trkpt>
      <trkpt lat="45.23814" lon="6.01237">
        <ele>1880</ele>
        <time>2013-03-31T08:51:12Z</time>
      </trkpt>
      <trkpt lat="45.23813" lon="6.01234">
        <ele>1879.199951</ele>
        <time>2013-03-31T08:51:13Z</time>
      </trkpt>
      <trkpt lat="45.23815" lon="6.0123">
        <ele>1877.400024</ele>
        <time>2013-03-31T08:51:15Z</time>
      </trkpt>
      <trkpt lat="45.23819" lon="6.01227">
        <ele>1875.199951</ele>
        <time>2013-03-31T08:51:18Z</time>
      </trkpt>
      <trkpt lat="45.23831" lon="6.01223">
        <ele>1871.599976</ele>
        <time>2013-03-31T08:51:22Z</time>
      </trkpt>
      <trkpt lat="45.23831" lon="6.01223">
        <ele>1871.199951</ele>
        <time>2013-03-31T08:51:23Z</time>
      </trkpt>
      <trkpt lat="45.23826" lon="6.01216">
        <ele>1869</ele>
        <time>2013-03-31T08:51:26Z</time>
      </trkpt>
      <trkpt lat="45.23825" lon="6.01211">
        <ele>1867.400024</ele>
        <time>2013-03-31T08:51:27Z</time>
      </trkpt>
      <trkpt lat="45.23819" lon="6.01201">
        <ele>1864</ele>
        <time>2013-03-31T08:51:29Z</time>
      </trkpt>
      <trkpt lat="45.23819" lon="6.01194">
        <ele>1861.199951</ele>
        <time>2013-03-31T08:51:30Z</time>
      </trkpt>
      <trkpt lat="45.23821" lon="6.0119">
        <ele>1859.199951</ele>
        <time>2013-03-31T08:51:31Z</time>
      </trkpt>
      <trkpt lat="45.23825" lon="6.01187">
        <ele>1857</ele>
        <time>2013-03-31T08:51:32Z</time>
      </trkpt>
      <trkpt lat="45.23833" lon="6.01185">
        <ele>1854.199951</ele>
        <time>2013-03-31T08:51:34Z</time>
      </trkpt>
      <trkpt lat="45.23837" lon="6.01178">
        <ele>1850.599976</ele>
        <time>2013-03-31T08:51:36Z</time>
      </trkpt>
      <trkpt lat="45.23845" lon="6.0117">
        <ele>1845.199951</ele>
        <time>2013-03-31T08:51:39Z</time>
      </trkpt>
      <trkpt lat="45.23845" lon="6.01166">
        <ele>1843.800049</ele>
        <time>2013-03-31T08:51:40Z</time>
      </trkpt>
      <trkpt lat="45.23842" lon="6.01162">
        <ele>1842.599976</ele>
        <time>2013-03-31T08:51:41Z</time>
      </trkpt>
      <trkpt lat="45.23836" lon="6.01145">
        <ele>1836.599976</ele>
        <time>2013-03-31T08:51:45Z</time>
      </trkpt>
      <trkpt lat="45.23834" lon="6.01131">
        <ele>1831.199951</ele>
        <time>2013-03-31T08:51:47Z</time>
      </trkpt>
      <trkpt lat="45.23835" lon="6.01124">
        <ele>1828.199951</ele>
        <time>2013-03-31T08:51:48Z</time>
      </trkpt>
      <trkpt lat="45.23837" lon="6.0112">
        <ele>1826</ele>
        <time>2013-03-31T08:51:49Z</time>
      </trkpt>
      <trkpt lat="45.23842" lon="6.01117">
        <ele>1823.400024</ele>
        <time>2013-03-31T08:51:51Z</time>
      </trkpt>
      <trkpt lat="45.23843" lon="6.01114">
        <ele>1822</ele>
        <time>2013-03-31T08:51:52Z</time>
      </trkpt>
      <trkpt lat="45.23843" lon="6.01109">
        <ele>1820</ele>
        <time>2013-03-31T08:51:53Z</time>
      </trkpt>
      <trkpt lat="45.23844" lon="6.01105">
        <ele>1817.599976</ele>
        <time>2013-03-31T08:51:54Z</time>
      </trkpt>
      <trkpt lat="45.23853" lon="6.01096">
        <ele>1811.400024</ele>
        <time>2013-03-31T08:51:57Z</time>
      </trkpt>
      <trkpt lat="45.23857" lon="6.01078">
        <ele>1803.400024</ele>
        <time>2013-03-31T08:52:00Z</time>
      </trkpt>
      <trkpt lat="45.23861" lon="6.01064">
        <ele>1799.199951</ele>
        <time>2013-03-31T08:52:02Z</time>
      </trkpt>
      <trkpt lat="45.23877" lon="6.01036">
        <ele>1788.800049</ele>
        <time>2013-03-31T08:52:07Z</time>
      </trkpt>
      <trkpt lat="45.2388" lon="6.01028">
        <ele>1786.400024</ele>
        <time>2013-03-31T08:52:08Z</time>
      </trkpt>
      <trkpt lat="45.23884" lon="6.01">
        <ele>1779.400024</ele>
        <time>2013-03-31T08:52:11Z</time>
      </trkpt>
      <trkpt lat="45.23898" lon="6.00968">
        <ele>1771.599976</ele>
        <time>2013-03-31T08:52:15Z</time>
      </trkpt>
      <trkpt lat="45.23901" lon="6.00958">
        <ele>1769.599976</ele>
        <time>2013-03-31T08:52:16Z</time>
      </trkpt>
      <trkpt lat="45.23905" lon="6.0095">
        <ele>1768</ele>
        <time>2013-03-31T08:52:17Z</time>
      </trkpt>
      <trkpt lat="45.23922" lon="6.00931">
        <ele>1761.800049</ele>
        <time>2013-03-31T08:52:20Z</time>
      </trkpt>
      <trkpt lat="45.23932" lon="6.00915">
        <ele>1758.800049</ele>
        <time>2013-03-31T08:52:22Z</time>
      </trkpt>
      <trkpt lat="45.23941" lon="6.00907">
        <ele>1756.599976</ele>
        <time>2013-03-31T08:52:24Z</time>
      </trkpt>
      <trkpt lat="45.23944" lon="6.00903">
        <ele>1755.599976</ele>
        <time>2013-03-31T08:52:25Z</time>
      </trkpt>
      <trkpt lat="45.23946" lon="6.00897">
        <ele>1754.199951</ele>
        <time>2013-03-31T08:52:26Z</time>
      </trkpt>
      <trkpt lat="45.23957" lon="6.00877">
        <ele>1749.599976</ele>
        <time>2013-03-31T08:52:29Z</time>
      </trkpt>
      <trkpt lat="45.23967" lon="6.00841">
        <ele>1742.199951</ele>
        <time>2013-03-31T08:52:33Z</time>
      </trkpt>
      <trkpt lat="45.23975" lon="6.00826">
        <ele>1737.800049</ele>
        <time>2013-03-31T08:52:35Z</time>
      </trkpt>
      <trkpt lat="45.23977" lon="6.00818">
        <ele>1735.599976</ele>
        <time>2013-03-31T08:52:36Z</time>
      </trkpt>
      <trkpt lat="45.2398" lon="6.00802">
        <ele>1731.400024</ele>
        <time>2013-03-31T08:52:38Z</time>
      </trkpt>
      <trkpt lat="45.23984" lon="6.00795">
        <ele>1729.199951</ele>
        <time>2013-03-31T08:52:39Z</time>
      </trkpt>
      <trkpt lat="45.23988" lon="6.00791">
        <ele>1727.400024</ele>
        <time>2013-03-31T08:52:40Z</time>
      </trkpt>
      <trkpt lat="45.23993" lon="6.00789">
        <ele>1725.800049</ele>
        <time>2013-03-31T08:52:41Z</time>
      </trkpt>
      <trkpt lat="45.24007" lon="6.008">
        <ele>1724</ele>
        <time>2013-03-31T08:52:45Z</time>
      </trkpt>
      <trkpt lat="45.24011" lon="6.008">
        <ele>1722.599976</ele>
        <time>2013-03-31T08:52:46Z</time>
      </trkpt>
      <trkpt lat="45.24014" lon="6.00797">
        <ele>1720.800049</ele>
        <time>2013-03-31T08:52:47Z</time>
      </trkpt>
      <trkpt lat="45.24024" lon="6.00797">
        <ele>1716.800049</ele>
        <time>2013-03-31T08:52:49Z</time>
      </trkpt>
      <trkpt lat="45.24033" lon="6.00803">
        <ele>1715</ele>
        <time>2013-03-31T08:52:51Z</time>
      </trkpt>
      <trkpt lat="45.24041" lon="6.00807">
        <ele>1712.599976</ele>
        <time>2013-03-31T08:52:53Z</time>
      </trkpt>
      <trkpt lat="45.2405" lon="6.00807">
        <ele>1709.199951</ele>
        <time>2013-03-31T08:52:56Z</time>
      </trkpt>
      <trkpt lat="45.24053" lon="6.00804">
        <ele>1707.400024</ele>
        <time>2013-03-31T08:52:57Z</time>
      </trkpt>
      <trkpt lat="45.24055" lon="6.00799">
        <ele>1705.599976</ele>
        <time>2013-03-31T08:52:58Z</time>
      </trkpt>
      <trkpt lat="45.24055" lon="6.00789">
        <ele>1702.800049</ele>
        <time>2013-03-31T08:53:01Z</time>
      </trkpt>
      <trkpt lat="45.24057" lon="6.00785">
        <ele>1701</ele>
        <time>2013-03-31T08:53:02Z</time>
      </trkpt>
      <trkpt lat="45.24056" lon="6.00769">
        <ele>1697.199951</ele>
        <time>2013-03-31T08:53:05Z</time>
      </trkpt>
      <trkpt lat="45.24058" lon="6.00764">
        <ele>1695</ele>
        <time>2013-03-31T08:53:06Z</time>
      </trkpt>
      <trkpt lat="45.2406" lon="6.00763">
        <ele>1693.599976</ele>
        <time>2013-03-31T08:53:07Z</time>
      </trkpt>
      <trkpt lat="45.24064" lon="6.00763">
        <ele>1692.199951</ele>
        <time>2013-03-31T08:53:08Z</time>
      </trkpt>
      <trkpt lat="45.2407" lon="6.00765">
        <ele>1690.400024</ele>
        <time>2013-03-31T08:53:10Z</time>
      </trkpt>
      <trkpt lat="45.24072" lon="6.00765">
        <ele>1689.199951</ele>
        <time>2013-03-31T08:53:11Z</time>
      </trkpt>
      <trkpt lat="45.24074" lon="6.00761">
        <ele>1687.400024</ele>
        <time>2013-03-31T08:53:12Z</time>
      </trkpt>
      <trkpt lat="45.24074" lon="6.00754">
        <ele>1686</ele>
        <time>2013-03-31T08:53:13Z</time>
      </trkpt>
      <trkpt lat="45.24073" lon="6.00749">
        <ele>1684.800049</ele>
        <time>2013-03-31T08:53:14Z</time>
      </trkpt>
      <trkpt lat="45.24073" lon="6.00741">
        <ele>1682.599976</ele>
        <time>2013-03-31T08:53:15Z</time>
      </trkpt>
      <trkpt lat="45.24077" lon="6.00737">
        <ele>1680.199951</ele>
        <time>2013-03-31T08:53:16Z</time>
      </trkpt>
      <trkpt lat="45.24084" lon="6.00739">
        <ele>1677.800049</ele>
        <time>2013-03-31T08:53:18Z</time>
      </trkpt>
      <trkpt lat="45.2409" lon="6.00736">
        <ele>1676</ele>
        <time>2013-03-31T08:53:19Z</time>
      </trkpt>
      <trkpt lat="45.24093" lon="6.00731">
        <ele>1674.199951</ele>
        <time>2013-03-31T08:53:20Z</time>
      </trkpt>
      <trkpt lat="45.24095" lon="6.00725">
        <ele>1672.400024</ele>
        <time>2013-03-31T08:53:21Z</time>
      </trkpt>
      <trkpt lat="45.24096" lon="6.00724">
        <ele>1671.800049</ele>
        <time>2013-03-31T08:53:22Z</time>
      </trkpt>
      <trkpt lat="45.24097" lon="6.00719">
        <ele>1670.599976</ele>
        <time>2013-03-31T08:53:24Z</time>
      </trkpt>
      <trkpt lat="45.24095" lon="6.00705">
        <ele>1667.800049</ele>
        <time>2013-03-31T08:53:27Z</time>
      </trkpt>
      <trkpt lat="45.241" lon="6.00687">
        <ele>1662.400024</ele>
        <time>2013-03-31T08:53:30Z</time>
      </trkpt>
      <trkpt lat="45.24105" lon="6.00681">
        <ele>1660.599976</ele>
        <time>2013-03-31T08:53:31Z</time>
      </trkpt>
      <trkpt lat="45.24112" lon="6.00681">
        <ele>1659.400024</ele>
        <time>2013-03-31T08:53:32Z</time>
      </trkpt>
      <trkpt lat="45.2412" lon="6.00685">
        <ele>1659.199951</ele>
        <time>2013-03-31T08:53:33Z</time>
      </trkpt>
      <trkpt lat="45.24128" lon="6.00691">
        <ele>1659.199951</ele>
        <time>2013-03-31T08:53:34Z</time>
      </trkpt>
      <trkpt lat="45.24145" lon="6.00713">
        <ele>1660.400024</ele>
        <time>2013-03-31T08:53:42Z</time>
      </trkpt>
      <trkpt lat="45.24143" lon="6.00713">
        <ele>1660.800049</ele>
        <time>2013-03-31T08:53:51Z</time>
      </trkpt>
      <trkpt lat="45.24143" lon="6.00712">
        <ele>1660.599976</ele>
        <time>2013-03-31T08:53:55Z</time>
      </trkpt>
      <trkpt lat="45.24143" lon="6.00711">
        <ele>1660.599976</ele>
        <time>2013-03-31T08:53:58Z</time>
      </trkpt>
      <trkpt lat="45.24141" lon="6.00712">
        <ele>1660.800049</ele>
        <time>2013-03-31T08:54:10Z</time>
      </trkpt>
      <trkpt lat="45.24144" lon="6.00715">
        <ele>1661</ele>
        <time>2013-03-31T08:54:21Z</time>
      </trkpt>
      <trkpt lat="45.24143" lon="6.00715">
        <ele>1661.199951</ele>
        <time>2013-03-31T08:54:27Z</time>
      </trkpt>
      <trkpt lat="45.24145" lon="6.00716">
        <ele>1660.800049</ele>
        <time>2013-03-31T08:54:37Z</time>
      </trkpt>
      <trkpt lat="45.24144" lon="6.00715">
        <ele>1660.800049</ele>
        <time>2013-03-31T08:54:45Z</time>
      </trkpt>
      <trkpt lat="45.24145" lon="6.00715">
        <ele>1660.800049</ele>
        <time>2013-03-31T08:54:51Z</time>
      </trkpt>
      <trkpt lat="45.24143" lon="6.00714">
        <ele>1661</ele>
        <time>2013-03-31T08:54:58Z</time>
      </trkpt>
      <trkpt lat="45.24142" lon="6.00725">
        <ele>1663.199951</ele>
        <time>2013-03-31T08:55:12Z</time>
      </trkpt>
      <trkpt lat="45.24144" lon="6.00738">
        <ele>1665</ele>
        <time>2013-03-31T08:55:21Z</time>
      </trkpt>
      <trkpt lat="45.24143" lon="6.00744">
        <ele>1666.199951</ele>
        <time>2013-03-31T08:55:25Z</time>
      </trkpt>
      <trkpt lat="45.24144" lon="6.00756">
        <ele>1669</ele>
        <time>2013-03-31T08:55:34Z</time>
      </trkpt>
      <trkpt lat="45.24143" lon="6.00765">
        <ele>1671.800049</ele>
        <time>2013-03-31T08:55:40Z</time>
      </trkpt>
      <trkpt lat="45.24145" lon="6.00777">
        <ele>1675.199951</ele>
        <time>2013-03-31T08:55:49Z</time>
      </trkpt>
      <trkpt lat="45.24147" lon="6.00781">
        <ele>1676.199951</ele>
        <time>2013-03-31T08:55:53Z</time>
      </trkpt>
      <trkpt lat="45.24148" lon="6.00786">
        <ele>1677.400024</ele>
        <time>2013-03-31T08:55:56Z</time>
      </trkpt>
      <trkpt lat="45.24147" lon="6.00787">
        <ele>1678</ele>
        <time>2013-03-31T08:55:57Z</time>
      </trkpt>
      <trkpt lat="45.24143" lon="6.00791">
        <ele>1680</ele>
        <time>2013-03-31T08:56:01Z</time>
      </trkpt>
      <trkpt lat="45.24134" lon="6.00794">
        <ele>1682.800049</ele>
        <time>2013-03-31T08:56:08Z</time>
      </trkpt>
      <trkpt lat="45.24122" lon="6.00791">
        <ele>1684.199951</ele>
        <time>2013-03-31T08:56:20Z</time>
      </trkpt>
      <trkpt lat="45.2412" lon="6.00789">
        <ele>1684.199951</ele>
        <time>2013-03-31T08:56:25Z</time>
      </trkpt>
      <trkpt lat="45.24125" lon="6.00828">
        <ele>1694.599976</ele>
        <time>2013-03-31T08:56:53Z</time>
      </trkpt>
      <trkpt lat="45.24127" lon="6.00831">
        <ele>1695.400024</ele>
        <time>2013-03-31T08:56:57Z</time>
      </trkpt>
      <trkpt lat="45.24126" lon="6.00831">
        <ele>1695.800049</ele>
        <time>2013-03-31T08:56:59Z</time>
      </trkpt>
      <trkpt lat="45.24097" lon="6.00809">
        <ele>1694.599976</ele>
        <time>2013-03-31T08:57:31Z</time>
      </trkpt>
      <trkpt lat="45.24095" lon="6.00806">
        <ele>1694.199951</ele>
        <time>2013-03-31T08:57:35Z</time>
      </trkpt>
      <trkpt lat="45.24083" lon="6.00793">
        <ele>1692.800049</ele>
        <time>2013-03-31T08:57:52Z</time>
      </trkpt>
      <trkpt lat="45.24081" lon="6.00789">
        <ele>1692.400024</ele>
        <time>2013-03-31T08:57:57Z</time>
      </trkpt>
      <trkpt lat="45.24077" lon="6.00786">
        <ele>1693.400024</ele>
        <time>2013-03-31T08:58:02Z</time>
      </trkpt>
      <trkpt lat="45.24073" lon="6.00781">
        <ele>1693.599976</ele>
        <time>2013-03-31T08:58:10Z</time>
      </trkpt>
      <trkpt lat="45.24077" lon="6.00801">
        <ele>1697.400024</ele>
        <time>2013-03-31T08:58:28Z</time>
      </trkpt>
      <trkpt lat="45.24082" lon="6.00815">
        <ele>1699.400024</ele>
        <time>2013-03-31T08:58:37Z</time>
      </trkpt>
      <trkpt lat="45.24085" lon="6.00827">
        <ele>1701.800049</ele>
        <time>2013-03-31T08:58:45Z</time>
      </trkpt>
      <trkpt lat="45.24086" lon="6.00838">
        <ele>1705</ele>
        <time>2013-03-31T08:58:53Z</time>
      </trkpt>
      <trkpt lat="45.24087" lon="6.00841">
        <ele>1705.800049</ele>
        <time>2013-03-31T08:58:55Z</time>
      </trkpt>
      <trkpt lat="45.24088" lon="6.00846">
        <ele>1707.800049</ele>
        <time>2013-03-31T08:59:02Z</time>
      </trkpt>
      <trkpt lat="45.24079" lon="6.00839">
        <ele>1707.400024</ele>
        <time>2013-03-31T08:59:11Z</time>
      </trkpt>
      <trkpt lat="45.24076" lon="6.00834">
        <ele>1706.800049</ele>
        <time>2013-03-31T08:59:16Z</time>
      </trkpt>
      <trkpt lat="45.24069" lon="6.00828">
        <ele>1707.800049</ele>
        <time>2013-03-31T08:59:27Z</time>
      </trkpt>
      <trkpt lat="45.24069" lon="6.00843">
        <ele>1712.199951</ele>
        <time>2013-03-31T08:59:39Z</time>
      </trkpt>
      <trkpt lat="45.24071" lon="6.00859">
        <ele>1717.199951</ele>
        <time>2013-03-31T08:59:51Z</time>
      </trkpt>
      <trkpt lat="45.24072" lon="6.00861">
        <ele>1717.800049</ele>
        <time>2013-03-31T08:59:56Z</time>
      </trkpt>
      <trkpt lat="45.24071" lon="6.00862">
        <ele>1718.400024</ele>
        <time>2013-03-31T08:59:59Z</time>
      </trkpt>
      <trkpt lat="45.24066" lon="6.00858">
        <ele>1718.599976</ele>
        <time>2013-03-31T09:00:05Z</time>
      </trkpt>
      <trkpt lat="45.2406" lon="6.0085">
        <ele>1718</ele>
        <time>2013-03-31T09:00:12Z</time>
      </trkpt>
      <trkpt lat="45.24058" lon="6.00844">
        <ele>1717</ele>
        <time>2013-03-31T09:00:17Z</time>
      </trkpt>
      <trkpt lat="45.24052" lon="6.00838">
        <ele>1716.800049</ele>
        <time>2013-03-31T09:00:28Z</time>
      </trkpt>
      <trkpt lat="45.24053" lon="6.00837">
        <ele>1716.599976</ele>
        <time>2013-03-31T09:00:30Z</time>
      </trkpt>
      <trkpt lat="45.24054" lon="6.00873">
        <ele>1727</ele>
        <time>2013-03-31T09:00:58Z</time>
      </trkpt>
      <trkpt lat="45.24055" lon="6.00876">
        <ele>1727.599976</ele>
        <time>2013-03-31T09:01:04Z</time>
      </trkpt>
      <trkpt lat="45.24053" lon="6.00876">
        <ele>1728.199951</ele>
        <time>2013-03-31T09:01:07Z</time>
      </trkpt>
      <trkpt lat="45.24042" lon="6.00863">
        <ele>1727.599976</ele>
        <time>2013-03-31T09:01:21Z</time>
      </trkpt>
      <trkpt lat="45.24037" lon="6.00861">
        <ele>1728.599976</ele>
        <time>2013-03-31T09:01:26Z</time>
      </trkpt>
      <trkpt lat="45.24025" lon="6.00867">
        <ele>1733.800049</ele>
        <time>2013-03-31T09:01:41Z</time>
      </trkpt>
      <trkpt lat="45.24032" lon="6.00878">
        <ele>1734.800049</ele>
        <time>2013-03-31T09:01:54Z</time>
      </trkpt>
      <trkpt lat="45.24033" lon="6.00888">
        <ele>1737</ele>
        <time>2013-03-31T09:02:01Z</time>
      </trkpt>
      <trkpt lat="45.24035" lon="6.00894">
        <ele>1738.199951</ele>
        <time>2013-03-31T09:02:07Z</time>
      </trkpt>
      <trkpt lat="45.24035" lon="6.00895">
        <ele>1738.400024</ele>
        <time>2013-03-31T09:02:08Z</time>
      </trkpt>
      <trkpt lat="45.24031" lon="6.00895">
        <ele>1739.400024</ele>
        <time>2013-03-31T09:02:12Z</time>
      </trkpt>
      <trkpt lat="45.24026" lon="6.00897">
        <ele>1741</ele>
        <time>2013-03-31T09:02:16Z</time>
      </trkpt>
      <trkpt lat="45.24022" lon="6.00902">
        <ele>1743.400024</ele>
        <time>2013-03-31T09:02:23Z</time>
      </trkpt>
      <trkpt lat="45.2402" lon="6.00907">
        <ele>1744.599976</ele>
        <time>2013-03-31T09:02:27Z</time>
      </trkpt>
      <trkpt lat="45.24019" lon="6.00909">
        <ele>1745.599976</ele>
        <time>2013-03-31T09:02:29Z</time>
      </trkpt>
      <trkpt lat="45.24017" lon="6.00914">
        <ele>1747</ele>
        <time>2013-03-31T09:02:33Z</time>
      </trkpt>
      <trkpt lat="45.24016" lon="6.00932">
        <ele>1750.199951</ele>
        <time>2013-03-31T09:02:44Z</time>
      </trkpt>
      <trkpt lat="45.24016" lon="6.00949">
        <ele>1753</ele>
        <time>2013-03-31T09:02:54Z</time>
      </trkpt>
      <trkpt lat="45.24013" lon="6.00957">
        <ele>1754.599976</ele>
        <time>2013-03-31T09:02:59Z</time>
      </trkpt>
      <trkpt lat="45.24011" lon="6.00967">
        <ele>1756.400024</ele>
        <time>2013-03-31T09:03:06Z</time>
      </trkpt>
      <trkpt lat="45.24003" lon="6.00987">
        <ele>1760</ele>
        <time>2013-03-31T09:03:17Z</time>
      </trkpt>
      <trkpt lat="45.23994" lon="6.00999">
        <ele>1762.199951</ele>
        <time>2013-03-31T09:03:23Z</time>
      </trkpt>
      <trkpt lat="45.23987" lon="6.01013">
        <ele>1765.800049</ele>
        <time>2013-03-31T09:03:31Z</time>
      </trkpt>
      <trkpt lat="45.23986" lon="6.01018">
        <ele>1766.800049</ele>
        <time>2013-03-31T09:03:33Z</time>
      </trkpt>
      <trkpt lat="45.23988" lon="6.01028">
        <ele>1768.800049</ele>
        <time>2013-03-31T09:03:38Z</time>
      </trkpt>
      <trkpt lat="45.23988" lon="6.01043">
        <ele>1771.599976</ele>
        <time>2013-03-31T09:03:45Z</time>
      </trkpt>
      <trkpt lat="45.23987" lon="6.01048">
        <ele>1773</ele>
        <time>2013-03-31T09:03:51Z</time>
      </trkpt>
      <trkpt lat="45.23984" lon="6.01053">
        <ele>1774</ele>
        <time>2013-03-31T09:03:55Z</time>
      </trkpt>
      <trkpt lat="45.23985" lon="6.01054">
        <ele>1774.400024</ele>
        <time>2013-03-31T09:03:56Z</time>
      </trkpt>
      <trkpt lat="45.23982" lon="6.01062">
        <ele>1776</ele>
        <time>2013-03-31T09:04:02Z</time>
      </trkpt>
      <trkpt lat="45.23979" lon="6.01067">
        <ele>1777.400024</ele>
        <time>2013-03-31T09:04:07Z</time>
      </trkpt>
      <trkpt lat="45.23978" lon="6.0107">
        <ele>1778.199951</ele>
        <time>2013-03-31T09:04:09Z</time>
      </trkpt>
      <trkpt lat="45.23975" lon="6.01075">
        <ele>1779.199951</ele>
        <time>2013-03-31T09:04:16Z</time>
      </trkpt>
      <trkpt lat="45.23979" lon="6.01076">
        <ele>1779.199951</ele>
        <time>2013-03-31T09:04:25Z</time>
      </trkpt>
      <trkpt lat="45.23989" lon="6.01078">
        <ele>1778.599976</ele>
        <time>2013-03-31T09:04:36Z</time>
      </trkpt>
      <trkpt lat="45.24" lon="6.01083">
        <ele>1778.800049</ele>
        <time>2013-03-31T09:04:54Z</time>
      </trkpt>
      <trkpt lat="45.23997" lon="6.01087">
        <ele>1781</ele>
        <time>2013-03-31T09:04:59Z</time>
      </trkpt>
      <trkpt lat="45.23985" lon="6.01094">
        <ele>1785.800049</ele>
        <time>2013-03-31T09:05:11Z</time>
      </trkpt>
      <trkpt lat="45.23981" lon="6.01099">
        <ele>1788.800049</ele>
        <time>2013-03-31T09:05:18Z</time>
      </trkpt>
      <trkpt lat="45.23981" lon="6.011">
        <ele>1789.599976</ele>
        <time>2013-03-31T09:05:20Z</time>
      </trkpt>
      <trkpt lat="45.23975" lon="6.01106">
        <ele>1793.400024</ele>
        <time>2013-03-31T09:05:31Z</time>
      </trkpt>
      <trkpt lat="45.23978" lon="6.01107">
        <ele>1793.599976</ele>
        <time>2013-03-31T09:05:37Z</time>
      </trkpt>
      <trkpt lat="45.23983" lon="6.01107">
        <ele>1793</ele>
        <time>2013-03-31T09:05:41Z</time>
      </trkpt>
      <trkpt lat="45.2399" lon="6.01108">
        <ele>1793</ele>
        <time>2013-03-31T09:05:48Z</time>
      </trkpt>
      <trkpt lat="45.23998" lon="6.01111">
        <ele>1794</ele>
        <time>2013-03-31T09:06:02Z</time>
      </trkpt>
      <trkpt lat="45.23998" lon="6.01112">
        <ele>1794.800049</ele>
        <time>2013-03-31T09:06:04Z</time>
      </trkpt>
      <trkpt lat="45.23991" lon="6.0112">
        <ele>1799.199951</ele>
        <time>2013-03-31T09:06:16Z</time>
      </trkpt>
      <trkpt lat="45.23986" lon="6.01122">
        <ele>1801.199951</ele>
        <time>2013-03-31T09:06:27Z</time>
      </trkpt>
      <trkpt lat="45.24003" lon="6.0113">
        <ele>1804.400024</ele>
        <time>2013-03-31T09:06:52Z</time>
      </trkpt>
      <trkpt lat="45.23999" lon="6.01134">
        <ele>1806.400024</ele>
        <time>2013-03-31T09:06:59Z</time>
      </trkpt>
      <trkpt lat="45.23991" lon="6.0114">
        <ele>1810.199951</ele>
        <time>2013-03-31T09:07:11Z</time>
      </trkpt>
      <trkpt lat="45.24001" lon="6.01143">
        <ele>1811</ele>
        <time>2013-03-31T09:07:22Z</time>
      </trkpt>
      <trkpt lat="45.24004" lon="6.01145">
        <ele>1812.599976</ele>
        <time>2013-03-31T09:07:28Z</time>
      </trkpt>
      <trkpt lat="45.23998" lon="6.01151">
        <ele>1815.800049</ele>
        <time>2013-03-31T09:07:37Z</time>
      </trkpt>
      <trkpt lat="45.23998" lon="6.01153">
        <ele>1816.800049</ele>
        <time>2013-03-31T09:07:39Z</time>
      </trkpt>
      <trkpt lat="45.2399" lon="6.01163">
        <ele>1822.800049</ele>
        <time>2013-03-31T09:07:51Z</time>
      </trkpt>
      <trkpt lat="45.23987" lon="6.01163">
        <ele>1823.199951</ele>
        <time>2013-03-31T09:07:54Z</time>
      </trkpt>
      <trkpt lat="45.23984" lon="6.01166">
        <ele>1824.800049</ele>
        <time>2013-03-31T09:08:00Z</time>
      </trkpt>
      <trkpt lat="45.23988" lon="6.0117">
        <ele>1826.400024</ele>
        <time>2013-03-31T09:08:06Z</time>
      </trkpt>
      <trkpt lat="45.23993" lon="6.01173">
        <ele>1827.400024</ele>
        <time>2013-03-31T09:08:11Z</time>
      </trkpt>
      <trkpt lat="45.23998" lon="6.01177">
        <ele>1828.800049</ele>
        <time>2013-03-31T09:08:17Z</time>
      </trkpt>
      <trkpt lat="45.24002" lon="6.01179">
        <ele>1829.400024</ele>
        <time>2013-03-31T09:08:22Z</time>
      </trkpt>
      <trkpt lat="45.24005" lon="6.01182">
        <ele>1831.199951</ele>
        <time>2013-03-31T09:08:30Z</time>
      </trkpt>
      <trkpt lat="45.23997" lon="6.01191">
        <ele>1835</ele>
        <time>2013-03-31T09:08:40Z</time>
      </trkpt>
      <trkpt lat="45.23991" lon="6.01195">
        <ele>1837.400024</ele>
        <time>2013-03-31T09:08:46Z</time>
      </trkpt>
      <trkpt lat="45.23982" lon="6.01196">
        <ele>1839</ele>
        <time>2013-03-31T09:08:57Z</time>
      </trkpt>
      <trkpt lat="45.23978" lon="6.01198">
        <ele>1840.199951</ele>
        <time>2013-03-31T09:09:00Z</time>
      </trkpt>
      <trkpt lat="45.23977" lon="6.012">
        <ele>1841.400024</ele>
        <time>2013-03-31T09:09:02Z</time>
      </trkpt>
      <trkpt lat="45.23972" lon="6.01202">
        <ele>1842.800049</ele>
        <time>2013-03-31T09:09:13Z</time>
      </trkpt>
      <trkpt lat="45.2398" lon="6.01207">
        <ele>1844.400024</ele>
        <time>2013-03-31T09:09:22Z</time>
      </trkpt>
      <trkpt lat="45.23986" lon="6.01216">
        <ele>1848</ele>
        <time>2013-03-31T09:09:31Z</time>
      </trkpt>
      <trkpt lat="45.23978" lon="6.01217">
        <ele>1849.400024</ele>
        <time>2013-03-31T09:09:40Z</time>
      </trkpt>
      <trkpt lat="45.23976" lon="6.01219">
        <ele>1850.199951</ele>
        <time>2013-03-31T09:09:42Z</time>
      </trkpt>
      <trkpt lat="45.2397" lon="6.0122">
        <ele>1851.800049</ele>
        <time>2013-03-31T09:09:50Z</time>
      </trkpt>
      <trkpt lat="45.23963" lon="6.01223">
        <ele>1854.199951</ele>
        <time>2013-03-31T09:09:59Z</time>
      </trkpt>
      <trkpt lat="45.23961" lon="6.01223">
        <ele>1854.599976</ele>
        <time>2013-03-31T09:10:04Z</time>
      </trkpt>
      <trkpt lat="45.2397" lon="6.01231">
        <ele>1857</ele>
        <time>2013-03-31T09:10:18Z</time>
      </trkpt>
      <trkpt lat="45.23974" lon="6.01239">
        <ele>1860</ele>
        <time>2013-03-31T09:10:28Z</time>
      </trkpt>
      <trkpt lat="45.23955" lon="6.01242">
        <ele>1864.599976</ele>
        <time>2013-03-31T09:10:51Z</time>
      </trkpt>
      <trkpt lat="45.23956" lon="6.01245">
        <ele>1866</ele>
        <time>2013-03-31T09:10:56Z</time>
      </trkpt>
      <trkpt lat="45.23958" lon="6.01246">
        <ele>1866.199951</ele>
        <time>2013-03-31T09:10:58Z</time>
      </trkpt>
      <trkpt lat="45.23961" lon="6.01252">
        <ele>1867.800049</ele>
        <time>2013-03-31T09:11:02Z</time>
      </trkpt>
      <trkpt lat="45.23971" lon="6.01276">
        <ele>1872.400024</ele>
        <time>2013-03-31T09:11:24Z</time>
      </trkpt>
      <trkpt lat="45.23971" lon="6.01279">
        <ele>1873.199951</ele>
        <time>2013-03-31T09:11:26Z</time>
      </trkpt>
      <trkpt lat="45.2397" lon="6.01284">
        <ele>1874.800049</ele>
        <time>2013-03-31T09:11:29Z</time>
      </trkpt>
      <trkpt lat="45.23965" lon="6.01291">
        <ele>1877.599976</ele>
        <time>2013-03-31T09:11:37Z</time>
      </trkpt>
      <trkpt lat="45.23959" lon="6.01296">
        <ele>1879.599976</ele>
        <time>2013-03-31T09:11:45Z</time>
      </trkpt>
      <trkpt lat="45.23952" lon="6.01295">
        <ele>1880.599976</ele>
        <time>2013-03-31T09:11:46Z</time>
      </trkpt>
      <trkpt lat="45.23954" lon="6.01302">
        <ele>1882</ele>
        <time>2013-03-31T09:11:52Z</time>
      </trkpt>
      <trkpt lat="45.23958" lon="6.0131">
        <ele>1883.400024</ele>
        <time>2013-03-31T09:12:00Z</time>
      </trkpt>
      <trkpt lat="45.23957" lon="6.01313">
        <ele>1884.400024</ele>
        <time>2013-03-31T09:12:02Z</time>
      </trkpt>
      <trkpt lat="45.23948" lon="6.01314">
        <ele>1886</ele>
        <time>2013-03-31T09:12:08Z</time>
      </trkpt>
      <trkpt lat="45.23946" lon="6.01315">
        <ele>1886.800049</ele>
        <time>2013-03-31T09:12:12Z</time>
      </trkpt>
      <trkpt lat="45.23935" lon="6.01316">
        <ele>1888.599976</ele>
        <time>2013-03-31T09:12:21Z</time>
      </trkpt>
      <trkpt lat="45.23932" lon="6.01317">
        <ele>1889.400024</ele>
        <time>2013-03-31T09:12:24Z</time>
      </trkpt>
      <trkpt lat="45.23929" lon="6.01322">
        <ele>1891.199951</ele>
        <time>2013-03-31T09:12:29Z</time>
      </trkpt>
      <trkpt lat="45.23929" lon="6.01326">
        <ele>1892</ele>
        <time>2013-03-31T09:12:32Z</time>
      </trkpt>
      <trkpt lat="45.23927" lon="6.01339">
        <ele>1895.199951</ele>
        <time>2013-03-31T09:12:44Z</time>
      </trkpt>
      <trkpt lat="45.23925" lon="6.01353">
        <ele>1897.800049</ele>
        <time>2013-03-31T09:12:57Z</time>
      </trkpt>
      <trkpt lat="45.23916" lon="6.01363">
        <ele>1899.800049</ele>
        <time>2013-03-31T09:13:07Z</time>
      </trkpt>
      <trkpt lat="45.23916" lon="6.01369">
        <ele>1900.599976</ele>
        <time>2013-03-31T09:13:13Z</time>
      </trkpt>
      <trkpt lat="45.23918" lon="6.01393">
        <ele>1903.800049</ele>
        <time>2013-03-31T09:13:31Z</time>
      </trkpt>
      <trkpt lat="45.23922" lon="6.01397">
        <ele>1904.400024</ele>
        <time>2013-03-31T09:13:34Z</time>
      </trkpt>
      <trkpt lat="45.23922" lon="6.014">
        <ele>1904.800049</ele>
        <time>2013-03-31T09:13:36Z</time>
      </trkpt>
      <trkpt lat="45.23929" lon="6.01422">
        <ele>1908</ele>
        <time>2013-03-31T09:13:51Z</time>
      </trkpt>
      <trkpt lat="45.23935" lon="6.01433">
        <ele>1909.800049</ele>
        <time>2013-03-31T09:13:59Z</time>
      </trkpt>
      <trkpt lat="45.23952" lon="6.01459">
        <ele>1914.400024</ele>
        <time>2013-03-31T09:14:19Z</time>
      </trkpt>
      <trkpt lat="45.23956" lon="6.01464">
        <ele>1915.400024</ele>
        <time>2013-03-31T09:14:22Z</time>
      </trkpt>
      <trkpt lat="45.2397" lon="6.0147">
        <ele>1917.800049</ele>
        <time>2013-03-31T09:14:33Z</time>
      </trkpt>
      <trkpt lat="45.23978" lon="6.01475">
        <ele>1919.599976</ele>
        <time>2013-03-31T09:14:40Z</time>
      </trkpt>
      <trkpt lat="45.24001" lon="6.01494">
        <ele>1926</ele>
        <time>2013-03-31T09:15:04Z</time>
      </trkpt>
      <trkpt lat="45.24009" lon="6.01506">
        <ele>1931.199951</ele>
        <time>2013-03-31T09:15:16Z</time>
      </trkpt>
      <trkpt lat="45.24014" lon="6.01514">
        <ele>1934.400024</ele>
        <time>2013-03-31T09:15:25Z</time>
      </trkpt>
      <trkpt lat="45.24014" lon="6.01519">
        <ele>1935.800049</ele>
        <time>2013-03-31T09:15:29Z</time>
      </trkpt>
      <trkpt lat="45.24013" lon="6.01525">
        <ele>1936.800049</ele>
        <time>2013-03-31T09:15:33Z</time>
      </trkpt>
      <trkpt lat="45.24014" lon="6.01536">
        <ele>1939.599976</ele>
        <time>2013-03-31T09:15:45Z</time>
      </trkpt>
      <trkpt lat="45.24013" lon="6.01541">
        <ele>1940.400024</ele>
        <time>2013-03-31T09:15:49Z</time>
      </trkpt>
      <trkpt lat="45.24013" lon="6.0156">
        <ele>1945</ele>
        <time>2013-03-31T09:16:08Z</time>
      </trkpt>
      <trkpt lat="45.2401" lon="6.01572">
        <ele>1947</ele>
        <time>2013-03-31T09:16:18Z</time>
      </trkpt>
      <trkpt lat="45.24007" lon="6.0158">
        <ele>1948.199951</ele>
        <time>2013-03-31T09:16:30Z</time>
      </trkpt>
      <trkpt lat="45.24024" lon="6.01577">
        <ele>1952</ele>
        <time>2013-03-31T09:16:53Z</time>
      </trkpt>
      <trkpt lat="45.24031" lon="6.01574">
        <ele>1953.199951</ele>
        <time>2013-03-31T09:17:03Z</time>
      </trkpt>
      <trkpt lat="45.24045" lon="6.01571">
        <ele>1956.599976</ele>
        <time>2013-03-31T09:17:22Z</time>
      </trkpt>
      <trkpt lat="45.24046" lon="6.01573">
        <ele>1957.199951</ele>
        <time>2013-03-31T09:17:24Z</time>
      </trkpt>
      <trkpt lat="45.24031" lon="6.01595">
        <ele>1959.400024</ele>
        <time>2013-03-31T09:17:49Z</time>
      </trkpt>
      <trkpt lat="45.24043" lon="6.01595">
        <ele>1962.400024</ele>
        <time>2013-03-31T09:18:08Z</time>
      </trkpt>
      <trkpt lat="45.24043" lon="6.01599">
        <ele>1963.400024</ele>
        <time>2013-03-31T09:18:12Z</time>
      </trkpt>
      <trkpt lat="45.24037" lon="6.01607">
        <ele>1964.400024</ele>
        <time>2013-03-31T09:18:19Z</time>
      </trkpt>
      <trkpt lat="45.24035" lon="6.0161">
        <ele>1965</ele>
        <time>2013-03-31T09:18:22Z</time>
      </trkpt>
      <trkpt lat="45.24026" lon="6.01625">
        <ele>1967.800049</ele>
        <time>2013-03-31T09:18:37Z</time>
      </trkpt>
      <trkpt lat="45.24024" lon="6.0163">
        <ele>1969.199951</ele>
        <time>2013-03-31T09:18:43Z</time>
      </trkpt>
      <trkpt lat="45.24022" lon="6.01633">
        <ele>1969.800049</ele>
        <time>2013-03-31T09:18:46Z</time>
      </trkpt>
      <trkpt lat="45.24016" lon="6.01649">
        <ele>1974.199951</ele>
        <time>2013-03-31T09:19:02Z</time>
      </trkpt>
      <trkpt lat="45.24013" lon="6.01659">
        <ele>1977.599976</ele>
        <time>2013-03-31T09:19:13Z</time>
      </trkpt>
      <trkpt lat="45.24013" lon="6.01664">
        <ele>1979.199951</ele>
        <time>2013-03-31T09:19:18Z</time>
      </trkpt>
      <trkpt lat="45.24015" lon="6.01671">
        <ele>1982</ele>
        <time>2013-03-31T09:19:26Z</time>
      </trkpt>
      <trkpt lat="45.24019" lon="6.01672">
        <ele>1982.400024</ele>
        <time>2013-03-31T09:19:30Z</time>
      </trkpt>
      <trkpt lat="45.24027" lon="6.0167">
        <ele>1982.599976</ele>
        <time>2013-03-31T09:19:39Z</time>
      </trkpt>
      <trkpt lat="45.24045" lon="6.01661">
        <ele>1982.199951</ele>
        <time>2013-03-31T09:20:03Z</time>
      </trkpt>
      <trkpt lat="45.24047" lon="6.01662">
        <ele>1982.400024</ele>
        <time>2013-03-31T09:20:07Z</time>
      </trkpt>
      <trkpt lat="45.24037" lon="6.01679">
        <ele>1986.400024</ele>
        <time>2013-03-31T09:20:24Z</time>
      </trkpt>
      <trkpt lat="45.24033" lon="6.01696">
        <ele>1990.800049</ele>
        <time>2013-03-31T09:20:37Z</time>
      </trkpt>
      <trkpt lat="45.24032" lon="6.01704">
        <ele>1993.199951</ele>
        <time>2013-03-31T09:20:45Z</time>
      </trkpt>
      <trkpt lat="45.24029" lon="6.01714">
        <ele>1996</ele>
        <time>2013-03-31T09:20:53Z</time>
      </trkpt>
      <trkpt lat="45.24029" lon="6.01723">
        <ele>1998.400024</ele>
        <time>2013-03-31T09:20:59Z</time>
      </trkpt>
      <trkpt lat="45.24027" lon="6.01727">
        <ele>1999.400024</ele>
        <time>2013-03-31T09:21:03Z</time>
      </trkpt>
      <trkpt lat="45.24026" lon="6.01733">
        <ele>2001.199951</ele>
        <time>2013-03-31T09:21:08Z</time>
      </trkpt>
      <trkpt lat="45.24024" lon="6.01734">
        <ele>2001.400024</ele>
        <time>2013-03-31T09:21:11Z</time>
      </trkpt>
      <trkpt lat="45.2402" lon="6.01752">
        <ele>2006.400024</ele>
        <time>2013-03-31T09:21:26Z</time>
      </trkpt>
      <trkpt lat="45.24015" lon="6.0176">
        <ele>2008.400024</ele>
        <time>2013-03-31T09:21:40Z</time>
      </trkpt>
      <trkpt lat="45.2405" lon="6.01748">
        <ele>2006</ele>
        <time>2013-03-31T09:22:30Z</time>
      </trkpt>
      <trkpt lat="45.2405" lon="6.01751">
        <ele>2006.599976</ele>
        <time>2013-03-31T09:22:34Z</time>
      </trkpt>
      <trkpt lat="45.24042" lon="6.01768">
        <ele>2008.800049</ele>
        <time>2013-03-31T09:22:49Z</time>
      </trkpt>
      <trkpt lat="45.24037" lon="6.01776">
        <ele>2010.199951</ele>
        <time>2013-03-31T09:22:58Z</time>
      </trkpt>
      <trkpt lat="45.24032" lon="6.0179">
        <ele>2013.199951</ele>
        <time>2013-03-31T09:23:12Z</time>
      </trkpt>
      <trkpt lat="45.2402" lon="6.0181">
        <ele>2019</ele>
        <time>2013-03-31T09:23:32Z</time>
      </trkpt>
      <trkpt lat="45.24018" lon="6.01815">
        <ele>2020.400024</ele>
        <time>2013-03-31T09:23:42Z</time>
      </trkpt>
      <trkpt lat="45.24022" lon="6.01815">
        <ele>2019.800049</ele>
        <time>2013-03-31T09:23:49Z</time>
      </trkpt>
      <trkpt lat="45.2403" lon="6.01811">
        <ele>2017.199951</ele>
        <time>2013-03-31T09:23:59Z</time>
      </trkpt>
      <trkpt lat="45.24031" lon="6.01812">
        <ele>2017.199951</ele>
        <time>2013-03-31T09:24:14Z</time>
      </trkpt>
      <trkpt lat="45.24031" lon="6.01811">
        <ele>2017</ele>
        <time>2013-03-31T09:24:20Z</time>
      </trkpt>
      <trkpt lat="45.2403" lon="6.01811">
        <ele>2017.199951</ele>
        <time>2013-03-31T09:24:30Z</time>
      </trkpt>
      <trkpt lat="45.24031" lon="6.01812">
        <ele>2017.400024</ele>
        <time>2013-03-31T09:24:38Z</time>
      </trkpt>
      <trkpt lat="45.2403" lon="6.01812">
        <ele>2017.400024</ele>
        <time>2013-03-31T09:24:41Z</time>
      </trkpt>
      <trkpt lat="45.24031" lon="6.01812">
        <ele>2017.199951</ele>
        <time>2013-03-31T09:24:47Z</time>
      </trkpt>
      <trkpt lat="45.2403" lon="6.01811">
        <ele>2017.400024</ele>
        <time>2013-03-31T09:24:53Z</time>
      </trkpt>
      <trkpt lat="45.2403" lon="6.01812">
        <ele>2017.400024</ele>
        <time>2013-03-31T09:24:59Z</time>
      </trkpt>
      <trkpt lat="45.2403" lon="6.01811">
        <ele>2017.199951</ele>
        <time>2013-03-31T09:25:04Z</time>
      </trkpt>
      <trkpt lat="45.24033" lon="6.01809">
        <ele>2016.199951</ele>
        <time>2013-03-31T09:25:11Z</time>
      </trkpt>
      <trkpt lat="45.24039" lon="6.01801">
        <ele>2013.800049</ele>
        <time>2013-03-31T09:25:14Z</time>
      </trkpt>
      <trkpt lat="45.24049" lon="6.018">
        <ele>2012</ele>
        <time>2013-03-31T09:25:17Z</time>
      </trkpt>
      <trkpt lat="45.24051" lon="6.01803">
        <ele>2012</ele>
        <time>2013-03-31T09:25:18Z</time>
      </trkpt>
      <trkpt lat="45.24057" lon="6.01804">
        <ele>2011</ele>
        <time>2013-03-31T09:25:20Z</time>
      </trkpt>
      <trkpt lat="45.24061" lon="6.01807">
        <ele>2010.599976</ele>
        <time>2013-03-31T09:25:21Z</time>
      </trkpt>
      <trkpt lat="45.24065" lon="6.01808">
        <ele>2009.800049</ele>
        <time>2013-03-31T09:25:22Z</time>
      </trkpt>
      <trkpt lat="45.2407" lon="6.01806">
        <ele>2008.599976</ele>
        <time>2013-03-31T09:25:23Z</time>
      </trkpt>
      <trkpt lat="45.24075" lon="6.01808">
        <ele>2008</ele>
        <time>2013-03-31T09:25:24Z</time>
      </trkpt>
      <trkpt lat="45.24095" lon="6.01791">
        <ele>1999.800049</ele>
        <time>2013-03-31T09:25:29Z</time>
      </trkpt>
      <trkpt lat="45.241" lon="6.0179">
        <ele>1997.199951</ele>
        <time>2013-03-31T09:25:30Z</time>
      </trkpt>
      <trkpt lat="45.24108" lon="6.01785">
        <ele>1992.199951</ele>
        <time>2013-03-31T09:25:32Z</time>
      </trkpt>
      <trkpt lat="45.24119" lon="6.01793">
        <ele>1986.400024</ele>
        <time>2013-03-31T09:25:34Z</time>
      </trkpt>
      <trkpt lat="45.2413" lon="6.01802">
        <ele>1981.599976</ele>
        <time>2013-03-31T09:25:36Z</time>
      </trkpt>
      <trkpt lat="45.24134" lon="6.01804">
        <ele>1979.400024</ele>
        <time>2013-03-31T09:25:37Z</time>
      </trkpt>
      <trkpt lat="45.24145" lon="6.01803">
        <ele>1973.400024</ele>
        <time>2013-03-31T09:25:39Z</time>
      </trkpt>
      <trkpt lat="45.24166" lon="6.01818">
        <ele>1965.199951</ele>
        <time>2013-03-31T09:25:46Z</time>
      </trkpt>
      <trkpt lat="45.24169" lon="6.01808">
        <ele>1961.400024</ele>
        <time>2013-03-31T09:25:49Z</time>
      </trkpt>
      <trkpt lat="45.24173" lon="6.01804">
        <ele>1958.599976</ele>
        <time>2013-03-31T09:25:50Z</time>
      </trkpt>
      <trkpt lat="45.24177" lon="6.01806">
        <ele>1957</ele>
        <time>2013-03-31T09:25:51Z</time>
      </trkpt>
      <trkpt lat="45.24181" lon="6.01812">
        <ele>1955.400024</ele>
        <time>2013-03-31T09:25:53Z</time>
      </trkpt>
      <trkpt lat="45.24183" lon="6.01812">
        <ele>1954.400024</ele>
        <time>2013-03-31T09:25:54Z</time>
      </trkpt>
      <trkpt lat="45.24186" lon="6.01811">
        <ele>1952.400024</ele>
        <time>2013-03-31T09:25:55Z</time>
      </trkpt>
      <trkpt lat="45.2419" lon="6.01807">
        <ele>1949.599976</ele>
        <time>2013-03-31T09:25:56Z</time>
      </trkpt>
      <trkpt lat="45.24195" lon="6.01806">
        <ele>1946.400024</ele>
        <time>2013-03-31T09:25:57Z</time>
      </trkpt>
      <trkpt lat="45.242" lon="6.0181">
        <ele>1944.199951</ele>
        <time>2013-03-31T09:25:58Z</time>
      </trkpt>
      <trkpt lat="45.24213" lon="6.01825">
        <ele>1939.599976</ele>
        <time>2013-03-31T09:26:02Z</time>
      </trkpt>
      <trkpt lat="45.24216" lon="6.01826">
        <ele>1938</ele>
        <time>2013-03-31T09:26:03Z</time>
      </trkpt>
      <trkpt lat="45.24224" lon="6.01817">
        <ele>1931.599976</ele>
        <time>2013-03-31T09:26:05Z</time>
      </trkpt>
      <trkpt lat="45.24229" lon="6.01816">
        <ele>1928.599976</ele>
        <time>2013-03-31T09:26:06Z</time>
      </trkpt>
      <trkpt lat="45.24232" lon="6.01818">
        <ele>1927.400024</ele>
        <time>2013-03-31T09:26:07Z</time>
      </trkpt>
      <trkpt lat="45.24234" lon="6.01817">
        <ele>1925.800049</ele>
        <time>2013-03-31T09:26:08Z</time>
      </trkpt>
      <trkpt lat="45.2424" lon="6.01817">
        <ele>1922.599976</ele>
        <time>2013-03-31T09:26:09Z</time>
      </trkpt>
      <trkpt lat="45.24245" lon="6.01821">
        <ele>1920</ele>
        <time>2013-03-31T09:26:10Z</time>
      </trkpt>
      <trkpt lat="45.2426" lon="6.01837">
        <ele>1915.199951</ele>
        <time>2013-03-31T09:26:15Z</time>
      </trkpt>
      <trkpt lat="45.24268" lon="6.01841">
        <ele>1912.199951</ele>
        <time>2013-03-31T09:26:17Z</time>
      </trkpt>
      <trkpt lat="45.2428" lon="6.01854">
        <ele>1907.800049</ele>
        <time>2013-03-31T09:26:21Z</time>
      </trkpt>
      <trkpt lat="45.24281" lon="6.01855">
        <ele>1907</ele>
        <time>2013-03-31T09:26:22Z</time>
      </trkpt>
      <trkpt lat="45.24282" lon="6.01837">
        <ele>1904.599976</ele>
        <time>2013-03-31T09:26:25Z</time>
      </trkpt>
      <trkpt lat="45.24279" lon="6.01818">
        <ele>1902.800049</ele>
        <time>2013-03-31T09:26:28Z</time>
      </trkpt>
      <trkpt lat="45.2428" lon="6.01814">
        <ele>1901.800049</ele>
        <time>2013-03-31T09:26:29Z</time>
      </trkpt>
      <trkpt lat="45.24282" lon="6.01812">
        <ele>1900.800049</ele>
        <time>2013-03-31T09:26:30Z</time>
      </trkpt>
      <trkpt lat="45.24289" lon="6.01816">
        <ele>1898.199951</ele>
        <time>2013-03-31T09:26:32Z</time>
      </trkpt>
      <trkpt lat="45.2429" lon="6.01815">
        <ele>1897.400024</ele>
        <time>2013-03-31T09:26:33Z</time>
      </trkpt>
      <trkpt lat="45.2429" lon="6.01811">
        <ele>1897</ele>
        <time>2013-03-31T09:26:34Z</time>
      </trkpt>
      <trkpt lat="45.24291" lon="6.01805">
        <ele>1895.599976</ele>
        <time>2013-03-31T09:26:35Z</time>
      </trkpt>
      <trkpt lat="45.24295" lon="6.01801">
        <ele>1893.400024</ele>
        <time>2013-03-31T09:26:36Z</time>
      </trkpt>
      <trkpt lat="45.243" lon="6.018">
        <ele>1891</ele>
        <time>2013-03-31T09:26:37Z</time>
      </trkpt>
      <trkpt lat="45.24304" lon="6.01802">
        <ele>1889.400024</ele>
        <time>2013-03-31T09:26:38Z</time>
      </trkpt>
      <trkpt lat="45.24317" lon="6.01816">
        <ele>1884.599976</ele>
        <time>2013-03-31T09:26:42Z</time>
      </trkpt>
      <trkpt lat="45.24323" lon="6.0181">
        <ele>1881.599976</ele>
        <time>2013-03-31T09:26:43Z</time>
      </trkpt>
      <trkpt lat="45.24325" lon="6.01806">
        <ele>1880.599976</ele>
        <time>2013-03-31T09:26:44Z</time>
      </trkpt>
      <trkpt lat="45.24325" lon="6.01798">
        <ele>1879.599976</ele>
        <time>2013-03-31T09:26:45Z</time>
      </trkpt>
      <trkpt lat="45.24328" lon="6.0179">
        <ele>1878</ele>
        <time>2013-03-31T09:26:46Z</time>
      </trkpt>
      <trkpt lat="45.24333" lon="6.01781">
        <ele>1875.599976</ele>
        <time>2013-03-31T09:26:47Z</time>
      </trkpt>
      <trkpt lat="45.24339" lon="6.01774">
        <ele>1874.400024</ele>
        <time>2013-03-31T09:26:48Z</time>
      </trkpt>
      <trkpt lat="45.24353" lon="6.01761">
        <ele>1872.599976</ele>
        <time>2013-03-31T09:26:50Z</time>
      </trkpt>
      <trkpt lat="45.24364" lon="6.01748">
        <ele>1871.199951</ele>
        <time>2013-03-31T09:26:52Z</time>
      </trkpt>
      <trkpt lat="45.24379" lon="6.01739">
        <ele>1868.800049</ele>
        <time>2013-03-31T09:26:57Z</time>
      </trkpt>
      <trkpt lat="45.24376" lon="6.01738">
        <ele>1868.800049</ele>
        <time>2013-03-31T09:27:01Z</time>
      </trkpt>
      <trkpt lat="45.24377" lon="6.01741">
        <ele>1869</ele>
        <time>2013-03-31T09:27:08Z</time>
      </trkpt>
      <trkpt lat="45.24377" lon="6.01741">
        <ele>1869.199951</ele>
        <time>2013-03-31T09:27:12Z</time>
      </trkpt>
      <trkpt lat="45.24375" lon="6.01741">
        <ele>1869.199951</ele>
        <time>2013-03-31T09:27:31Z</time>
      </trkpt>
      <trkpt lat="45.24376" lon="6.01741">
        <ele>1869.400024</ele>
        <time>2013-03-31T09:27:34Z</time>
      </trkpt>
      <trkpt lat="45.24373" lon="6.01738">
        <ele>1869.199951</ele>
        <time>2013-03-31T09:27:39Z</time>
      </trkpt>
      <trkpt lat="45.24371" lon="6.01735">
        <ele>1869</ele>
        <time>2013-03-31T09:27:44Z</time>
      </trkpt>
      <trkpt lat="45.24375" lon="6.0174">
        <ele>1869.199951</ele>
        <time>2013-03-31T09:27:56Z</time>
      </trkpt>
      <trkpt lat="45.24375" lon="6.01741">
        <ele>1869.400024</ele>
        <time>2013-03-31T09:27:58Z</time>
      </trkpt>
      <trkpt lat="45.24376" lon="6.01742">
        <ele>1869.400024</ele>
        <time>2013-03-31T09:28:06Z</time>
      </trkpt>
      <trkpt lat="45.24375" lon="6.01741">
        <ele>1869.400024</ele>
        <time>2013-03-31T09:28:16Z</time>
      </trkpt>
      <trkpt lat="45.24375" lon="6.01743">
        <ele>1869.599976</ele>
        <time>2013-03-31T09:28:22Z</time>
      </trkpt>
      <trkpt lat="45.24377" lon="6.01743">
        <ele>1869.400024</ele>
        <time>2013-03-31T09:28:35Z</time>
      </trkpt>
      <trkpt lat="45.24375" lon="6.0174">
        <ele>1869.199951</ele>
        <time>2013-03-31T09:28:47Z</time>
      </trkpt>
      <trkpt lat="45.24376" lon="6.0174">
        <ele>1869.199951</ele>
        <time>2013-03-31T09:28:53Z</time>
      </trkpt>
      <trkpt lat="45.24377" lon="6.01742">
        <ele>1869.199951</ele>
        <time>2013-03-31T09:28:58Z</time>
      </trkpt>
      <trkpt lat="45.24374" lon="6.01737">
        <ele>1869</ele>
        <time>2013-03-31T09:29:08Z</time>
      </trkpt>
      <trkpt lat="45.24375" lon="6.01741">
        <ele>1869.400024</ele>
        <time>2013-03-31T09:29:17Z</time>
      </trkpt>
      <trkpt lat="45.24375" lon="6.0174">
        <ele>1869.199951</ele>
        <time>2013-03-31T09:29:20Z</time>
      </trkpt>
      <trkpt lat="45.24381" lon="6.01739">
        <ele>1868.599976</ele>
        <time>2013-03-31T09:29:30Z</time>
      </trkpt>
      <trkpt lat="45.24385" lon="6.01744">
        <ele>1869</ele>
        <time>2013-03-31T09:29:34Z</time>
      </trkpt>
      <trkpt lat="45.24388" lon="6.01754">
        <ele>1869.400024</ele>
        <time>2013-03-31T09:29:38Z</time>
      </trkpt>
      <trkpt lat="45.24406" lon="6.01793">
        <ele>1868.199951</ele>
        <time>2013-03-31T09:29:55Z</time>
      </trkpt>
      <trkpt lat="45.24421" lon="6.01819">
        <ele>1867.800049</ele>
        <time>2013-03-31T09:30:12Z</time>
      </trkpt>
      <trkpt lat="45.24427" lon="6.01831">
        <ele>1869</ele>
        <time>2013-03-31T09:30:23Z</time>
      </trkpt>
      <trkpt lat="45.24432" lon="6.01836">
        <ele>1870.199951</ele>
        <time>2013-03-31T09:30:28Z</time>
      </trkpt>
      <trkpt lat="45.24442" lon="6.01842">
        <ele>1872.400024</ele>
        <time>2013-03-31T09:30:35Z</time>
      </trkpt>
      <trkpt lat="45.2445" lon="6.01851">
        <ele>1874.599976</ele>
        <time>2013-03-31T09:30:41Z</time>
      </trkpt>
      <trkpt lat="45.24462" lon="6.01873">
        <ele>1878.400024</ele>
        <time>2013-03-31T09:30:58Z</time>
      </trkpt>
      <trkpt lat="45.24465" lon="6.01884">
        <ele>1879.800049</ele>
        <time>2013-03-31T09:31:07Z</time>
      </trkpt>
      <trkpt lat="45.24467" lon="6.01886">
        <ele>1880.199951</ele>
        <time>2013-03-31T09:31:09Z</time>
      </trkpt>
      <trkpt lat="45.24468" lon="6.01894">
        <ele>1880.800049</ele>
        <time>2013-03-31T09:31:15Z</time>
      </trkpt>
      <trkpt lat="45.24467" lon="6.01895">
        <ele>1880.800049</ele>
        <time>2013-03-31T09:31:16Z</time>
      </trkpt>
      <trkpt lat="45.24468" lon="6.01909">
        <ele>1882</ele>
        <time>2013-03-31T09:31:27Z</time>
      </trkpt>
      <trkpt lat="45.24466" lon="6.0192">
        <ele>1883</ele>
        <time>2013-03-31T09:31:35Z</time>
      </trkpt>
      <trkpt lat="45.24464" lon="6.01924">
        <ele>1883.800049</ele>
        <time>2013-03-31T09:31:38Z</time>
      </trkpt>
      <trkpt lat="45.24465" lon="6.01931">
        <ele>1885.800049</ele>
        <time>2013-03-31T09:31:44Z</time>
      </trkpt>
      <trkpt lat="45.24464" lon="6.01937">
        <ele>1887.400024</ele>
        <time>2013-03-31T09:31:50Z</time>
      </trkpt>
      <trkpt lat="45.24463" lon="6.01939">
        <ele>1888</ele>
        <time>2013-03-31T09:31:52Z</time>
      </trkpt>
      <trkpt lat="45.24461" lon="6.01945">
        <ele>1889.400024</ele>
        <time>2013-03-31T09:31:57Z</time>
      </trkpt>
      <trkpt lat="45.2446" lon="6.01956">
        <ele>1892.199951</ele>
        <time>2013-03-31T09:32:06Z</time>
      </trkpt>
      <trkpt lat="45.24457" lon="6.01964">
        <ele>1894.400024</ele>
        <time>2013-03-31T09:32:14Z</time>
      </trkpt>
      <trkpt lat="45.24447" lon="6.01986">
        <ele>1900.400024</ele>
        <time>2013-03-31T09:32:40Z</time>
      </trkpt>
      <trkpt lat="45.24444" lon="6.01989">
        <ele>1901</ele>
        <time>2013-03-31T09:32:44Z</time>
      </trkpt>
      <trkpt lat="45.24438" lon="6.01998">
        <ele>1903.800049</ele>
        <time>2013-03-31T09:32:55Z</time>
      </trkpt>
      <trkpt lat="45.24428" lon="6.02005">
        <ele>1906.400024</ele>
        <time>2013-03-31T09:33:09Z</time>
      </trkpt>
      <trkpt lat="45.24428" lon="6.02005">
        <ele>1906</ele>
        <time>2013-03-31T09:33:10Z</time>
      </trkpt>
      <trkpt lat="45.24427" lon="6.02006">
        <ele>1906.400024</ele>
        <time>2013-03-31T09:33:16Z</time>
      </trkpt>
      <trkpt lat="45.24435" lon="6.02007">
        <ele>1907.400024</ele>
        <time>2013-03-31T09:33:27Z</time>
      </trkpt>
      <trkpt lat="45.24436" lon="6.0201">
        <ele>1908.400024</ele>
        <time>2013-03-31T09:33:29Z</time>
      </trkpt>
      <trkpt lat="45.24435" lon="6.02016">
        <ele>1910.800049</ele>
        <time>2013-03-31T09:33:37Z</time>
      </trkpt>
      <trkpt lat="45.24431" lon="6.02025">
        <ele>1914.199951</ele>
        <time>2013-03-31T09:33:50Z</time>
      </trkpt>
      <trkpt lat="45.24424" lon="6.02034">
        <ele>1917</ele>
        <time>2013-03-31T09:34:05Z</time>
      </trkpt>
      <trkpt lat="45.24414" lon="6.0205">
        <ele>1922.199951</ele>
        <time>2013-03-31T09:34:36Z</time>
      </trkpt>
      <trkpt lat="45.24404" lon="6.0207">
        <ele>1930.599976</ele>
        <time>2013-03-31T09:35:12Z</time>
      </trkpt>
      <trkpt lat="45.24401" lon="6.02079">
        <ele>1934.400024</ele>
        <time>2013-03-31T09:35:26Z</time>
      </trkpt>
      <trkpt lat="45.24398" lon="6.02083">
        <ele>1936.199951</ele>
        <time>2013-03-31T09:35:34Z</time>
      </trkpt>
      <trkpt lat="45.24398" lon="6.02085">
        <ele>1937</ele>
        <time>2013-03-31T09:35:39Z</time>
      </trkpt>
      <trkpt lat="45.24396" lon="6.02086">
        <ele>1937.599976</ele>
        <time>2013-03-31T09:35:42Z</time>
      </trkpt>
      <trkpt lat="45.24394" lon="6.02091">
        <ele>1939.400024</ele>
        <time>2013-03-31T09:35:50Z</time>
      </trkpt>
      <trkpt lat="45.24389" lon="6.02097">
        <ele>1941.599976</ele>
        <time>2013-03-31T09:36:03Z</time>
      </trkpt>
      <trkpt lat="45.24387" lon="6.02102">
        <ele>1943.199951</ele>
        <time>2013-03-31T09:36:12Z</time>
      </trkpt>
      <trkpt lat="45.24387" lon="6.02108">
        <ele>1945.199951</ele>
        <time>2013-03-31T09:36:21Z</time>
      </trkpt>
      <trkpt lat="45.24388" lon="6.02114">
        <ele>1946.800049</ele>
        <time>2013-03-31T09:36:28Z</time>
      </trkpt>
      <trkpt lat="45.24388" lon="6.02133">
        <ele>1952.599976</ele>
        <time>2013-03-31T09:36:46Z</time>
      </trkpt>
      <trkpt lat="45.24388" lon="6.02135">
        <ele>1953</ele>
        <time>2013-03-31T09:36:48Z</time>
      </trkpt>
      <trkpt lat="45.24388" lon="6.02143">
        <ele>1955.599976</ele>
        <time>2013-03-31T09:36:55Z</time>
      </trkpt>
      <trkpt lat="45.2439" lon="6.02149">
        <ele>1957.400024</ele>
        <time>2013-03-31T09:37:01Z</time>
      </trkpt>
      <trkpt lat="45.24392" lon="6.02155">
        <ele>1959.199951</ele>
        <time>2013-03-31T09:37:06Z</time>
      </trkpt>
      <trkpt lat="45.24399" lon="6.02172">
        <ele>1964.800049</ele>
        <time>2013-03-31T09:37:22Z</time>
      </trkpt>
      <trkpt lat="45.24408" lon="6.0218">
        <ele>1967.599976</ele>
        <time>2013-03-31T09:37:37Z</time>
      </trkpt>
      <trkpt lat="45.24416" lon="6.02183">
        <ele>1969</ele>
        <time>2013-03-31T09:37:47Z</time>
      </trkpt>
      <trkpt lat="45.24421" lon="6.02188">
        <ele>1972</ele>
        <time>2013-03-31T09:37:56Z</time>
      </trkpt>
      <trkpt lat="45.24424" lon="6.02188">
        <ele>1972.800049</ele>
        <time>2013-03-31T09:38:01Z</time>
      </trkpt>
      <trkpt lat="45.24425" lon="6.0219">
        <ele>1973.599976</ele>
        <time>2013-03-31T09:38:03Z</time>
      </trkpt>
      <trkpt lat="45.24432" lon="6.02192">
        <ele>1976.199951</ele>
        <time>2013-03-31T09:38:13Z</time>
      </trkpt>
      <trkpt lat="45.24448" lon="6.02192">
        <ele>1981.599976</ele>
        <time>2013-03-31T09:38:37Z</time>
      </trkpt>
      <trkpt lat="45.2445" lon="6.02194">
        <ele>1982.800049</ele>
        <time>2013-03-31T09:38:41Z</time>
      </trkpt>
      <trkpt lat="45.24453" lon="6.02204">
        <ele>1986.199951</ele>
        <time>2013-03-31T09:38:51Z</time>
      </trkpt>
      <trkpt lat="45.24455" lon="6.02212">
        <ele>1988.599976</ele>
        <time>2013-03-31T09:38:58Z</time>
      </trkpt>
      <trkpt lat="45.24454" lon="6.02218">
        <ele>1989.599976</ele>
        <time>2013-03-31T09:39:02Z</time>
      </trkpt>
      <trkpt lat="45.2445" lon="6.02226">
        <ele>1990.599976</ele>
        <time>2013-03-31T09:39:09Z</time>
      </trkpt>
      <trkpt lat="45.24447" lon="6.02241">
        <ele>1993.400024</ele>
        <time>2013-03-31T09:39:22Z</time>
      </trkpt>
      <trkpt lat="45.24445" lon="6.02245">
        <ele>1993.800049</ele>
        <time>2013-03-31T09:39:27Z</time>
      </trkpt>
      <trkpt lat="45.24457" lon="6.02243">
        <ele>1997</ele>
        <time>2013-03-31T09:39:43Z</time>
      </trkpt>
      <trkpt lat="45.24464" lon="6.02245">
        <ele>1999.199951</ele>
        <time>2013-03-31T09:39:51Z</time>
      </trkpt>
      <trkpt lat="45.24492" lon="6.02242">
        <ele>2006.800049</ele>
        <time>2013-03-31T09:40:32Z</time>
      </trkpt>
      <trkpt lat="45.24491" lon="6.02245">
        <ele>2007.199951</ele>
        <time>2013-03-31T09:40:36Z</time>
      </trkpt>
      <trkpt lat="45.2449" lon="6.02258">
        <ele>2010.400024</ele>
        <time>2013-03-31T09:40:51Z</time>
      </trkpt>
      <trkpt lat="45.24487" lon="6.0227">
        <ele>2013</ele>
        <time>2013-03-31T09:41:03Z</time>
      </trkpt>
      <trkpt lat="45.24493" lon="6.02266">
        <ele>2013.599976</ele>
        <time>2013-03-31T09:41:16Z</time>
      </trkpt>
      <trkpt lat="45.245" lon="6.02266">
        <ele>2015.199951</ele>
        <time>2013-03-31T09:41:25Z</time>
      </trkpt>
      <trkpt lat="45.24495" lon="6.02282">
        <ele>2018.599976</ele>
        <time>2013-03-31T09:41:42Z</time>
      </trkpt>
      <trkpt lat="45.24498" lon="6.02282">
        <ele>2019.199951</ele>
        <time>2013-03-31T09:41:55Z</time>
      </trkpt>
      <trkpt lat="45.24506" lon="6.02286">
        <ele>2022.599976</ele>
        <time>2013-03-31T09:42:07Z</time>
      </trkpt>
      <trkpt lat="45.2451" lon="6.02286">
        <ele>2023.800049</ele>
        <time>2013-03-31T09:42:12Z</time>
      </trkpt>
      <trkpt lat="45.24505" lon="6.023">
        <ele>2026.199951</ele>
        <time>2013-03-31T09:42:30Z</time>
      </trkpt>
      <trkpt lat="45.24511" lon="6.02302">
        <ele>2028.400024</ele>
        <time>2013-03-31T09:42:40Z</time>
      </trkpt>
      <trkpt lat="45.24517" lon="6.02307">
        <ele>2031</ele>
        <time>2013-03-31T09:42:50Z</time>
      </trkpt>
      <trkpt lat="45.24525" lon="6.02315">
        <ele>2035</ele>
        <time>2013-03-31T09:43:03Z</time>
      </trkpt>
      <trkpt lat="45.24525" lon="6.02316">
        <ele>2035</ele>
        <time>2013-03-31T09:43:07Z</time>
      </trkpt>
      <trkpt lat="45.24531" lon="6.02331">
        <ele>2040</ele>
        <time>2013-03-31T09:43:22Z</time>
      </trkpt>
      <trkpt lat="45.24532" lon="6.02336">
        <ele>2041.199951</ele>
        <time>2013-03-31T09:43:26Z</time>
      </trkpt>
      <trkpt lat="45.24535" lon="6.02337">
        <ele>2041.800049</ele>
        <time>2013-03-31T09:43:29Z</time>
      </trkpt>
      <trkpt lat="45.24536" lon="6.02338">
        <ele>2042.400024</ele>
        <time>2013-03-31T09:43:31Z</time>
      </trkpt>
      <trkpt lat="45.24537" lon="6.02365">
        <ele>2046.400024</ele>
        <time>2013-03-31T09:43:48Z</time>
      </trkpt>
      <trkpt lat="45.24544" lon="6.02401">
        <ele>2052.600098</ele>
        <time>2013-03-31T09:44:12Z</time>
      </trkpt>
      <trkpt lat="45.24547" lon="6.02407">
        <ele>2053.800049</ele>
        <time>2013-03-31T09:44:17Z</time>
      </trkpt>
      <trkpt lat="45.24557" lon="6.02441">
        <ele>2063</ele>
        <time>2013-03-31T09:44:43Z</time>
      </trkpt>
      <trkpt lat="45.24557" lon="6.02443">
        <ele>2063.600098</ele>
        <time>2013-03-31T09:44:45Z</time>
      </trkpt>
      <trkpt lat="45.2456" lon="6.02449">
        <ele>2065.399902</ele>
        <time>2013-03-31T09:44:50Z</time>
      </trkpt>
      <trkpt lat="45.24562" lon="6.02457">
        <ele>2067.600098</ele>
        <time>2013-03-31T09:44:56Z</time>
      </trkpt>
      <trkpt lat="45.2456" lon="6.02469">
        <ele>2070.800049</ele>
        <time>2013-03-31T09:45:07Z</time>
      </trkpt>
      <trkpt lat="45.24561" lon="6.02475">
        <ele>2072.399902</ele>
        <time>2013-03-31T09:45:13Z</time>
      </trkpt>
      <trkpt lat="45.2456" lon="6.02493">
        <ele>2077</ele>
        <time>2013-03-31T09:45:33Z</time>
      </trkpt>
      <trkpt lat="45.24559" lon="6.02497">
        <ele>2078</ele>
        <time>2013-03-31T09:45:41Z</time>
      </trkpt>
      <trkpt lat="45.24559" lon="6.02498">
        <ele>2078.399902</ele>
        <time>2013-03-31T09:45:42Z</time>
      </trkpt>
      <trkpt lat="45.24558" lon="6.02506">
        <ele>2081.199951</ele>
        <time>2013-03-31T09:45:51Z</time>
      </trkpt>
      <trkpt lat="45.24557" lon="6.02507">
        <ele>2081.399902</ele>
        <time>2013-03-31T09:45:54Z</time>
      </trkpt>
      <trkpt lat="45.24574" lon="6.02522">
        <ele>2086.199951</ele>
        <time>2013-03-31T09:46:21Z</time>
      </trkpt>
      <trkpt lat="45.24578" lon="6.0253">
        <ele>2088.600098</ele>
        <time>2013-03-31T09:46:31Z</time>
      </trkpt>
      <trkpt lat="45.24568" lon="6.02544">
        <ele>2094.399902</ele>
        <time>2013-03-31T09:46:48Z</time>
      </trkpt>
      <trkpt lat="45.24567" lon="6.02549">
        <ele>2096.399902</ele>
        <time>2013-03-31T09:46:55Z</time>
      </trkpt>
      <trkpt lat="45.24568" lon="6.02551">
        <ele>2096.800049</ele>
        <time>2013-03-31T09:46:57Z</time>
      </trkpt>
      <trkpt lat="45.24573" lon="6.02562">
        <ele>2100</ele>
        <time>2013-03-31T09:47:10Z</time>
      </trkpt>
      <trkpt lat="45.24572" lon="6.02565">
        <ele>2101.199951</ele>
        <time>2013-03-31T09:47:13Z</time>
      </trkpt>
      <trkpt lat="45.24575" lon="6.02569">
        <ele>2102</ele>
        <time>2013-03-31T09:47:17Z</time>
      </trkpt>
      <trkpt lat="45.24574" lon="6.02575">
        <ele>2104</ele>
        <time>2013-03-31T09:47:28Z</time>
      </trkpt>
      <trkpt lat="45.24574" lon="6.02575">
        <ele>2104.199951</ele>
        <time>2013-03-31T09:47:36Z</time>
      </trkpt>
      <trkpt lat="45.24572" lon="6.02582">
        <ele>2107</ele>
        <time>2013-03-31T09:47:45Z</time>
      </trkpt>
      <trkpt lat="45.24569" lon="6.02587">
        <ele>2109.399902</ele>
        <time>2013-03-31T09:47:52Z</time>
      </trkpt>
      <trkpt lat="45.24573" lon="6.02595">
        <ele>2111.800049</ele>
        <time>2013-03-31T09:48:02Z</time>
      </trkpt>
      <trkpt lat="45.24581" lon="6.02602">
        <ele>2112.399902</ele>
        <time>2013-03-31T09:48:14Z</time>
      </trkpt>
      <trkpt lat="45.24582" lon="6.02603">
        <ele>2113</ele>
        <time>2013-03-31T09:48:17Z</time>
      </trkpt>
      <trkpt lat="45.24585" lon="6.02606">
        <ele>2113.399902</ele>
        <time>2013-03-31T09:48:22Z</time>
      </trkpt>
      <trkpt lat="45.2459" lon="6.02613">
        <ele>2115.800049</ele>
        <time>2013-03-31T09:48:32Z</time>
      </trkpt>
      <trkpt lat="45.24589" lon="6.02618">
        <ele>2118</ele>
        <time>2013-03-31T09:48:45Z</time>
      </trkpt>
      <trkpt lat="45.24588" lon="6.02623">
        <ele>2119.800049</ele>
        <time>2013-03-31T09:48:53Z</time>
      </trkpt>
      <trkpt lat="45.24586" lon="6.02625">
        <ele>2120.600098</ele>
        <time>2013-03-31T09:48:56Z</time>
      </trkpt>
      <trkpt lat="45.24577" lon="6.02641">
        <ele>2128.399902</ele>
        <time>2013-03-31T09:49:15Z</time>
      </trkpt>
      <trkpt lat="45.24581" lon="6.02645">
        <ele>2128.800049</ele>
        <time>2013-03-31T09:49:23Z</time>
      </trkpt>
      <trkpt lat="45.246" lon="6.0265">
        <ele>2128.600098</ele>
        <time>2013-03-31T09:49:50Z</time>
      </trkpt>
      <trkpt lat="45.24598" lon="6.0265">
        <ele>2129</ele>
        <time>2013-03-31T09:49:56Z</time>
      </trkpt>
      <trkpt lat="45.24595" lon="6.02657">
        <ele>2131.800049</ele>
        <time>2013-03-31T09:50:09Z</time>
      </trkpt>
      <trkpt lat="45.24594" lon="6.02667">
        <ele>2135.600098</ele>
        <time>2013-03-31T09:50:19Z</time>
      </trkpt>
      <trkpt lat="45.24594" lon="6.02672">
        <ele>2137.399902</ele>
        <time>2013-03-31T09:50:24Z</time>
      </trkpt>
      <trkpt lat="45.246" lon="6.02676">
        <ele>2138.199951</ele>
        <time>2013-03-31T09:50:32Z</time>
      </trkpt>
      <trkpt lat="45.2462" lon="6.02676">
        <ele>2134.800049</ele>
        <time>2013-03-31T09:50:56Z</time>
      </trkpt>
      <trkpt lat="45.24633" lon="6.02681">
        <ele>2134</ele>
        <time>2013-03-31T09:51:15Z</time>
      </trkpt>
      <trkpt lat="45.24639" lon="6.02689">
        <ele>2134.800049</ele>
        <time>2013-03-31T09:51:37Z</time>
      </trkpt>
      <trkpt lat="45.2464" lon="6.02696">
        <ele>2135.800049</ele>
        <time>2013-03-31T09:51:42Z</time>
      </trkpt>
      <trkpt lat="45.24644" lon="6.02707">
        <ele>2137.199951</ele>
        <time>2013-03-31T09:51:54Z</time>
      </trkpt>
      <trkpt lat="45.24645" lon="6.02714">
        <ele>2138.399902</ele>
        <time>2013-03-31T09:51:59Z</time>
      </trkpt>
      <trkpt lat="45.24645" lon="6.02723">
        <ele>2140.399902</ele>
        <time>2013-03-31T09:52:07Z</time>
      </trkpt>
      <trkpt lat="45.24648" lon="6.02761">
        <ele>2148.399902</ele>
        <time>2013-03-31T09:52:28Z</time>
      </trkpt>
      <trkpt lat="45.24658" lon="6.02789">
        <ele>2155</ele>
        <time>2013-03-31T09:52:42Z</time>
      </trkpt>
      <trkpt lat="45.2466" lon="6.02791">
        <ele>2155</ele>
        <time>2013-03-31T09:52:46Z</time>
      </trkpt>
      <trkpt lat="45.24663" lon="6.02789">
        <ele>2152.800049</ele>
        <time>2013-03-31T09:52:55Z</time>
      </trkpt>
      <trkpt lat="45.24668" lon="6.02788">
        <ele>2149.800049</ele>
        <time>2013-03-31T09:52:58Z</time>
      </trkpt>
      <trkpt lat="45.24665" lon="6.02788">
        <ele>2151.399902</ele>
        <time>2013-03-31T09:53:01Z</time>
      </trkpt>
      <trkpt lat="45.24665" lon="6.02788">
        <ele>2151.199951</ele>
        <time>2013-03-31T09:53:04Z</time>
      </trkpt>
      <trkpt lat="45.24662" lon="6.02788">
        <ele>2153</ele>
        <time>2013-03-31T09:53:14Z</time>
      </trkpt>
      <trkpt lat="45.24663" lon="6.02788">
        <ele>2152.399902</ele>
        <time>2013-03-31T09:53:19Z</time>
      </trkpt>
      <trkpt lat="45.2466" lon="6.02788">
        <ele>2153.600098</ele>
        <time>2013-03-31T09:53:24Z</time>
      </trkpt>
      <trkpt lat="45.2466" lon="6.02787">
        <ele>2153.199951</ele>
        <time>2013-03-31T09:53:26Z</time>
      </trkpt>
      <trkpt lat="45.24661" lon="6.02788">
        <ele>2153.600098</ele>
        <time>2013-03-31T09:53:27Z</time>
      </trkpt>
      <trkpt lat="45.2466" lon="6.02787">
        <ele>2153.199951</ele>
        <time>2013-03-31T09:53:39Z</time>
      </trkpt>
      <trkpt lat="45.24661" lon="6.02787">
        <ele>2152.800049</ele>
        <time>2013-03-31T09:53:45Z</time>
      </trkpt>
      <trkpt lat="45.24661" lon="6.02788">
        <ele>2153.600098</ele>
        <time>2013-03-31T09:53:49Z</time>
      </trkpt>
      <trkpt lat="45.24662" lon="6.02789">
        <ele>2153.399902</ele>
        <time>2013-03-31T09:53:52Z</time>
      </trkpt>
      <trkpt lat="45.24661" lon="6.02791">
        <ele>2154.600098</ele>
        <time>2013-03-31T09:53:56Z</time>
      </trkpt>
      <trkpt lat="45.24665" lon="6.02789">
        <ele>2151.600098</ele>
        <time>2013-03-31T09:54:05Z</time>
      </trkpt>
      <trkpt lat="45.24666" lon="6.0279">
        <ele>2151.800049</ele>
        <time>2013-03-31T09:54:07Z</time>
      </trkpt>
      <trkpt lat="45.24664" lon="6.0279">
        <ele>2152.399902</ele>
        <time>2013-03-31T09:54:14Z</time>
      </trkpt>
      <trkpt lat="45.24665" lon="6.0279">
        <ele>2152.199951</ele>
        <time>2013-03-31T09:54:18Z</time>
      </trkpt>
      <trkpt lat="45.24664" lon="6.02791">
        <ele>2153.199951</ele>
        <time>2013-03-31T09:54:21Z</time>
      </trkpt>
      <trkpt lat="45.24666" lon="6.02791">
        <ele>2152.199951</ele>
        <time>2013-03-31T09:54:24Z</time>
      </trkpt>
      <trkpt lat="45.2467" lon="6.02803">
        <ele>2154.199951</ele>
        <time>2013-03-31T09:54:29Z</time>
      </trkpt>
      <trkpt lat="45.24674" lon="6.0281">
        <ele>2154.199951</ele>
        <time>2013-03-31T09:54:31Z</time>
      </trkpt>
      <trkpt lat="45.24682" lon="6.02827">
        <ele>2156</ele>
        <time>2013-03-31T09:54:37Z</time>
      </trkpt>
      <trkpt lat="45.24695" lon="6.02847">
        <ele>2158</ele>
        <time>2013-03-31T09:54:42Z</time>
      </trkpt>
      <trkpt lat="45.24702" lon="6.02855">
        <ele>2158.199951</ele>
        <time>2013-03-31T09:54:44Z</time>
      </trkpt>
      <trkpt lat="45.24715" lon="6.02865">
        <ele>2155.399902</ele>
        <time>2013-03-31T09:54:49Z</time>
      </trkpt>
      <trkpt lat="45.24726" lon="6.02872">
        <ele>2151.800049</ele>
        <time>2013-03-31T09:54:53Z</time>
      </trkpt>
      <trkpt lat="45.24756" lon="6.02887">
        <ele>2141.800049</ele>
        <time>2013-03-31T09:55:01Z</time>
      </trkpt>
      <trkpt lat="45.24761" lon="6.02893">
        <ele>2143.600098</ele>
        <time>2013-03-31T09:55:03Z</time>
      </trkpt>
      <trkpt lat="45.24763" lon="6.02891">
        <ele>2142.199951</ele>
        <time>2013-03-31T09:55:04Z</time>
      </trkpt>
      <trkpt lat="45.24765" lon="6.02886">
        <ele>2139.199951</ele>
        <time>2013-03-31T09:55:05Z</time>
      </trkpt>
      <trkpt lat="45.24768" lon="6.02884">
        <ele>2137.399902</ele>
        <time>2013-03-31T09:55:06Z</time>
      </trkpt>
      <trkpt lat="45.24782" lon="6.0289">
        <ele>2137.399902</ele>
        <time>2013-03-31T09:55:13Z</time>
      </trkpt>
      <trkpt lat="45.24785" lon="6.02893">
        <ele>2137.800049</ele>
        <time>2013-03-31T09:55:15Z</time>
      </trkpt>
      <trkpt lat="45.24791" lon="6.02895">
        <ele>2137.399902</ele>
        <time>2013-03-31T09:55:17Z</time>
      </trkpt>
      <trkpt lat="45.24794" lon="6.02898">
        <ele>2138</ele>
        <time>2013-03-31T09:55:18Z</time>
      </trkpt>
      <trkpt lat="45.24797" lon="6.02904">
        <ele>2139.800049</ele>
        <time>2013-03-31T09:55:20Z</time>
      </trkpt>
      <trkpt lat="45.24799" lon="6.02906">
        <ele>2140.199951</ele>
        <time>2013-03-31T09:55:21Z</time>
      </trkpt>
      <trkpt lat="45.24802" lon="6.02905">
        <ele>2139</ele>
        <time>2013-03-31T09:55:22Z</time>
      </trkpt>
      <trkpt lat="45.24804" lon="6.02901">
        <ele>2136.800049</ele>
        <time>2013-03-31T09:55:23Z</time>
      </trkpt>
      <trkpt lat="45.24808" lon="6.02899">
        <ele>2135</ele>
        <time>2013-03-31T09:55:24Z</time>
      </trkpt>
      <trkpt lat="45.24816" lon="6.029">
        <ele>2133.600098</ele>
        <time>2013-03-31T09:55:26Z</time>
      </trkpt>
      <trkpt lat="45.24819" lon="6.02899">
        <ele>2132.399902</ele>
        <time>2013-03-31T09:55:27Z</time>
      </trkpt>
      <trkpt lat="45.2482" lon="6.02895">
        <ele>2130.600098</ele>
        <time>2013-03-31T09:55:28Z</time>
      </trkpt>
      <trkpt lat="45.24821" lon="6.02889">
        <ele>2128</ele>
        <time>2013-03-31T09:55:29Z</time>
      </trkpt>
      <trkpt lat="45.2483" lon="6.02876">
        <ele>2121.399902</ele>
        <time>2013-03-31T09:55:36Z</time>
      </trkpt>
      <trkpt lat="45.24826" lon="6.02871">
        <ele>2120.600098</ele>
        <time>2013-03-31T09:55:40Z</time>
      </trkpt>
      <trkpt lat="45.24819" lon="6.02868">
        <ele>2120.600098</ele>
        <time>2013-03-31T09:55:42Z</time>
      </trkpt>
      <trkpt lat="45.2481" lon="6.02862">
        <ele>2119.600098</ele>
        <time>2013-03-31T09:55:46Z</time>
      </trkpt>
      <trkpt lat="45.24808" lon="6.02855">
        <ele>2117</ele>
        <time>2013-03-31T09:55:48Z</time>
      </trkpt>
      <trkpt lat="45.24809" lon="6.02849">
        <ele>2114.600098</ele>
        <time>2013-03-31T09:55:49Z</time>
      </trkpt>
      <trkpt lat="45.24812" lon="6.02844">
        <ele>2112.199951</ele>
        <time>2013-03-31T09:55:50Z</time>
      </trkpt>
      <trkpt lat="45.24817" lon="6.02841">
        <ele>2110.600098</ele>
        <time>2013-03-31T09:55:51Z</time>
      </trkpt>
      <trkpt lat="45.24827" lon="6.02841">
        <ele>2109.399902</ele>
        <time>2013-03-31T09:55:55Z</time>
      </trkpt>
      <trkpt lat="45.24825" lon="6.02838">
        <ele>2108.600098</ele>
        <time>2013-03-31T09:55:57Z</time>
      </trkpt>
      <trkpt lat="45.24812" lon="6.02827">
        <ele>2106.199951</ele>
        <time>2013-03-31T09:56:01Z</time>
      </trkpt>
      <trkpt lat="45.24809" lon="6.02823">
        <ele>2105.199951</ele>
        <time>2013-03-31T09:56:02Z</time>
      </trkpt>
      <trkpt lat="45.24808" lon="6.02816">
        <ele>2103.600098</ele>
        <time>2013-03-31T09:56:03Z</time>
      </trkpt>
      <trkpt lat="45.24809" lon="6.02812">
        <ele>2102.199951</ele>
        <time>2013-03-31T09:56:04Z</time>
      </trkpt>
      <trkpt lat="45.24817" lon="6.02805">
        <ele>2099.600098</ele>
        <time>2013-03-31T09:56:06Z</time>
      </trkpt>
      <trkpt lat="45.24819" lon="6.02801">
        <ele>2098</ele>
        <time>2013-03-31T09:56:07Z</time>
      </trkpt>
      <trkpt lat="45.24818" lon="6.02795">
        <ele>2096.399902</ele>
        <time>2013-03-31T09:56:08Z</time>
      </trkpt>
      <trkpt lat="45.24814" lon="6.0279">
        <ele>2095.399902</ele>
        <time>2013-03-31T09:56:09Z</time>
      </trkpt>
      <trkpt lat="45.24814" lon="6.02777">
        <ele>2092</ele>
        <time>2013-03-31T09:56:12Z</time>
      </trkpt>
      <trkpt lat="45.24812" lon="6.02773">
        <ele>2091</ele>
        <time>2013-03-31T09:56:13Z</time>
      </trkpt>
      <trkpt lat="45.24808" lon="6.0277">
        <ele>2090.600098</ele>
        <time>2013-03-31T09:56:14Z</time>
      </trkpt>
      <trkpt lat="45.24797" lon="6.02766">
        <ele>2090.600098</ele>
        <time>2013-03-31T09:56:16Z</time>
      </trkpt>
      <trkpt lat="45.24794" lon="6.02761">
        <ele>2089.800049</ele>
        <time>2013-03-31T09:56:17Z</time>
      </trkpt>
      <trkpt lat="45.24789" lon="6.02751">
        <ele>2087.399902</ele>
        <time>2013-03-31T09:56:19Z</time>
      </trkpt>
      <trkpt lat="45.24781" lon="6.02744">
        <ele>2086.600098</ele>
        <time>2013-03-31T09:56:21Z</time>
      </trkpt>
      <trkpt lat="45.24777" lon="6.0274">
        <ele>2086</ele>
        <time>2013-03-31T09:56:22Z</time>
      </trkpt>
      <trkpt lat="45.24776" lon="6.02733">
        <ele>2084.399902</ele>
        <time>2013-03-31T09:56:24Z</time>
      </trkpt>
      <trkpt lat="45.24773" lon="6.02725">
        <ele>2082.800049</ele>
        <time>2013-03-31T09:56:26Z</time>
      </trkpt>
      <trkpt lat="45.24772" lon="6.02719">
        <ele>2081.399902</ele>
        <time>2013-03-31T09:56:27Z</time>
      </trkpt>
      <trkpt lat="45.24774" lon="6.02713">
        <ele>2079.800049</ele>
        <time>2013-03-31T09:56:28Z</time>
      </trkpt>
      <trkpt lat="45.24777" lon="6.02712">
        <ele>2079.199951</ele>
        <time>2013-03-31T09:56:31Z</time>
      </trkpt>
      <trkpt lat="45.24779" lon="6.02706">
        <ele>2077.199951</ele>
        <time>2013-03-31T09:56:34Z</time>
      </trkpt>
      <trkpt lat="45.24778" lon="6.02701">
        <ele>2076.199951</ele>
        <time>2013-03-31T09:56:35Z</time>
      </trkpt>
      <trkpt lat="45.24776" lon="6.02697">
        <ele>2075.399902</ele>
        <time>2013-03-31T09:56:36Z</time>
      </trkpt>
      <trkpt lat="45.2477" lon="6.02691">
        <ele>2074.800049</ele>
        <time>2013-03-31T09:56:38Z</time>
      </trkpt>
      <trkpt lat="45.2476" lon="6.02686">
        <ele>2075.199951</ele>
        <time>2013-03-31T09:56:41Z</time>
      </trkpt>
      <trkpt lat="45.24759" lon="6.02666">
        <ele>2070.399902</ele>
        <time>2013-03-31T09:56:45Z</time>
      </trkpt>
      <trkpt lat="45.2476" lon="6.02659">
        <ele>2068.600098</ele>
        <time>2013-03-31T09:56:46Z</time>
      </trkpt>
      <trkpt lat="45.24766" lon="6.02643">
        <ele>2063.199951</ele>
        <time>2013-03-31T09:56:49Z</time>
      </trkpt>
      <trkpt lat="45.24766" lon="6.02637">
        <ele>2061.800049</ele>
        <time>2013-03-31T09:56:50Z</time>
      </trkpt>
      <trkpt lat="45.24763" lon="6.02631">
        <ele>2060.800049</ele>
        <time>2013-03-31T09:56:51Z</time>
      </trkpt>
      <trkpt lat="45.24761" lon="6.02623">
        <ele>2059.399902</ele>
        <time>2013-03-31T09:56:52Z</time>
      </trkpt>
      <trkpt lat="45.24762" lon="6.02602">
        <ele>2054</ele>
        <time>2013-03-31T09:56:55Z</time>
      </trkpt>
      <trkpt lat="45.24764" lon="6.02596">
        <ele>2051.800049</ele>
        <time>2013-03-31T09:56:56Z</time>
      </trkpt>
      <trkpt lat="45.2477" lon="6.02588">
        <ele>2048</ele>
        <time>2013-03-31T09:56:58Z</time>
      </trkpt>
      <trkpt lat="45.2477" lon="6.02585">
        <ele>2047</ele>
        <time>2013-03-31T09:56:59Z</time>
      </trkpt>
      <trkpt lat="45.24767" lon="6.0258">
        <ele>2046.800049</ele>
        <time>2013-03-31T09:57:00Z</time>
      </trkpt>
      <trkpt lat="45.24766" lon="6.02575">
        <ele>2045.400024</ele>
        <time>2013-03-31T09:57:01Z</time>
      </trkpt>
      <trkpt lat="45.24767" lon="6.02569">
        <ele>2043.400024</ele>
        <time>2013-03-31T09:57:02Z</time>
      </trkpt>
      <trkpt lat="45.24771" lon="6.02566">
        <ele>2041.199951</ele>
        <time>2013-03-31T09:57:03Z</time>
      </trkpt>
      <trkpt lat="45.24773" lon="6.02561">
        <ele>2038.800049</ele>
        <time>2013-03-31T09:57:04Z</time>
      </trkpt>
      <trkpt lat="45.24773" lon="6.02555">
        <ele>2037</ele>
        <time>2013-03-31T09:57:05Z</time>
      </trkpt>
      <trkpt lat="45.24766" lon="6.02544">
        <ele>2036.400024</ele>
        <time>2013-03-31T09:57:07Z</time>
      </trkpt>
      <trkpt lat="45.24765" lon="6.02539">
        <ele>2035</ele>
        <time>2013-03-31T09:57:08Z</time>
      </trkpt>
      <trkpt lat="45.24766" lon="6.02534">
        <ele>2033</ele>
        <time>2013-03-31T09:57:09Z</time>
      </trkpt>
      <trkpt lat="45.24771" lon="6.02532">
        <ele>2030.800049</ele>
        <time>2013-03-31T09:57:10Z</time>
      </trkpt>
      <trkpt lat="45.24773" lon="6.02529">
        <ele>2029.199951</ele>
        <time>2013-03-31T09:57:11Z</time>
      </trkpt>
      <trkpt lat="45.2477" lon="6.02519">
        <ele>2027.199951</ele>
        <time>2013-03-31T09:57:13Z</time>
      </trkpt>
      <trkpt lat="45.24771" lon="6.02513">
        <ele>2025.199951</ele>
        <time>2013-03-31T09:57:14Z</time>
      </trkpt>
      <trkpt lat="45.24776" lon="6.02513">
        <ele>2023.199951</ele>
        <time>2013-03-31T09:57:16Z</time>
      </trkpt>
      <trkpt lat="45.24776" lon="6.02514">
        <ele>2023.599976</ele>
        <time>2013-03-31T09:57:18Z</time>
      </trkpt>
      <trkpt lat="45.24776" lon="6.02513">
        <ele>2023</ele>
        <time>2013-03-31T09:57:19Z</time>
      </trkpt>
      <trkpt lat="45.24777" lon="6.02508">
        <ele>2021.599976</ele>
        <time>2013-03-31T09:57:20Z</time>
      </trkpt>
      <trkpt lat="45.24776" lon="6.02503">
        <ele>2020.400024</ele>
        <time>2013-03-31T09:57:21Z</time>
      </trkpt>
      <trkpt lat="45.24769" lon="6.02492">
        <ele>2020.199951</ele>
        <time>2013-03-31T09:57:23Z</time>
      </trkpt>
      <trkpt lat="45.24767" lon="6.02486">
        <ele>2019.599976</ele>
        <time>2013-03-31T09:57:24Z</time>
      </trkpt>
      <trkpt lat="45.24767" lon="6.02479">
        <ele>2018.400024</ele>
        <time>2013-03-31T09:57:25Z</time>
      </trkpt>
      <trkpt lat="45.2477" lon="6.02475">
        <ele>2016.599976</ele>
        <time>2013-03-31T09:57:26Z</time>
      </trkpt>
      <trkpt lat="45.24775" lon="6.02473">
        <ele>2014.400024</ele>
        <time>2013-03-31T09:57:27Z</time>
      </trkpt>
      <trkpt lat="45.24791" lon="6.02478">
        <ele>2009</ele>
        <time>2013-03-31T09:57:30Z</time>
      </trkpt>
      <trkpt lat="45.24802" lon="6.02483">
        <ele>2006</ele>
        <time>2013-03-31T09:57:32Z</time>
      </trkpt>
      <trkpt lat="45.24807" lon="6.02482">
        <ele>2003.800049</ele>
        <time>2013-03-31T09:57:33Z</time>
      </trkpt>
      <trkpt lat="45.24816" lon="6.02485">
        <ele>2001</ele>
        <time>2013-03-31T09:57:36Z</time>
      </trkpt>
      <trkpt lat="45.24814" lon="6.02485">
        <ele>2001.599976</ele>
        <time>2013-03-31T09:57:38Z</time>
      </trkpt>
      <trkpt lat="45.24815" lon="6.02481">
        <ele>2000.400024</ele>
        <time>2013-03-31T09:57:40Z</time>
      </trkpt>
      <trkpt lat="45.2482" lon="6.0248">
        <ele>1998.400024</ele>
        <time>2013-03-31T09:57:41Z</time>
      </trkpt>
      <trkpt lat="45.24825" lon="6.02482">
        <ele>1996.800049</ele>
        <time>2013-03-31T09:57:44Z</time>
      </trkpt>
      <trkpt lat="45.24826" lon="6.0248">
        <ele>1995.800049</ele>
        <time>2013-03-31T09:57:45Z</time>
      </trkpt>
      <trkpt lat="45.24826" lon="6.02474">
        <ele>1994.400024</ele>
        <time>2013-03-31T09:57:46Z</time>
      </trkpt>
      <trkpt lat="45.24828" lon="6.02468">
        <ele>1992.400024</ele>
        <time>2013-03-31T09:57:47Z</time>
      </trkpt>
      <trkpt lat="45.24831" lon="6.02463">
        <ele>1990.199951</ele>
        <time>2013-03-31T09:57:48Z</time>
      </trkpt>
      <trkpt lat="45.24834" lon="6.02461">
        <ele>1988.400024</ele>
        <time>2013-03-31T09:57:49Z</time>
      </trkpt>
      <trkpt lat="45.24839" lon="6.02461">
        <ele>1986</ele>
        <time>2013-03-31T09:57:50Z</time>
      </trkpt>
      <trkpt lat="45.24848" lon="6.02465">
        <ele>1982.599976</ele>
        <time>2013-03-31T09:57:52Z</time>
      </trkpt>
      <trkpt lat="45.24856" lon="6.02478">
        <ele>1982.400024</ele>
        <time>2013-03-31T09:57:55Z</time>
      </trkpt>
      <trkpt lat="45.24863" lon="6.02477">
        <ele>1978.800049</ele>
        <time>2013-03-31T09:57:57Z</time>
      </trkpt>
      <trkpt lat="45.24866" lon="6.0248">
        <ele>1978</ele>
        <time>2013-03-31T09:57:58Z</time>
      </trkpt>
      <trkpt lat="45.24875" lon="6.02478">
        <ele>1973</ele>
        <time>2013-03-31T09:58:00Z</time>
      </trkpt>
      <trkpt lat="45.24881" lon="6.02481">
        <ele>1971.199951</ele>
        <time>2013-03-31T09:58:01Z</time>
      </trkpt>
      <trkpt lat="45.24888" lon="6.02489">
        <ele>1970.199951</ele>
        <time>2013-03-31T09:58:03Z</time>
      </trkpt>
      <trkpt lat="45.24895" lon="6.02484">
        <ele>1966</ele>
        <time>2013-03-31T09:58:05Z</time>
      </trkpt>
      <trkpt lat="45.24903" lon="6.02483">
        <ele>1961.599976</ele>
        <time>2013-03-31T09:58:07Z</time>
      </trkpt>
      <trkpt lat="45.24908" lon="6.02484">
        <ele>1959.800049</ele>
        <time>2013-03-31T09:58:08Z</time>
      </trkpt>
      <trkpt lat="45.24912" lon="6.02483">
        <ele>1957.599976</ele>
        <time>2013-03-31T09:58:09Z</time>
      </trkpt>
      <trkpt lat="45.24916" lon="6.02485">
        <ele>1956</ele>
        <time>2013-03-31T09:58:10Z</time>
      </trkpt>
      <trkpt lat="45.24929" lon="6.02479">
        <ele>1950.400024</ele>
        <time>2013-03-31T09:58:13Z</time>
      </trkpt>
      <trkpt lat="45.24932" lon="6.02475">
        <ele>1948.199951</ele>
        <time>2013-03-31T09:58:14Z</time>
      </trkpt>
      <trkpt lat="45.24934" lon="6.02469">
        <ele>1946.199951</ele>
        <time>2013-03-31T09:58:15Z</time>
      </trkpt>
      <trkpt lat="45.24939" lon="6.02464">
        <ele>1943.599976</ele>
        <time>2013-03-31T09:58:16Z</time>
      </trkpt>
      <trkpt lat="45.24944" lon="6.0246">
        <ele>1940.800049</ele>
        <time>2013-03-31T09:58:17Z</time>
      </trkpt>
      <trkpt lat="45.24949" lon="6.02459">
        <ele>1938.800049</ele>
        <time>2013-03-31T09:58:18Z</time>
      </trkpt>
      <trkpt lat="45.24954" lon="6.0246">
        <ele>1937.800049</ele>
        <time>2013-03-31T09:58:19Z</time>
      </trkpt>
      <trkpt lat="45.24957" lon="6.02457">
        <ele>1935.800049</ele>
        <time>2013-03-31T09:58:20Z</time>
      </trkpt>
      <trkpt lat="45.24959" lon="6.02451">
        <ele>1934</ele>
        <time>2013-03-31T09:58:21Z</time>
      </trkpt>
      <trkpt lat="45.24963" lon="6.02445">
        <ele>1931</ele>
        <time>2013-03-31T09:58:22Z</time>
      </trkpt>
      <trkpt lat="45.24969" lon="6.02442">
        <ele>1928.400024</ele>
        <time>2013-03-31T09:58:23Z</time>
      </trkpt>
      <trkpt lat="45.24974" lon="6.02437">
        <ele>1925.800049</ele>
        <time>2013-03-31T09:58:24Z</time>
      </trkpt>
      <trkpt lat="45.24978" lon="6.02432">
        <ele>1923.199951</ele>
        <time>2013-03-31T09:58:25Z</time>
      </trkpt>
      <trkpt lat="45.24983" lon="6.02428">
        <ele>1920.800049</ele>
        <time>2013-03-31T09:58:26Z</time>
      </trkpt>
      <trkpt lat="45.25" lon="6.0242">
        <ele>1913.599976</ele>
        <time>2013-03-31T09:58:29Z</time>
      </trkpt>
      <trkpt lat="45.25011" lon="6.0242">
        <ele>1912.800049</ele>
        <time>2013-03-31T09:58:31Z</time>
      </trkpt>
      <trkpt lat="45.25017" lon="6.02417">
        <ele>1911.800049</ele>
        <time>2013-03-31T09:58:32Z</time>
      </trkpt>
      <trkpt lat="45.25022" lon="6.02412">
        <ele>1910.800049</ele>
        <time>2013-03-31T09:58:33Z</time>
      </trkpt>
      <trkpt lat="45.25026" lon="6.02405">
        <ele>1909.599976</ele>
        <time>2013-03-31T09:58:34Z</time>
      </trkpt>
      <trkpt lat="45.25028" lon="6.02387">
        <ele>1907</ele>
        <time>2013-03-31T09:58:36Z</time>
      </trkpt>
      <trkpt lat="45.25031" lon="6.02379">
        <ele>1905.599976</ele>
        <time>2013-03-31T09:58:37Z</time>
      </trkpt>
      <trkpt lat="45.25035" lon="6.02371">
        <ele>1904.400024</ele>
        <time>2013-03-31T09:58:38Z</time>
      </trkpt>
      <trkpt lat="45.25041" lon="6.0237">
        <ele>1903.800049</ele>
        <time>2013-03-31T09:58:39Z</time>
      </trkpt>
      <trkpt lat="45.25046" lon="6.02371">
        <ele>1903.599976</ele>
        <time>2013-03-31T09:58:40Z</time>
      </trkpt>
      <trkpt lat="45.25049" lon="6.02374">
        <ele>1903.800049</ele>
        <time>2013-03-31T09:58:41Z</time>
      </trkpt>
      <trkpt lat="45.25049" lon="6.02379">
        <ele>1904.400024</ele>
        <time>2013-03-31T09:58:43Z</time>
      </trkpt>
      <trkpt lat="45.25045" lon="6.0238">
        <ele>1904.800049</ele>
        <time>2013-03-31T09:58:46Z</time>
      </trkpt>
      <trkpt lat="45.25044" lon="6.02382">
        <ele>1905.199951</ele>
        <time>2013-03-31T09:58:51Z</time>
      </trkpt>
      <trkpt lat="45.25044" lon="6.02381">
        <ele>1905</ele>
        <time>2013-03-31T09:58:52Z</time>
      </trkpt>
      <trkpt lat="45.25044" lon="6.02382">
        <ele>1905.199951</ele>
        <time>2013-03-31T09:58:53Z</time>
      </trkpt>
      <trkpt lat="45.25044" lon="6.02382">
        <ele>1905</ele>
        <time>2013-03-31T09:58:54Z</time>
      </trkpt>
      <trkpt lat="45.25043" lon="6.02382">
        <ele>1905.199951</ele>
        <time>2013-03-31T09:58:57Z</time>
      </trkpt>
      <trkpt lat="45.25043" lon="6.02381">
        <ele>1905</ele>
        <time>2013-03-31T09:59:01Z</time>
      </trkpt>
      <trkpt lat="45.25041" lon="6.02382">
        <ele>1905.400024</ele>
        <time>2013-03-31T09:59:15Z</time>
      </trkpt>
      <trkpt lat="45.25042" lon="6.02381">
        <ele>1905.199951</ele>
        <time>2013-03-31T09:59:31Z</time>
      </trkpt>
      <trkpt lat="45.25041" lon="6.02382">
        <ele>1905.400024</ele>
        <time>2013-03-31T09:59:42Z</time>
      </trkpt>
      <trkpt lat="45.25042" lon="6.02384">
        <ele>1905.400024</ele>
        <time>2013-03-31T10:00:01Z</time>
      </trkpt>
      <trkpt lat="45.25042" lon="6.02385">
        <ele>1905.599976</ele>
        <time>2013-03-31T10:00:07Z</time>
      </trkpt>
      <trkpt lat="45.25042" lon="6.02384">
        <ele>1905.400024</ele>
        <time>2013-03-31T10:00:11Z</time>
      </trkpt>
      <trkpt lat="45.25042" lon="6.02384">
        <ele>1905.599976</ele>
        <time>2013-03-31T10:00:15Z</time>
      </trkpt>
      <trkpt lat="45.25043" lon="6.02384">
        <ele>1905.400024</ele>
        <time>2013-03-31T10:00:21Z</time>
      </trkpt>
      <trkpt lat="45.25043" lon="6.02383">
        <ele>1905.400024</ele>
        <time>2013-03-31T10:00:25Z</time>
      </trkpt>
      <trkpt lat="45.25044" lon="6.02383">
        <ele>1905.199951</ele>
        <time>2013-03-31T10:00:29Z</time>
      </trkpt>
      <trkpt lat="45.2504" lon="6.02387">
        <ele>1906</ele>
        <time>2013-03-31T10:00:33Z</time>
      </trkpt>
      <trkpt lat="45.25039" lon="6.02392">
        <ele>1906.800049</ele>
        <time>2013-03-31T10:00:36Z</time>
      </trkpt>
      <trkpt lat="45.25036" lon="6.02406">
        <ele>1909</ele>
        <time>2013-03-31T10:00:43Z</time>
      </trkpt>
      <trkpt lat="45.25037" lon="6.02414">
        <ele>1910</ele>
        <time>2013-03-31T10:00:47Z</time>
      </trkpt>
      <trkpt lat="45.25038" lon="6.02416">
        <ele>1910.199951</ele>
        <time>2013-03-31T10:00:50Z</time>
      </trkpt>
      <trkpt lat="45.25037" lon="6.02428">
        <ele>1912.599976</ele>
        <time>2013-03-31T10:00:55Z</time>
      </trkpt>
      <trkpt lat="45.25039" lon="6.02441">
        <ele>1915.199951</ele>
        <time>2013-03-31T10:01:02Z</time>
      </trkpt>
      <trkpt lat="45.25039" lon="6.02444">
        <ele>1916</ele>
        <time>2013-03-31T10:01:05Z</time>
      </trkpt>
      <trkpt lat="45.2504" lon="6.02454">
        <ele>1918</ele>
        <time>2013-03-31T10:01:13Z</time>
      </trkpt>
      <trkpt lat="45.25047" lon="6.02472">
        <ele>1921</ele>
        <time>2013-03-31T10:01:30Z</time>
      </trkpt>
      <trkpt lat="45.25053" lon="6.02481">
        <ele>1922.199951</ele>
        <time>2013-03-31T10:01:37Z</time>
      </trkpt>
      <trkpt lat="45.25069" lon="6.02494">
        <ele>1922.599976</ele>
        <time>2013-03-31T10:01:50Z</time>
      </trkpt>
      <trkpt lat="45.25092" lon="6.02502">
        <ele>1921.400024</ele>
        <time>2013-03-31T10:02:05Z</time>
      </trkpt>
      <trkpt lat="45.25125" lon="6.02509">
        <ele>1918.400024</ele>
        <time>2013-03-31T10:02:24Z</time>
      </trkpt>
      <trkpt lat="45.25137" lon="6.02517">
        <ele>1918.599976</ele>
        <time>2013-03-31T10:02:32Z</time>
      </trkpt>
      <trkpt lat="45.25144" lon="6.0253">
        <ele>1920.199951</ele>
        <time>2013-03-31T10:02:39Z</time>
      </trkpt>
      <trkpt lat="45.25147" lon="6.0254">
        <ele>1921.800049</ele>
        <time>2013-03-31T10:02:44Z</time>
      </trkpt>
      <trkpt lat="45.25157" lon="6.02561">
        <ele>1923.800049</ele>
        <time>2013-03-31T10:02:55Z</time>
      </trkpt>
      <trkpt lat="45.25161" lon="6.02573">
        <ele>1925.199951</ele>
        <time>2013-03-31T10:03:01Z</time>
      </trkpt>
      <trkpt lat="45.25165" lon="6.02578">
        <ele>1925.199951</ele>
        <time>2013-03-31T10:03:04Z</time>
      </trkpt>
      <trkpt lat="45.25176" lon="6.02598">
        <ele>1927.599976</ele>
        <time>2013-03-31T10:03:16Z</time>
      </trkpt>
      <trkpt lat="45.25189" lon="6.02629">
        <ele>1931.599976</ele>
        <time>2013-03-31T10:03:33Z</time>
      </trkpt>
      <trkpt lat="45.25204" lon="6.02658">
        <ele>1934.199951</ele>
        <time>2013-03-31T10:03:50Z</time>
      </trkpt>
      <trkpt lat="45.25219" lon="6.02695">
        <ele>1937.800049</ele>
        <time>2013-03-31T10:04:08Z</time>
      </trkpt>
      <trkpt lat="45.25226" lon="6.02707">
        <ele>1938.400024</ele>
        <time>2013-03-31T10:04:15Z</time>
      </trkpt>
      <trkpt lat="45.25237" lon="6.0273">
        <ele>1939.800049</ele>
        <time>2013-03-31T10:04:29Z</time>
      </trkpt>
      <trkpt lat="45.25244" lon="6.02742">
        <ele>1940</ele>
        <time>2013-03-31T10:04:37Z</time>
      </trkpt>
      <trkpt lat="45.25252" lon="6.02751">
        <ele>1940.599976</ele>
        <time>2013-03-31T10:04:45Z</time>
      </trkpt>
      <trkpt lat="45.25261" lon="6.02758">
        <ele>1943.599976</ele>
        <time>2013-03-31T10:04:53Z</time>
      </trkpt>
      <trkpt lat="45.25263" lon="6.02759">
        <ele>1944.199951</ele>
        <time>2013-03-31T10:04:55Z</time>
      </trkpt>
      <trkpt lat="45.25271" lon="6.02766">
        <ele>1947.199951</ele>
        <time>2013-03-31T10:05:02Z</time>
      </trkpt>
      <trkpt lat="45.25283" lon="6.02771">
        <ele>1950</ele>
        <time>2013-03-31T10:05:16Z</time>
      </trkpt>
      <trkpt lat="45.25283" lon="6.0277">
        <ele>1949.800049</ele>
        <time>2013-03-31T10:05:35Z</time>
      </trkpt>
      <trkpt lat="45.25292" lon="6.02777">
        <ele>1952.599976</ele>
        <time>2013-03-31T10:05:44Z</time>
      </trkpt>
      <trkpt lat="45.25307" lon="6.02781">
        <ele>1954.800049</ele>
        <time>2013-03-31T10:05:56Z</time>
      </trkpt>
      <trkpt lat="45.25315" lon="6.02786">
        <ele>1957</ele>
        <time>2013-03-31T10:06:05Z</time>
      </trkpt>
      <trkpt lat="45.25331" lon="6.02792">
        <ele>1960</ele>
        <time>2013-03-31T10:06:21Z</time>
      </trkpt>
      <trkpt lat="45.25332" lon="6.02795">
        <ele>1960.800049</ele>
        <time>2013-03-31T10:06:23Z</time>
      </trkpt>
      <trkpt lat="45.25332" lon="6.02808">
        <ele>1964</ele>
        <time>2013-03-31T10:06:31Z</time>
      </trkpt>
      <trkpt lat="45.25331" lon="6.02811">
        <ele>1965</ele>
        <time>2013-03-31T10:06:34Z</time>
      </trkpt>
      <trkpt lat="45.2533" lon="6.02817">
        <ele>1966.199951</ele>
        <time>2013-03-31T10:06:38Z</time>
      </trkpt>
      <trkpt lat="45.25327" lon="6.02823">
        <ele>1968</ele>
        <time>2013-03-31T10:06:43Z</time>
      </trkpt>
      <trkpt lat="45.25333" lon="6.02825">
        <ele>1968.800049</ele>
        <time>2013-03-31T10:06:53Z</time>
      </trkpt>
      <trkpt lat="45.25339" lon="6.02824">
        <ele>1969.400024</ele>
        <time>2013-03-31T10:06:58Z</time>
      </trkpt>
      <trkpt lat="45.25353" lon="6.02826">
        <ele>1972.199951</ele>
        <time>2013-03-31T10:07:12Z</time>
      </trkpt>
      <trkpt lat="45.25368" lon="6.0283">
        <ele>1976</ele>
        <time>2013-03-31T10:07:29Z</time>
      </trkpt>
      <trkpt lat="45.25372" lon="6.0283">
        <ele>1976.599976</ele>
        <time>2013-03-31T10:07:34Z</time>
      </trkpt>
      <trkpt lat="45.25376" lon="6.02827">
        <ele>1976.800049</ele>
        <time>2013-03-31T10:07:38Z</time>
      </trkpt>
      <trkpt lat="45.25379" lon="6.02827">
        <ele>1977.199951</ele>
        <time>2013-03-31T10:07:40Z</time>
      </trkpt>
      <trkpt lat="45.25378" lon="6.02841">
        <ele>1981</ele>
        <time>2013-03-31T10:07:50Z</time>
      </trkpt>
      <trkpt lat="45.25377" lon="6.02845">
        <ele>1982</ele>
        <time>2013-03-31T10:07:53Z</time>
      </trkpt>
      <trkpt lat="45.25374" lon="6.02846">
        <ele>1982</ele>
        <time>2013-03-31T10:07:54Z</time>
      </trkpt>
      <trkpt lat="45.25371" lon="6.0285">
        <ele>1983</ele>
        <time>2013-03-31T10:07:58Z</time>
      </trkpt>
      <trkpt lat="45.25365" lon="6.02854">
        <ele>1983.599976</ele>
        <time>2013-03-31T10:08:05Z</time>
      </trkpt>
      <trkpt lat="45.25362" lon="6.02859">
        <ele>1984.800049</ele>
        <time>2013-03-31T10:08:11Z</time>
      </trkpt>
      <trkpt lat="45.25362" lon="6.02858">
        <ele>1984.599976</ele>
        <time>2013-03-31T10:08:22Z</time>
      </trkpt>
      <trkpt lat="45.2539" lon="6.02879">
        <ele>1994.800049</ele>
        <time>2013-03-31T10:08:59Z</time>
      </trkpt>
      <trkpt lat="45.25404" lon="6.02893">
        <ele>2000.199951</ele>
        <time>2013-03-31T10:09:18Z</time>
      </trkpt>
      <trkpt lat="45.25407" lon="6.02899">
        <ele>2002.400024</ele>
        <time>2013-03-31T10:09:25Z</time>
      </trkpt>
      <trkpt lat="45.25418" lon="6.02913">
        <ele>2007</ele>
        <time>2013-03-31T10:09:39Z</time>
      </trkpt>
      <trkpt lat="45.25421" lon="6.02916">
        <ele>2008.400024</ele>
        <time>2013-03-31T10:09:43Z</time>
      </trkpt>
      <trkpt lat="45.25425" lon="6.02917">
        <ele>2009.599976</ele>
        <time>2013-03-31T10:09:47Z</time>
      </trkpt>
      <trkpt lat="45.25442" lon="6.02927">
        <ele>2015.599976</ele>
        <time>2013-03-31T10:10:04Z</time>
      </trkpt>
      <trkpt lat="45.25448" lon="6.02928">
        <ele>2017</ele>
        <time>2013-03-31T10:10:10Z</time>
      </trkpt>
      <trkpt lat="45.25463" lon="6.02936">
        <ele>2021.800049</ele>
        <time>2013-03-31T10:10:26Z</time>
      </trkpt>
      <trkpt lat="45.25461" lon="6.02936">
        <ele>2021.599976</ele>
        <time>2013-03-31T10:10:36Z</time>
      </trkpt>
      <trkpt lat="45.2548" lon="6.02942">
        <ele>2026.599976</ele>
        <time>2013-03-31T10:10:58Z</time>
      </trkpt>
      <trkpt lat="45.25481" lon="6.02945">
        <ele>2027.599976</ele>
        <time>2013-03-31T10:11:00Z</time>
      </trkpt>
      <trkpt lat="45.25481" lon="6.02947">
        <ele>2028.199951</ele>
        <time>2013-03-31T10:11:01Z</time>
      </trkpt>
      <trkpt lat="45.25479" lon="6.0295">
        <ele>2028.800049</ele>
        <time>2013-03-31T10:11:04Z</time>
      </trkpt>
      <trkpt lat="45.25473" lon="6.02955">
        <ele>2029.599976</ele>
        <time>2013-03-31T10:11:15Z</time>
      </trkpt>
      <trkpt lat="45.25481" lon="6.02957">
        <ele>2031.400024</ele>
        <time>2013-03-31T10:11:23Z</time>
      </trkpt>
      <trkpt lat="45.25492" lon="6.02959">
        <ele>2033.400024</ele>
        <time>2013-03-31T10:11:35Z</time>
      </trkpt>
      <trkpt lat="45.25504" lon="6.02963">
        <ele>2036.800049</ele>
        <time>2013-03-31T10:11:48Z</time>
      </trkpt>
      <trkpt lat="45.25504" lon="6.02964">
        <ele>2037.400024</ele>
        <time>2013-03-31T10:11:49Z</time>
      </trkpt>
      <trkpt lat="45.25504" lon="6.02965">
        <ele>2037.400024</ele>
        <time>2013-03-31T10:11:50Z</time>
      </trkpt>
      <trkpt lat="45.25497" lon="6.02967">
        <ele>2036.599976</ele>
        <time>2013-03-31T10:11:55Z</time>
      </trkpt>
      <trkpt lat="45.25499" lon="6.02966">
        <ele>2036.800049</ele>
        <time>2013-03-31T10:12:00Z</time>
      </trkpt>
      <trkpt lat="45.25499" lon="6.02966">
        <ele>2036.599976</ele>
        <time>2013-03-31T10:12:01Z</time>
      </trkpt>
      <trkpt lat="45.25491" lon="6.02977">
        <ele>2038.800049</ele>
        <time>2013-03-31T10:12:15Z</time>
      </trkpt>
      <trkpt lat="45.25506" lon="6.02981">
        <ele>2043</ele>
        <time>2013-03-31T10:12:37Z</time>
      </trkpt>
      <trkpt lat="45.25514" lon="6.02987">
        <ele>2046.599976</ele>
        <time>2013-03-31T10:12:46Z</time>
      </trkpt>
      <trkpt lat="45.25514" lon="6.02989">
        <ele>2047.199951</ele>
        <time>2013-03-31T10:12:49Z</time>
      </trkpt>
      <trkpt lat="45.25515" lon="6.02988">
        <ele>2047.400024</ele>
        <time>2013-03-31T10:12:55Z</time>
      </trkpt>
      <trkpt lat="45.25513" lon="6.02989">
        <ele>2047</ele>
        <time>2013-03-31T10:12:59Z</time>
      </trkpt>
      <trkpt lat="45.25502" lon="6.03001">
        <ele>2047.800049</ele>
        <time>2013-03-31T10:13:14Z</time>
      </trkpt>
      <trkpt lat="45.25513" lon="6.03017">
        <ele>2056.800049</ele>
        <time>2013-03-31T10:13:31Z</time>
      </trkpt>
      <trkpt lat="45.25525" lon="6.03026">
        <ele>2062.600098</ele>
        <time>2013-03-31T10:13:45Z</time>
      </trkpt>
      <trkpt lat="45.2553" lon="6.03028">
        <ele>2064.199951</ele>
        <time>2013-03-31T10:13:51Z</time>
      </trkpt>
      <trkpt lat="45.2553" lon="6.03029">
        <ele>2064.600098</ele>
        <time>2013-03-31T10:13:54Z</time>
      </trkpt>
      <trkpt lat="45.25516" lon="6.03035">
        <ele>2064.399902</ele>
        <time>2013-03-31T10:14:12Z</time>
      </trkpt>
      <trkpt lat="45.25516" lon="6.03034">
        <ele>2064</ele>
        <time>2013-03-31T10:14:14Z</time>
      </trkpt>
      <trkpt lat="45.25523" lon="6.03042">
        <ele>2068.199951</ele>
        <time>2013-03-31T10:14:36Z</time>
      </trkpt>
      <trkpt lat="45.2554" lon="6.0305">
        <ele>2073.600098</ele>
        <time>2013-03-31T10:14:53Z</time>
      </trkpt>
      <trkpt lat="45.2554" lon="6.03052">
        <ele>2074.399902</ele>
        <time>2013-03-31T10:14:56Z</time>
      </trkpt>
      <trkpt lat="45.25529" lon="6.03058">
        <ele>2075</ele>
        <time>2013-03-31T10:15:14Z</time>
      </trkpt>
      <trkpt lat="45.25527" lon="6.03062">
        <ele>2076</ele>
        <time>2013-03-31T10:15:18Z</time>
      </trkpt>
      <trkpt lat="45.25538" lon="6.03069">
        <ele>2079.800049</ele>
        <time>2013-03-31T10:15:32Z</time>
      </trkpt>
      <trkpt lat="45.25549" lon="6.03076">
        <ele>2083</ele>
        <time>2013-03-31T10:15:45Z</time>
      </trkpt>
      <trkpt lat="45.25554" lon="6.03076">
        <ele>2083.600098</ele>
        <time>2013-03-31T10:15:53Z</time>
      </trkpt>
      <trkpt lat="45.25554" lon="6.03076">
        <ele>2083.399902</ele>
        <time>2013-03-31T10:16:00Z</time>
      </trkpt>
      <trkpt lat="45.25561" lon="6.03079">
        <ele>2085</ele>
        <time>2013-03-31T10:16:10Z</time>
      </trkpt>
      <trkpt lat="45.25568" lon="6.03082">
        <ele>2086.399902</ele>
        <time>2013-03-31T10:16:18Z</time>
      </trkpt>
      <trkpt lat="45.25574" lon="6.03089">
        <ele>2088</ele>
        <time>2013-03-31T10:16:27Z</time>
      </trkpt>
      <trkpt lat="45.25585" lon="6.0309">
        <ele>2088.600098</ele>
        <time>2013-03-31T10:16:38Z</time>
      </trkpt>
      <trkpt lat="45.25594" lon="6.03088">
        <ele>2090.199951</ele>
        <time>2013-03-31T10:16:47Z</time>
      </trkpt>
      <trkpt lat="45.25595" lon="6.03089">
        <ele>2090.199951</ele>
        <time>2013-03-31T10:16:54Z</time>
      </trkpt>
      <trkpt lat="45.25598" lon="6.03088">
        <ele>2090.800049</ele>
        <time>2013-03-31T10:17:03Z</time>
      </trkpt>
      <trkpt lat="45.25601" lon="6.0309">
        <ele>2091.399902</ele>
        <time>2013-03-31T10:17:07Z</time>
      </trkpt>
      <trkpt lat="45.25603" lon="6.03098">
        <ele>2091.600098</ele>
        <time>2013-03-31T10:17:13Z</time>
      </trkpt>
      <trkpt lat="45.25605" lon="6.03111">
        <ele>2091.199951</ele>
        <time>2013-03-31T10:17:19Z</time>
      </trkpt>
      <trkpt lat="45.25606" lon="6.03115">
        <ele>2091.199951</ele>
        <time>2013-03-31T10:17:22Z</time>
      </trkpt>
      <trkpt lat="45.25605" lon="6.0312">
        <ele>2091</ele>
        <time>2013-03-31T10:17:35Z</time>
      </trkpt>
      <trkpt lat="45.25607" lon="6.03124">
        <ele>2090.800049</ele>
        <time>2013-03-31T10:17:40Z</time>
      </trkpt>
      <trkpt lat="45.25607" lon="6.03124">
        <ele>2090.800049</ele>
        <time>2013-03-31T10:17:47Z</time>
      </trkpt>
      <trkpt lat="45.25607" lon="6.03124">
        <ele>2090.800049</ele>
        <time>2013-03-31T10:17:49Z</time>
      </trkpt>
      <trkpt lat="45.25602" lon="6.03123">
        <ele>2090.800049</ele>
        <time>2013-03-31T10:18:16Z</time>
      </trkpt>
      <trkpt lat="45.25603" lon="6.03125">
        <ele>2090.800049</ele>
        <time>2013-03-31T10:18:23Z</time>
      </trkpt>
      <trkpt lat="45.25604" lon="6.03124">
        <ele>2090.800049</ele>
        <time>2013-03-31T10:18:41Z</time>
      </trkpt>
      <trkpt lat="45.25603" lon="6.03124">
        <ele>2090.800049</ele>
        <time>2013-03-31T10:18:42Z</time>
      </trkpt>
      <trkpt lat="45.25605" lon="6.03125">
        <ele>2090.800049</ele>
        <time>2013-03-31T10:18:48Z</time>
      </trkpt>
      <trkpt lat="45.25605" lon="6.03126">
        <ele>2090.800049</ele>
        <time>2013-03-31T10:18:58Z</time>
      </trkpt>
      <trkpt lat="45.25605" lon="6.03125">
        <ele>2090.800049</ele>
        <time>2013-03-31T10:19:07Z</time>
      </trkpt>
    </trkseg>
  </trk>
</gpx>